<?xml version="1.0" encoding="UTF-8"?>
<gpx xmlns="http://www.topografix.com/GPX/1/1" version="1.1" xmlns:xsi="http://www.w3.org/2001/XMLSchema-instance" xsi:schemaLocation="http://www.topografix.com/GPX/1/1 http://www.topografix.com/GPX/1/1/gpx.xsd" creator="MotionXGPSFull 24.4 Build 5112 R64">
<trk>
<name><![CDATA[VRS 2017]]></name>
<desc><![CDATA[Nov 26, 2017 10:26 am]]></desc>
<trkseg>
<trkpt lat="22.2596759" lon="114.2325209">
<ele>80.662</ele>
<time>2017-11-26T02:26:05.005Z</time>
</trkpt>
<trkpt lat="22.2596757" lon="114.2325242">
<ele>80.503</ele>
<time>2017-11-26T02:26:05.255Z</time>
</trkpt>
<trkpt lat="22.2597441" lon="114.2324586">
<ele>80.082</ele>
<time>2017-11-26T02:26:14.662Z</time>
</trkpt>
<trkpt lat="22.2597876" lon="114.2323640">
<ele>79.575</ele>
<time>2017-11-26T02:26:21.202Z</time>
</trkpt>
<trkpt lat="22.2598395" lon="114.2322809">
<ele>79.257</ele>
<time>2017-11-26T02:26:26.004Z</time>
</trkpt>
<trkpt lat="22.2598395" lon="114.2322809">
<ele>79.147</ele>
<time>2017-11-26T02:26:28.004Z</time>
</trkpt>
<trkpt lat="22.2598395" lon="114.2322809">
<ele>79.135</ele>
<time>2017-11-26T02:26:28.104Z</time>
</trkpt>
<trkpt lat="22.2599534" lon="114.2323046">
<ele>79.133</ele>
<time>2017-11-26T02:27:06.109Z</time>
</trkpt>
<trkpt lat="22.2600454" lon="114.2322923">
<ele>78.800</ele>
<time>2017-11-26T02:27:13.823Z</time>
</trkpt>
<trkpt lat="22.2601415" lon="114.2323316">
<ele>77.901</ele>
<time>2017-11-26T02:27:19.957Z</time>
</trkpt>
<trkpt lat="22.2602345" lon="114.2323035">
<ele>76.669</ele>
<time>2017-11-26T02:27:24.586Z</time>
</trkpt>
<trkpt lat="22.2603194" lon="114.2322329">
<ele>75.376</ele>
<time>2017-11-26T02:27:29.727Z</time>
</trkpt>
<trkpt lat="22.2604029" lon="114.2321620">
<ele>74.089</ele>
<time>2017-11-26T02:27:34.817Z</time>
</trkpt>
<trkpt lat="22.2609065" lon="114.2320003">
<ele>72.480</ele>
<time>2017-11-26T02:28:00.017Z</time>
</trkpt>
<trkpt lat="22.2609946" lon="114.2320361">
<ele>72.498</ele>
<time>2017-11-26T02:28:04.002Z</time>
</trkpt>
<trkpt lat="22.2609946" lon="114.2320361">
<ele>72.665</ele>
<time>2017-11-26T02:28:10.002Z</time>
</trkpt>
<trkpt lat="22.2609946" lon="114.2320361">
<ele>72.660</ele>
<time>2017-11-26T02:28:26.955Z</time>
</trkpt>
<trkpt lat="22.2604224" lon="114.2317287">
<ele>72.544</ele>
<time>2017-11-26T02:29:41.916Z</time>
</trkpt>
<trkpt lat="22.2604224" lon="114.2317287">
<ele>72.544</ele>
<time>2017-11-26T02:29:41.916Z</time>
</trkpt>
<trkpt lat="22.2603217" lon="114.2313666">
<ele>75.516</ele>
<time>2017-11-26T02:30:17.798Z</time>
</trkpt>
<trkpt lat="22.2603217" lon="114.2313666">
<ele>75.516</ele>
<time>2017-11-26T02:30:17.798Z</time>
</trkpt>
<trkpt lat="22.2603422" lon="114.2311720">
<ele>82.055</ele>
<time>2017-11-26T02:30:38.256Z</time>
</trkpt>
<trkpt lat="22.2603422" lon="114.2311720">
<ele>82.055</ele>
<time>2017-11-26T02:30:38.256Z</time>
</trkpt>
<trkpt lat="22.2599705" lon="114.2293554">
<ele>106.636</ele>
<time>2017-11-26T02:36:35.995Z</time>
</trkpt>
<trkpt lat="22.2598047" lon="114.2289015">
<ele>106.587</ele>
<time>2017-11-26T02:38:07.277Z</time>
</trkpt>
<trkpt lat="22.2597426" lon="114.2288260">
<ele>106.761</ele>
<time>2017-11-26T02:38:18.993Z</time>
</trkpt>
<trkpt lat="22.2597426" lon="114.2288260">
<ele>107.262</ele>
<time>2017-11-26T02:38:36.992Z</time>
</trkpt>
<trkpt lat="22.2597426" lon="114.2288260">
<ele>107.667</ele>
<time>2017-11-26T02:38:37.092Z</time>
</trkpt>
<trkpt lat="22.2597320" lon="114.2287284">
<ele>107.546</ele>
<time>2017-11-26T02:38:51.992Z</time>
</trkpt>
<trkpt lat="22.2597320" lon="114.2287284">
<ele>107.166</ele>
<time>2017-11-26T02:38:51.992Z</time>
</trkpt>
<trkpt lat="22.2597320" lon="114.2287284">
<ele>106.961</ele>
<time>2017-11-26T02:39:22.219Z</time>
</trkpt>
<trkpt lat="22.2596645" lon="114.2288519">
<ele>106.959</ele>
<time>2017-11-26T02:39:35.161Z</time>
</trkpt>
<trkpt lat="22.2596594" lon="114.2287469">
<ele>106.996</ele>
<time>2017-11-26T02:39:41.070Z</time>
</trkpt>
<trkpt lat="22.2597009" lon="114.2286503">
<ele>107.003</ele>
<time>2017-11-26T02:39:46.991Z</time>
</trkpt>
<trkpt lat="22.2597009" lon="114.2286503">
<ele>106.969</ele>
<time>2017-11-26T02:39:48.991Z</time>
</trkpt>
<trkpt lat="22.2597009" lon="114.2286503">
<ele>106.915</ele>
<time>2017-11-26T02:39:58.723Z</time>
</trkpt>
<trkpt lat="22.2596329" lon="114.2285830">
<ele>106.842</ele>
<time>2017-11-26T02:40:23.954Z</time>
</trkpt>
<trkpt lat="22.2595553" lon="114.2285149">
<ele>106.676</ele>
<time>2017-11-26T02:40:35.402Z</time>
</trkpt>
<trkpt lat="22.2594587" lon="114.2284993">
<ele>106.120</ele>
<time>2017-11-26T02:40:45.996Z</time>
</trkpt>
<trkpt lat="22.2594587" lon="114.2284993">
<ele>105.333</ele>
<time>2017-11-26T02:41:00.995Z</time>
</trkpt>
<trkpt lat="22.2594587" lon="114.2284993">
<ele>104.834</ele>
<time>2017-11-26T02:41:01.095Z</time>
</trkpt>
<trkpt lat="22.2593590" lon="114.2284059">
<ele>104.820</ele>
<time>2017-11-26T02:41:26.572Z</time>
</trkpt>
<trkpt lat="22.2592795" lon="114.2283592">
<ele>105.024</ele>
<time>2017-11-26T02:41:38.350Z</time>
</trkpt>
<trkpt lat="22.2592095" lon="114.2282869">
<ele>105.297</ele>
<time>2017-11-26T02:41:48.002Z</time>
</trkpt>
<trkpt lat="22.2591710" lon="114.2281812">
<ele>105.819</ele>
<time>2017-11-26T02:41:56.282Z</time>
</trkpt>
<trkpt lat="22.2591550" lon="114.2280826">
<ele>106.552</ele>
<time>2017-11-26T02:42:04.783Z</time>
</trkpt>
<trkpt lat="22.2592060" lon="114.2279966">
<ele>107.123</ele>
<time>2017-11-26T02:42:15.066Z</time>
</trkpt>
<trkpt lat="22.2592614" lon="114.2279096">
<ele>107.317</ele>
<time>2017-11-26T02:42:30.341Z</time>
</trkpt>
<trkpt lat="22.2592845" lon="114.2278087">
<ele>107.245</ele>
<time>2017-11-26T02:42:42.440Z</time>
</trkpt>
<trkpt lat="22.2593317" lon="114.2277242">
<ele>107.259</ele>
<time>2017-11-26T02:42:49.638Z</time>
</trkpt>
<trkpt lat="22.2594111" lon="114.2276594">
<ele>107.643</ele>
<time>2017-11-26T02:42:57.000Z</time>
</trkpt>
<trkpt lat="22.2594761" lon="114.2275876">
<ele>108.363</ele>
<time>2017-11-26T02:43:04.920Z</time>
</trkpt>
<trkpt lat="22.2594618" lon="114.2274879">
<ele>109.317</ele>
<time>2017-11-26T02:43:14.721Z</time>
</trkpt>
<trkpt lat="22.2594618" lon="114.2273798">
<ele>110.498</ele>
<time>2017-11-26T02:43:22.854Z</time>
</trkpt>
<trkpt lat="22.2595313" lon="114.2273164">
<ele>111.782</ele>
<time>2017-11-26T02:43:29.992Z</time>
</trkpt>
<trkpt lat="22.2595313" lon="114.2273164">
<ele>112.842</ele>
<time>2017-11-26T02:43:33.992Z</time>
</trkpt>
<trkpt lat="22.2595313" lon="114.2273164">
<ele>113.314</ele>
<time>2017-11-26T02:43:38.757Z</time>
</trkpt>
<trkpt lat="22.2596527" lon="114.2273175">
<ele>113.211</ele>
<time>2017-11-26T02:43:49.020Z</time>
</trkpt>
<trkpt lat="22.2596014" lon="114.2272169">
<ele>113.116</ele>
<time>2017-11-26T02:43:56.793Z</time>
</trkpt>
<trkpt lat="22.2595181" lon="114.2271657">
<ele>113.611</ele>
<time>2017-11-26T02:44:04.991Z</time>
</trkpt>
<trkpt lat="22.2595181" lon="114.2271657">
<ele>114.518</ele>
<time>2017-11-26T02:44:14.991Z</time>
</trkpt>
<trkpt lat="22.2595181" lon="114.2271657">
<ele>115.091</ele>
<time>2017-11-26T02:44:40.787Z</time>
</trkpt>
<trkpt lat="22.2595181" lon="114.2271657">
<ele>114.657</ele>
<time>2017-11-26T02:44:52.990Z</time>
</trkpt>
<trkpt lat="22.2595181" lon="114.2271657">
<ele>114.430</ele>
<time>2017-11-26T02:44:53.090Z</time>
</trkpt>
<trkpt lat="22.2595181" lon="114.2271657">
<ele>114.456</ele>
<time>2017-11-26T02:44:55.990Z</time>
</trkpt>
<trkpt lat="22.2595181" lon="114.2271657">
<ele>114.482</ele>
<time>2017-11-26T02:44:56.090Z</time>
</trkpt>
<trkpt lat="22.2595267" lon="114.2270554">
<ele>114.433</ele>
<time>2017-11-26T02:45:37.021Z</time>
</trkpt>
<trkpt lat="22.2595435" lon="114.2269586">
<ele>114.999</ele>
<time>2017-11-26T02:45:55.558Z</time>
</trkpt>
<trkpt lat="22.2595810" lon="114.2268652">
<ele>116.756</ele>
<time>2017-11-26T02:46:14.754Z</time>
</trkpt>
<trkpt lat="22.2596374" lon="114.2267713">
<ele>118.862</ele>
<time>2017-11-26T02:46:36.872Z</time>
</trkpt>
<trkpt lat="22.2601094" lon="114.2268565">
<ele>120.529</ele>
<time>2017-11-26T02:48:56.412Z</time>
</trkpt>
<trkpt lat="22.2601989" lon="114.2268855">
<ele>121.303</ele>
<time>2017-11-26T02:49:23.744Z</time>
</trkpt>
<trkpt lat="22.2597862" lon="114.2266861">
<ele>124.982</ele>
<time>2017-11-26T02:51:35.986Z</time>
</trkpt>
<trkpt lat="22.2597862" lon="114.2266861">
<ele>125.552</ele>
<time>2017-11-26T02:51:42.986Z</time>
</trkpt>
<trkpt lat="22.2597862" lon="114.2266861">
<ele>125.341</ele>
<time>2017-11-26T02:51:43.086Z</time>
</trkpt>
<trkpt lat="22.2597619" lon="114.2268374">
<ele>125.118</ele>
<time>2017-11-26T02:51:54.626Z</time>
</trkpt>
<trkpt lat="22.2597923" lon="114.2269452">
<ele>125.079</ele>
<time>2017-11-26T02:51:59.010Z</time>
</trkpt>
<trkpt lat="22.2598255" lon="114.2270397">
<ele>124.484</ele>
<time>2017-11-26T02:52:03.093Z</time>
</trkpt>
<trkpt lat="22.2598810" lon="114.2271315">
<ele>122.797</ele>
<time>2017-11-26T02:52:07.873Z</time>
</trkpt>
<trkpt lat="22.2599287" lon="114.2272212">
<ele>122.847</ele>
<time>2017-11-26T02:52:12.985Z</time>
</trkpt>
<trkpt lat="22.2599287" lon="114.2272212">
<ele>123.479</ele>
<time>2017-11-26T02:52:22.985Z</time>
</trkpt>
<trkpt lat="22.2599287" lon="114.2272212">
<ele>123.350</ele>
<time>2017-11-26T02:53:37.045Z</time>
</trkpt>
<trkpt lat="22.2599287" lon="114.2272212">
<ele>123.228</ele>
<time>2017-11-26T02:54:03.983Z</time>
</trkpt>
<trkpt lat="22.2599287" lon="114.2272212">
<ele>123.251</ele>
<time>2017-11-26T02:54:41.988Z</time>
</trkpt>
<trkpt lat="22.2599287" lon="114.2272212">
<ele>123.206</ele>
<time>2017-11-26T02:55:00.073Z</time>
</trkpt>
<trkpt lat="22.2599026" lon="114.2271202">
<ele>123.134</ele>
<time>2017-11-26T02:55:14.186Z</time>
</trkpt>
<trkpt lat="22.2598637" lon="114.2270210">
<ele>123.351</ele>
<time>2017-11-26T02:55:21.524Z</time>
</trkpt>
<trkpt lat="22.2598212" lon="114.2269269">
<ele>124.055</ele>
<time>2017-11-26T02:55:27.262Z</time>
</trkpt>
<trkpt lat="22.2597719" lon="114.2268411">
<ele>124.863</ele>
<time>2017-11-26T02:55:32.536Z</time>
</trkpt>
<trkpt lat="22.2596983" lon="114.2267798">
<ele>125.585</ele>
<time>2017-11-26T02:55:37.987Z</time>
</trkpt>
<trkpt lat="22.2596983" lon="114.2267798">
<ele>126.393</ele>
<time>2017-11-26T02:55:39.987Z</time>
</trkpt>
<trkpt lat="22.2596983" lon="114.2267798">
<ele>126.929</ele>
<time>2017-11-26T02:57:32.743Z</time>
</trkpt>
<trkpt lat="22.2595765" lon="114.2267819">
<ele>126.509</ele>
<time>2017-11-26T02:58:10.600Z</time>
</trkpt>
<trkpt lat="22.2594945" lon="114.2268285">
<ele>126.312</ele>
<time>2017-11-26T02:58:15.983Z</time>
</trkpt>
<trkpt lat="22.2594945" lon="114.2268285">
<ele>126.338</ele>
<time>2017-11-26T02:58:19.983Z</time>
</trkpt>
<trkpt lat="22.2594945" lon="114.2268285">
<ele>126.406</ele>
<time>2017-11-26T02:58:20.083Z</time>
</trkpt>
<trkpt lat="22.2593814" lon="114.2269519">
<ele>126.356</ele>
<time>2017-11-26T02:58:53.212Z</time>
</trkpt>
<trkpt lat="22.2592917" lon="114.2269853">
<ele>126.203</ele>
<time>2017-11-26T02:59:00.104Z</time>
</trkpt>
<trkpt lat="22.2591928" lon="114.2269983">
<ele>126.020</ele>
<time>2017-11-26T02:59:05.236Z</time>
</trkpt>
<trkpt lat="22.2590978" lon="114.2269790">
<ele>126.212</ele>
<time>2017-11-26T02:59:10.538Z</time>
</trkpt>
<trkpt lat="22.2590772" lon="114.2268818">
<ele>127.245</ele>
<time>2017-11-26T02:59:16.966Z</time>
</trkpt>
<trkpt lat="22.2589912" lon="114.2269354">
<ele>129.865</ele>
<time>2017-11-26T02:59:25.264Z</time>
</trkpt>
<trkpt lat="22.2589273" lon="114.2270173">
<ele>130.285</ele>
<time>2017-11-26T02:59:31.981Z</time>
</trkpt>
<trkpt lat="22.2589273" lon="114.2270173">
<ele>130.117</ele>
<time>2017-11-26T02:59:31.981Z</time>
</trkpt>
<trkpt lat="22.2589273" lon="114.2270173">
<ele>129.903</ele>
<time>2017-11-26T02:59:43.258Z</time>
</trkpt>
<trkpt lat="22.2589346" lon="114.2269131">
<ele>129.934</ele>
<time>2017-11-26T03:00:19.140Z</time>
</trkpt>
<trkpt lat="22.2588759" lon="114.2268366">
<ele>130.241</ele>
<time>2017-11-26T03:00:47.765Z</time>
</trkpt>
<trkpt lat="22.2588700" lon="114.2267359">
<ele>130.978</ele>
<time>2017-11-26T03:00:59.979Z</time>
</trkpt>
<trkpt lat="22.2588700" lon="114.2267359">
<ele>131.625</ele>
<time>2017-11-26T03:01:03.979Z</time>
</trkpt>
<trkpt lat="22.2588700" lon="114.2267359">
<ele>131.717</ele>
<time>2017-11-26T03:01:13.551Z</time>
</trkpt>
<trkpt lat="22.2587915" lon="114.2266429">
<ele>131.442</ele>
<time>2017-11-26T03:01:30.585Z</time>
</trkpt>
<trkpt lat="22.2587625" lon="114.2265450">
<ele>130.635</ele>
<time>2017-11-26T03:01:38.978Z</time>
</trkpt>
<trkpt lat="22.2587625" lon="114.2265450">
<ele>129.192</ele>
<time>2017-11-26T03:01:54.984Z</time>
</trkpt>
<trkpt lat="22.2587625" lon="114.2265450">
<ele>128.090</ele>
<time>2017-11-26T03:01:55.084Z</time>
</trkpt>
<trkpt lat="22.2587047" lon="114.2264665">
<ele>128.583</ele>
<time>2017-11-26T03:02:23.741Z</time>
</trkpt>
<trkpt lat="22.2586202" lon="114.2264262">
<ele>130.988</ele>
<time>2017-11-26T03:02:38.983Z</time>
</trkpt>
<trkpt lat="22.2586202" lon="114.2264262">
<ele>136.380</ele>
<time>2017-11-26T03:02:41.983Z</time>
</trkpt>
<trkpt lat="22.2586202" lon="114.2264262">
<ele>140.743</ele>
<time>2017-11-26T03:02:42.464Z</time>
</trkpt>
<trkpt lat="22.2585015" lon="114.2262197">
<ele>140.597</ele>
<time>2017-11-26T03:03:23.942Z</time>
</trkpt>
<trkpt lat="22.2584311" lon="114.2262924">
<ele>140.274</ele>
<time>2017-11-26T03:03:33.573Z</time>
</trkpt>
<trkpt lat="22.2583583" lon="114.2262220">
<ele>144.006</ele>
<time>2017-11-26T03:03:43.179Z</time>
</trkpt>
<trkpt lat="22.2583696" lon="114.2261242">
<ele>149.326</ele>
<time>2017-11-26T03:03:50.981Z</time>
</trkpt>
<trkpt lat="22.2583696" lon="114.2261242">
<ele>152.622</ele>
<time>2017-11-26T03:04:03.981Z</time>
</trkpt>
<trkpt lat="22.2583696" lon="114.2261242">
<ele>153.644</ele>
<time>2017-11-26T03:04:04.081Z</time>
</trkpt>
<trkpt lat="22.2583058" lon="114.2260546">
<ele>153.358</ele>
<time>2017-11-26T03:04:14.082Z</time>
</trkpt>
<trkpt lat="22.2583060" lon="114.2259513">
<ele>153.438</ele>
<time>2017-11-26T03:04:18.980Z</time>
</trkpt>
<trkpt lat="22.2583060" lon="114.2259513">
<ele>154.777</ele>
<time>2017-11-26T03:04:43.980Z</time>
</trkpt>
<trkpt lat="22.2583060" lon="114.2259513">
<ele>156.059</ele>
<time>2017-11-26T03:04:44.080Z</time>
</trkpt>
<trkpt lat="22.2582243" lon="114.2258732">
<ele>155.233</ele>
<time>2017-11-26T03:04:55.979Z</time>
</trkpt>
<trkpt lat="22.2582243" lon="114.2258732">
<ele>154.741</ele>
<time>2017-11-26T03:05:09.979Z</time>
</trkpt>
<trkpt lat="22.2582243" lon="114.2258732">
<ele>154.705</ele>
<time>2017-11-26T03:05:57.239Z</time>
</trkpt>
<trkpt lat="22.2580166" lon="114.2254428">
<ele>154.778</ele>
<time>2017-11-26T03:09:16.979Z</time>
</trkpt>
<trkpt lat="22.2580166" lon="114.2254428">
<ele>158.584</ele>
<time>2017-11-26T03:09:16.980Z</time>
</trkpt>
<trkpt lat="22.2580166" lon="114.2254428">
<ele>168.739</ele>
<time>2017-11-26T03:09:29.483Z</time>
</trkpt>
<trkpt lat="22.2579769" lon="114.2253554">
<ele>171.955</ele>
<time>2017-11-26T03:09:43.975Z</time>
</trkpt>
<trkpt lat="22.2579052" lon="114.2254259">
<ele>166.774</ele>
<time>2017-11-26T03:09:50.979Z</time>
</trkpt>
<trkpt lat="22.2579052" lon="114.2254259">
<ele>169.803</ele>
<time>2017-11-26T03:10:01.978Z</time>
</trkpt>
<trkpt lat="22.2579052" lon="114.2254259">
<ele>175.107</ele>
<time>2017-11-26T03:10:02.078Z</time>
</trkpt>
<trkpt lat="22.2578947" lon="114.2252685">
<ele>175.280</ele>
<time>2017-11-26T03:10:17.612Z</time>
</trkpt>
<trkpt lat="22.2578308" lon="114.2251880">
<ele>174.365</ele>
<time>2017-11-26T03:10:22.978Z</time>
</trkpt>
<trkpt lat="22.2578308" lon="114.2251880">
<ele>177.440</ele>
<time>2017-11-26T03:10:26.978Z</time>
</trkpt>
<trkpt lat="22.2578308" lon="114.2251880">
<ele>181.069</ele>
<time>2017-11-26T03:11:00.897Z</time>
</trkpt>
<trkpt lat="22.2578308" lon="114.2251880">
<ele>179.022</ele>
<time>2017-11-26T03:11:15.977Z</time>
</trkpt>
<trkpt lat="22.2578308" lon="114.2251880">
<ele>177.707</ele>
<time>2017-11-26T03:12:00.102Z</time>
</trkpt>
<trkpt lat="22.2577894" lon="114.2250617">
<ele>177.987</ele>
<time>2017-11-26T03:12:27.975Z</time>
</trkpt>
<trkpt lat="22.2577894" lon="114.2250617">
<ele>179.031</ele>
<time>2017-11-26T03:12:35.975Z</time>
</trkpt>
<trkpt lat="22.2577894" lon="114.2250617">
<ele>179.498</ele>
<time>2017-11-26T03:12:38.496Z</time>
</trkpt>
<trkpt lat="22.2577614" lon="114.2248497">
<ele>179.271</ele>
<time>2017-11-26T03:13:23.974Z</time>
</trkpt>
<trkpt lat="22.2577614" lon="114.2248497">
<ele>179.002</ele>
<time>2017-11-26T03:13:27.973Z</time>
</trkpt>
<trkpt lat="22.2577614" lon="114.2248497">
<ele>178.926</ele>
<time>2017-11-26T03:13:28.073Z</time>
</trkpt>
<trkpt lat="22.2576840" lon="114.2247994">
<ele>178.905</ele>
<time>2017-11-26T03:13:56.973Z</time>
</trkpt>
<trkpt lat="22.2576840" lon="114.2247994">
<ele>178.837</ele>
<time>2017-11-26T03:13:57.973Z</time>
</trkpt>
<trkpt lat="22.2576840" lon="114.2247994">
<ele>178.782</ele>
<time>2017-11-26T03:13:58.073Z</time>
</trkpt>
<trkpt lat="22.2575712" lon="114.2247641">
<ele>178.736</ele>
<time>2017-11-26T03:14:11.972Z</time>
</trkpt>
<trkpt lat="22.2575712" lon="114.2247641">
<ele>178.694</ele>
<time>2017-11-26T03:14:15.972Z</time>
</trkpt>
<trkpt lat="22.2575712" lon="114.2247641">
<ele>178.644</ele>
<time>2017-11-26T03:14:36.502Z</time>
</trkpt>
<trkpt lat="22.2575194" lon="114.2246361">
<ele>178.583</ele>
<time>2017-11-26T03:15:03.971Z</time>
</trkpt>
<trkpt lat="22.2575194" lon="114.2246361">
<ele>178.532</ele>
<time>2017-11-26T03:15:14.971Z</time>
</trkpt>
<trkpt lat="22.2575194" lon="114.2246361">
<ele>178.484</ele>
<time>2017-11-26T03:15:15.071Z</time>
</trkpt>
<trkpt lat="22.2574377" lon="114.2245596">
<ele>178.429</ele>
<time>2017-11-26T03:15:23.971Z</time>
</trkpt>
<trkpt lat="22.2574377" lon="114.2245596">
<ele>178.379</ele>
<time>2017-11-26T03:15:27.971Z</time>
</trkpt>
<trkpt lat="22.2574377" lon="114.2245596">
<ele>178.329</ele>
<time>2017-11-26T03:15:39.169Z</time>
</trkpt>
<trkpt lat="22.2573662" lon="114.2244715">
<ele>178.206</ele>
<time>2017-11-26T03:15:54.187Z</time>
</trkpt>
<trkpt lat="22.2574029" lon="114.2243772">
<ele>184.980</ele>
<time>2017-11-26T03:15:59.970Z</time>
</trkpt>
<trkpt lat="22.2574029" lon="114.2243772">
<ele>202.704</ele>
<time>2017-11-26T03:16:09.970Z</time>
</trkpt>
<trkpt lat="22.2574029" lon="114.2243772">
<ele>217.462</ele>
<time>2017-11-26T03:16:10.070Z</time>
</trkpt>
<trkpt lat="22.2572787" lon="114.2243512">
<ele>217.125</ele>
<time>2017-11-26T03:16:29.174Z</time>
</trkpt>
<trkpt lat="22.2571850" lon="114.2243523">
<ele>213.771</ele>
<time>2017-11-26T03:16:39.941Z</time>
</trkpt>
<trkpt lat="22.2570908" lon="114.2243483">
<ele>220.140</ele>
<time>2017-11-26T03:16:51.273Z</time>
</trkpt>
<trkpt lat="22.2570022" lon="114.2243194">
<ele>231.158</ele>
<time>2017-11-26T03:17:03.937Z</time>
</trkpt>
<trkpt lat="22.2569109" lon="114.2242727">
<ele>238.315</ele>
<time>2017-11-26T03:17:13.177Z</time>
</trkpt>
<trkpt lat="22.2568220" lon="114.2242271">
<ele>241.311</ele>
<time>2017-11-26T03:17:19.974Z</time>
</trkpt>
<trkpt lat="22.2568220" lon="114.2242271">
<ele>242.261</ele>
<time>2017-11-26T03:17:37.974Z</time>
</trkpt>
<trkpt lat="22.2568220" lon="114.2242271">
<ele>242.390</ele>
<time>2017-11-26T03:17:42.269Z</time>
</trkpt>
<trkpt lat="22.2567809" lon="114.2241060">
<ele>242.212</ele>
<time>2017-11-26T03:18:03.058Z</time>
</trkpt>
<trkpt lat="22.2567092" lon="114.2240397">
<ele>242.398</ele>
<time>2017-11-26T03:18:13.746Z</time>
</trkpt>
<trkpt lat="22.2566351" lon="114.2239670">
<ele>244.424</ele>
<time>2017-11-26T03:18:24.043Z</time>
</trkpt>
<trkpt lat="22.2566070" lon="114.2238604">
<ele>245.465</ele>
<time>2017-11-26T03:18:31.698Z</time>
</trkpt>
<trkpt lat="22.2566337" lon="114.2237662">
<ele>246.135</ele>
<time>2017-11-26T03:18:38.272Z</time>
</trkpt>
<trkpt lat="22.2566423" lon="114.2236407">
<ele>246.294</ele>
<time>2017-11-26T03:18:44.834Z</time>
</trkpt>
<trkpt lat="22.2566551" lon="114.2235293">
<ele>245.944</ele>
<time>2017-11-26T03:18:49.549Z</time>
</trkpt>
<trkpt lat="22.2566519" lon="114.2234271">
<ele>244.833</ele>
<time>2017-11-26T03:18:54.333Z</time>
</trkpt>
<trkpt lat="22.2566633" lon="114.2233195">
<ele>241.410</ele>
<time>2017-11-26T03:19:00.003Z</time>
</trkpt>
<trkpt lat="22.2566639" lon="114.2232003">
<ele>239.542</ele>
<time>2017-11-26T03:19:07.909Z</time>
</trkpt>
<trkpt lat="22.2566586" lon="114.2230952">
<ele>236.212</ele>
<time>2017-11-26T03:19:15.972Z</time>
</trkpt>
<trkpt lat="22.2566586" lon="114.2230952">
<ele>234.950</ele>
<time>2017-11-26T03:19:25.971Z</time>
</trkpt>
<trkpt lat="22.2566586" lon="114.2230952">
<ele>235.013</ele>
<time>2017-11-26T03:19:26.071Z</time>
</trkpt>
<trkpt lat="22.2566050" lon="114.2229865">
<ele>234.970</ele>
<time>2017-11-26T03:19:36.971Z</time>
</trkpt>
<trkpt lat="22.2566050" lon="114.2229865">
<ele>234.844</ele>
<time>2017-11-26T03:19:48.971Z</time>
</trkpt>
<trkpt lat="22.2566050" lon="114.2229865">
<ele>234.706</ele>
<time>2017-11-26T03:21:28.509Z</time>
</trkpt>
<trkpt lat="22.2567051" lon="114.2229477">
<ele>234.611</ele>
<time>2017-11-26T03:21:39.968Z</time>
</trkpt>
<trkpt lat="22.2567051" lon="114.2229477">
<ele>234.532</ele>
<time>2017-11-26T03:21:46.968Z</time>
</trkpt>
<trkpt lat="22.2567051" lon="114.2229477">
<ele>234.429</ele>
<time>2017-11-26T03:21:53.323Z</time>
</trkpt>
<trkpt lat="22.2567274" lon="114.2228082">
<ele>234.321</ele>
<time>2017-11-26T03:22:05.526Z</time>
</trkpt>
<trkpt lat="22.2567172" lon="114.2226967">
<ele>234.018</ele>
<time>2017-11-26T03:22:10.858Z</time>
</trkpt>
<trkpt lat="22.2567298" lon="114.2225854">
<ele>233.044</ele>
<time>2017-11-26T03:22:14.796Z</time>
</trkpt>
<trkpt lat="22.2567237" lon="114.2224763">
<ele>231.551</ele>
<time>2017-11-26T03:22:18.596Z</time>
</trkpt>
<trkpt lat="22.2567394" lon="114.2223759">
<ele>230.441</ele>
<time>2017-11-26T03:22:22.574Z</time>
</trkpt>
<trkpt lat="22.2567751" lon="114.2222851">
<ele>230.359</ele>
<time>2017-11-26T03:22:27.061Z</time>
</trkpt>
<trkpt lat="22.2568168" lon="114.2221986">
<ele>230.884</ele>
<time>2017-11-26T03:22:32.303Z</time>
</trkpt>
<trkpt lat="22.2568300" lon="114.2220785">
<ele>232.158</ele>
<time>2017-11-26T03:22:37.439Z</time>
</trkpt>
<trkpt lat="22.2568522" lon="114.2219576">
<ele>232.274</ele>
<time>2017-11-26T03:22:41.556Z</time>
</trkpt>
<trkpt lat="22.2568358" lon="114.2218552">
<ele>232.162</ele>
<time>2017-11-26T03:22:44.737Z</time>
</trkpt>
<trkpt lat="22.2567884" lon="114.2217494">
<ele>231.874</ele>
<time>2017-11-26T03:22:48.328Z</time>
</trkpt>
<trkpt lat="22.2567668" lon="114.2216542">
<ele>231.175</ele>
<time>2017-11-26T03:22:51.481Z</time>
</trkpt>
<trkpt lat="22.2567657" lon="114.2215557">
<ele>229.886</ele>
<time>2017-11-26T03:22:54.870Z</time>
</trkpt>
<trkpt lat="22.2567864" lon="114.2214386">
<ele>228.338</ele>
<time>2017-11-26T03:22:59.186Z</time>
</trkpt>
<trkpt lat="22.2567957" lon="114.2213257">
<ele>227.028</ele>
<time>2017-11-26T03:23:03.331Z</time>
</trkpt>
<trkpt lat="22.2568373" lon="114.2212299">
<ele>226.013</ele>
<time>2017-11-26T03:23:07.158Z</time>
</trkpt>
<trkpt lat="22.2569151" lon="114.2211712">
<ele>224.981</ele>
<time>2017-11-26T03:23:10.966Z</time>
</trkpt>
<trkpt lat="22.2569151" lon="114.2211712">
<ele>223.923</ele>
<time>2017-11-26T03:23:14.966Z</time>
</trkpt>
<trkpt lat="22.2569151" lon="114.2211712">
<ele>223.255</ele>
<time>2017-11-26T03:23:20.107Z</time>
</trkpt>
<trkpt lat="22.2569240" lon="114.2210677">
<ele>223.202</ele>
<time>2017-11-26T03:23:28.381Z</time>
</trkpt>
<trkpt lat="22.2569590" lon="114.2209781">
<ele>222.710</ele>
<time>2017-11-26T03:23:32.436Z</time>
</trkpt>
<trkpt lat="22.2570161" lon="114.2208735">
<ele>221.012</ele>
<time>2017-11-26T03:23:36.875Z</time>
</trkpt>
<trkpt lat="22.2570365" lon="114.2207692">
<ele>219.125</ele>
<time>2017-11-26T03:23:40.563Z</time>
</trkpt>
<trkpt lat="22.2570382" lon="114.2206455">
<ele>218.143</ele>
<time>2017-11-26T03:23:44.739Z</time>
</trkpt>
<trkpt lat="22.2570663" lon="114.2205533">
<ele>217.917</ele>
<time>2017-11-26T03:23:48.445Z</time>
</trkpt>
<trkpt lat="22.2571302" lon="114.2204767">
<ele>218.092</ele>
<time>2017-11-26T03:23:52.829Z</time>
</trkpt>
<trkpt lat="22.2571904" lon="114.2203990">
<ele>218.583</ele>
<time>2017-11-26T03:23:58.015Z</time>
</trkpt>
<trkpt lat="22.2572612" lon="114.2203336">
<ele>218.431</ele>
<time>2017-11-26T03:24:03.971Z</time>
</trkpt>
<trkpt lat="22.2572612" lon="114.2203336">
<ele>218.153</ele>
<time>2017-11-26T03:24:13.971Z</time>
</trkpt>
<trkpt lat="22.2572612" lon="114.2203336">
<ele>217.989</ele>
<time>2017-11-26T03:25:39.649Z</time>
</trkpt>
<trkpt lat="22.2573125" lon="114.2202356">
<ele>217.896</ele>
<time>2017-11-26T03:25:51.968Z</time>
</trkpt>
<trkpt lat="22.2573125" lon="114.2202356">
<ele>217.854</ele>
<time>2017-11-26T03:26:00.968Z</time>
</trkpt>
<trkpt lat="22.2573125" lon="114.2202356">
<ele>217.761</ele>
<time>2017-11-26T03:26:01.068Z</time>
</trkpt>
<trkpt lat="22.2574140" lon="114.2201769">
<ele>217.656</ele>
<time>2017-11-26T03:26:14.833Z</time>
</trkpt>
<trkpt lat="22.2574287" lon="114.2200674">
<ele>215.695</ele>
<time>2017-11-26T03:26:22.973Z</time>
</trkpt>
<trkpt lat="22.2574525" lon="114.2199594">
<ele>210.627</ele>
<time>2017-11-26T03:26:30.469Z</time>
</trkpt>
<trkpt lat="22.2574886" lon="114.2198492">
<ele>205.293</ele>
<time>2017-11-26T03:26:37.888Z</time>
</trkpt>
<trkpt lat="22.2575009" lon="114.2197360">
<ele>202.629</ele>
<time>2017-11-26T03:26:44.429Z</time>
</trkpt>
<trkpt lat="22.2575149" lon="114.2196331">
<ele>202.154</ele>
<time>2017-11-26T03:26:50.273Z</time>
</trkpt>
<trkpt lat="22.2575537" lon="114.2195352">
<ele>202.571</ele>
<time>2017-11-26T03:26:56.383Z</time>
</trkpt>
<trkpt lat="22.2576106" lon="114.2194484">
<ele>202.904</ele>
<time>2017-11-26T03:27:02.532Z</time>
</trkpt>
<trkpt lat="22.2576689" lon="114.2193599">
<ele>202.468</ele>
<time>2017-11-26T03:27:08.492Z</time>
</trkpt>
<trkpt lat="22.2577091" lon="114.2192583">
<ele>202.142</ele>
<time>2017-11-26T03:27:13.612Z</time>
</trkpt>
<trkpt lat="22.2577070" lon="114.2191472">
<ele>201.777</ele>
<time>2017-11-26T03:27:18.618Z</time>
</trkpt>
<trkpt lat="22.2577104" lon="114.2190472">
<ele>201.499</ele>
<time>2017-11-26T03:27:23.677Z</time>
</trkpt>
<trkpt lat="22.2577119" lon="114.2189443">
<ele>201.162</ele>
<time>2017-11-26T03:27:29.313Z</time>
</trkpt>
<trkpt lat="22.2577023" lon="114.2188476">
<ele>200.959</ele>
<time>2017-11-26T03:27:34.738Z</time>
</trkpt>
<trkpt lat="22.2577145" lon="114.2187444">
<ele>200.947</ele>
<time>2017-11-26T03:27:40.613Z</time>
</trkpt>
<trkpt lat="22.2577627" lon="114.2186540">
<ele>201.062</ele>
<time>2017-11-26T03:27:46.940Z</time>
</trkpt>
<trkpt lat="22.2578180" lon="114.2185710">
<ele>201.261</ele>
<time>2017-11-26T03:27:53.946Z</time>
</trkpt>
<trkpt lat="22.2578996" lon="114.2185258">
<ele>201.702</ele>
<time>2017-11-26T03:28:00.965Z</time>
</trkpt>
<trkpt lat="22.2578996" lon="114.2185258">
<ele>202.411</ele>
<time>2017-11-26T03:28:09.965Z</time>
</trkpt>
<trkpt lat="22.2578996" lon="114.2185258">
<ele>202.886</ele>
<time>2017-11-26T03:28:11.077Z</time>
</trkpt>
<trkpt lat="22.2580037" lon="114.2184297">
<ele>202.685</ele>
<time>2017-11-26T03:28:30.469Z</time>
</trkpt>
<trkpt lat="22.2580980" lon="114.2183871">
<ele>202.176</ele>
<time>2017-11-26T03:28:38.709Z</time>
</trkpt>
<trkpt lat="22.2581530" lon="114.2182983">
<ele>201.854</ele>
<time>2017-11-26T03:28:45.208Z</time>
</trkpt>
<trkpt lat="22.2581243" lon="114.2181937">
<ele>201.782</ele>
<time>2017-11-26T03:28:50.485Z</time>
</trkpt>
<trkpt lat="22.2580764" lon="114.2181115">
<ele>201.881</ele>
<time>2017-11-26T03:28:54.902Z</time>
</trkpt>
<trkpt lat="22.2580142" lon="114.2180329">
<ele>202.069</ele>
<time>2017-11-26T03:29:00.203Z</time>
</trkpt>
<trkpt lat="22.2579463" lon="114.2179602">
<ele>202.217</ele>
<time>2017-11-26T03:29:06.016Z</time>
</trkpt>
<trkpt lat="22.2578689" lon="114.2178933">
<ele>202.293</ele>
<time>2017-11-26T03:29:12.525Z</time>
</trkpt>
<trkpt lat="22.2578028" lon="114.2178102">
<ele>202.282</ele>
<time>2017-11-26T03:29:19.488Z</time>
</trkpt>
<trkpt lat="22.2577083" lon="114.2177861">
<ele>202.247</ele>
<time>2017-11-26T03:29:26.422Z</time>
</trkpt>
<trkpt lat="22.2576756" lon="114.2176845">
<ele>202.242</ele>
<time>2017-11-26T03:29:33.584Z</time>
</trkpt>
<trkpt lat="22.2577192" lon="114.2175876">
<ele>202.228</ele>
<time>2017-11-26T03:29:40.559Z</time>
</trkpt>
<trkpt lat="22.2577386" lon="114.2174829">
<ele>201.860</ele>
<time>2017-11-26T03:29:47.319Z</time>
</trkpt>
<trkpt lat="22.2576804" lon="114.2174025">
<ele>200.977</ele>
<time>2017-11-26T03:29:53.702Z</time>
</trkpt>
<trkpt lat="22.2576039" lon="114.2173350">
<ele>199.990</ele>
<time>2017-11-26T03:30:00.082Z</time>
</trkpt>
<trkpt lat="22.2575112" lon="114.2172995">
<ele>198.997</ele>
<time>2017-11-26T03:30:06.027Z</time>
</trkpt>
<trkpt lat="22.2574563" lon="114.2172120">
<ele>197.756</ele>
<time>2017-11-26T03:30:11.962Z</time>
</trkpt>
<trkpt lat="22.2574563" lon="114.2172120">
<ele>196.713</ele>
<time>2017-11-26T03:30:27.962Z</time>
</trkpt>
<trkpt lat="22.2574563" lon="114.2172120">
<ele>196.316</ele>
<time>2017-11-26T03:31:25.723Z</time>
</trkpt>
<trkpt lat="22.2575033" lon="114.2170691">
<ele>196.330</ele>
<time>2017-11-26T03:31:44.925Z</time>
</trkpt>
<trkpt lat="22.2575912" lon="114.2170243">
<ele>194.966</ele>
<time>2017-11-26T03:31:52.507Z</time>
</trkpt>
<trkpt lat="22.2576887" lon="114.2169941">
<ele>191.173</ele>
<time>2017-11-26T03:32:00.058Z</time>
</trkpt>
<trkpt lat="22.2577797" lon="114.2169593">
<ele>187.098</ele>
<time>2017-11-26T03:32:07.354Z</time>
</trkpt>
<trkpt lat="22.2576923" lon="114.2169904">
<ele>184.780</ele>
<time>2017-11-26T03:32:14.321Z</time>
</trkpt>
<trkpt lat="22.2575857" lon="114.2170124">
<ele>185.864</ele>
<time>2017-11-26T03:32:20.966Z</time>
</trkpt>
<trkpt lat="22.2575857" lon="114.2170124">
<ele>187.413</ele>
<time>2017-11-26T03:32:25.965Z</time>
</trkpt>
<trkpt lat="22.2575857" lon="114.2170124">
<ele>188.313</ele>
<time>2017-11-26T03:32:31.891Z</time>
</trkpt>
<trkpt lat="22.2577270" lon="114.2169720">
<ele>187.615</ele>
<time>2017-11-26T03:32:43.452Z</time>
</trkpt>
<trkpt lat="22.2578154" lon="114.2169391">
<ele>187.292</ele>
<time>2017-11-26T03:32:47.724Z</time>
</trkpt>
<trkpt lat="22.2578793" lon="114.2168411">
<ele>187.319</ele>
<time>2017-11-26T03:32:52.387Z</time>
</trkpt>
<trkpt lat="22.2578889" lon="114.2167342">
<ele>187.495</ele>
<time>2017-11-26T03:32:56.733Z</time>
</trkpt>
<trkpt lat="22.2579401" lon="114.2166472">
<ele>187.575</ele>
<time>2017-11-26T03:33:01.140Z</time>
</trkpt>
<trkpt lat="22.2580025" lon="114.2165638">
<ele>187.629</ele>
<time>2017-11-26T03:33:07.346Z</time>
</trkpt>
<trkpt lat="22.2580893" lon="114.2164996">
<ele>187.812</ele>
<time>2017-11-26T03:33:14.832Z</time>
</trkpt>
<trkpt lat="22.2581681" lon="114.2164410">
<ele>187.903</ele>
<time>2017-11-26T03:33:21.549Z</time>
</trkpt>
<trkpt lat="22.2582018" lon="114.2163412">
<ele>187.760</ele>
<time>2017-11-26T03:33:28.915Z</time>
</trkpt>
<trkpt lat="22.2582543" lon="114.2162605">
<ele>187.718</ele>
<time>2017-11-26T03:33:36.148Z</time>
</trkpt>
<trkpt lat="22.2583261" lon="114.2161969">
<ele>188.055</ele>
<time>2017-11-26T03:33:42.941Z</time>
</trkpt>
<trkpt lat="22.2584299" lon="114.2161598">
<ele>188.453</ele>
<time>2017-11-26T03:33:49.322Z</time>
</trkpt>
<trkpt lat="22.2585115" lon="114.2161172">
<ele>188.158</ele>
<time>2017-11-26T03:33:53.296Z</time>
</trkpt>
<trkpt lat="22.2585982" lon="114.2160295">
<ele>187.818</ele>
<time>2017-11-26T03:33:57.670Z</time>
</trkpt>
<trkpt lat="22.2586705" lon="114.2159185">
<ele>187.803</ele>
<time>2017-11-26T03:34:01.749Z</time>
</trkpt>
<trkpt lat="22.2587439" lon="114.2158453">
<ele>188.313</ele>
<time>2017-11-26T03:34:04.963Z</time>
</trkpt>
<trkpt lat="22.2587439" lon="114.2158453">
<ele>189.413</ele>
<time>2017-11-26T03:34:10.963Z</time>
</trkpt>
<trkpt lat="22.2587439" lon="114.2158453">
<ele>189.304</ele>
<time>2017-11-26T03:34:11.402Z</time>
</trkpt>
<trkpt lat="22.2587656" lon="114.2157169">
<ele>189.014</ele>
<time>2017-11-26T03:34:19.460Z</time>
</trkpt>
<trkpt lat="22.2588119" lon="114.2156189">
<ele>188.693</ele>
<time>2017-11-26T03:34:22.962Z</time>
</trkpt>
<trkpt lat="22.2588119" lon="114.2156189">
<ele>188.285</ele>
<time>2017-11-26T03:34:25.962Z</time>
</trkpt>
<trkpt lat="22.2588119" lon="114.2156189">
<ele>187.966</ele>
<time>2017-11-26T03:34:27.403Z</time>
</trkpt>
<trkpt lat="22.2589046" lon="114.2155149">
<ele>187.955</ele>
<time>2017-11-26T03:34:38.142Z</time>
</trkpt>
<trkpt lat="22.2589995" lon="114.2154321">
<ele>188.117</ele>
<time>2017-11-26T03:34:43.217Z</time>
</trkpt>
<trkpt lat="22.2590632" lon="114.2153567">
<ele>188.087</ele>
<time>2017-11-26T03:34:46.685Z</time>
</trkpt>
<trkpt lat="22.2591219" lon="114.2152598">
<ele>187.728</ele>
<time>2017-11-26T03:34:50.485Z</time>
</trkpt>
<trkpt lat="22.2592083" lon="114.2152038">
<ele>187.230</ele>
<time>2017-11-26T03:34:54.068Z</time>
</trkpt>
<trkpt lat="22.2593033" lon="114.2151454">
<ele>186.812</ele>
<time>2017-11-26T03:34:58.173Z</time>
</trkpt>
<trkpt lat="22.2593923" lon="114.2151012">
<ele>186.465</ele>
<time>2017-11-26T03:35:02.630Z</time>
</trkpt>
<trkpt lat="22.2594735" lon="114.2150453">
<ele>186.325</ele>
<time>2017-11-26T03:35:07.402Z</time>
</trkpt>
<trkpt lat="22.2595580" lon="114.2149769">
<ele>186.024</ele>
<time>2017-11-26T03:35:13.067Z</time>
</trkpt>
<trkpt lat="22.2596049" lon="114.2148915">
<ele>185.897</ele>
<time>2017-11-26T03:35:18.037Z</time>
</trkpt>
<trkpt lat="22.2595881" lon="114.2147857">
<ele>185.647</ele>
<time>2017-11-26T03:35:23.996Z</time>
</trkpt>
<trkpt lat="22.2596718" lon="114.2147289">
<ele>185.640</ele>
<time>2017-11-26T03:35:30.549Z</time>
</trkpt>
<trkpt lat="22.2597669" lon="114.2147580">
<ele>185.699</ele>
<time>2017-11-26T03:35:37.364Z</time>
</trkpt>
<trkpt lat="22.2598613" lon="114.2147523">
<ele>185.763</ele>
<time>2017-11-26T03:35:43.525Z</time>
</trkpt>
<trkpt lat="22.2599354" lon="114.2146876">
<ele>185.674</ele>
<time>2017-11-26T03:35:49.520Z</time>
</trkpt>
<trkpt lat="22.2599275" lon="114.2145839">
<ele>185.363</ele>
<time>2017-11-26T03:35:56.216Z</time>
</trkpt>
<trkpt lat="22.2599086" lon="114.2144881">
<ele>185.033</ele>
<time>2017-11-26T03:36:02.957Z</time>
</trkpt>
<trkpt lat="22.2598795" lon="114.2143942">
<ele>184.804</ele>
<time>2017-11-26T03:36:09.982Z</time>
</trkpt>
<trkpt lat="22.2598265" lon="114.2143007">
<ele>184.596</ele>
<time>2017-11-26T03:36:16.686Z</time>
</trkpt>
<trkpt lat="22.2597956" lon="114.2142059">
<ele>184.445</ele>
<time>2017-11-26T03:36:22.318Z</time>
</trkpt>
<trkpt lat="22.2597913" lon="114.2141069">
<ele>184.405</ele>
<time>2017-11-26T03:36:27.531Z</time>
</trkpt>
<trkpt lat="22.2598179" lon="114.2140072">
<ele>184.423</ele>
<time>2017-11-26T03:36:32.719Z</time>
</trkpt>
<trkpt lat="22.2598354" lon="114.2138965">
<ele>184.303</ele>
<time>2017-11-26T03:36:38.301Z</time>
</trkpt>
<trkpt lat="22.2598698" lon="114.2137959">
<ele>183.794</ele>
<time>2017-11-26T03:36:43.868Z</time>
</trkpt>
<trkpt lat="22.2599391" lon="114.2137210">
<ele>183.019</ele>
<time>2017-11-26T03:36:49.819Z</time>
</trkpt>
<trkpt lat="22.2600068" lon="114.2136503">
<ele>182.559</ele>
<time>2017-11-26T03:36:56.179Z</time>
</trkpt>
<trkpt lat="22.2600607" lon="114.2135659">
<ele>182.706</ele>
<time>2017-11-26T03:37:02.958Z</time>
</trkpt>
<trkpt lat="22.2600607" lon="114.2135659">
<ele>183.123</ele>
<time>2017-11-26T03:37:10.958Z</time>
</trkpt>
<trkpt lat="22.2600607" lon="114.2135659">
<ele>183.342</ele>
<time>2017-11-26T03:37:29.665Z</time>
</trkpt>
<trkpt lat="22.2601649" lon="114.2133206">
<ele>183.192</ele>
<time>2017-11-26T03:37:46.957Z</time>
</trkpt>
<trkpt lat="22.2601649" lon="114.2133206">
<ele>182.894</ele>
<time>2017-11-26T03:38:10.963Z</time>
</trkpt>
<trkpt lat="22.2601649" lon="114.2133206">
<ele>182.729</ele>
<time>2017-11-26T03:38:18.963Z</time>
</trkpt>
<trkpt lat="22.2601649" lon="114.2133206">
<ele>182.690</ele>
<time>2017-11-26T03:38:28.081Z</time>
</trkpt>
<trkpt lat="22.2601266" lon="114.2132263">
<ele>182.593</ele>
<time>2017-11-26T03:38:46.476Z</time>
</trkpt>
<trkpt lat="22.2601928" lon="114.2131587">
<ele>182.913</ele>
<time>2017-11-26T03:38:54.452Z</time>
</trkpt>
<trkpt lat="22.2602624" lon="114.2130859">
<ele>183.866</ele>
<time>2017-11-26T03:39:00.962Z</time>
</trkpt>
<trkpt lat="22.2602624" lon="114.2130859">
<ele>184.649</ele>
<time>2017-11-26T03:39:06.962Z</time>
</trkpt>
<trkpt lat="22.2602624" lon="114.2130859">
<ele>184.561</ele>
<time>2017-11-26T03:39:07.062Z</time>
</trkpt>
<trkpt lat="22.2603357" lon="114.2129924">
<ele>184.053</ele>
<time>2017-11-26T03:39:22.884Z</time>
</trkpt>
<trkpt lat="22.2603445" lon="114.2128919">
<ele>183.538</ele>
<time>2017-11-26T03:39:29.505Z</time>
</trkpt>
<trkpt lat="22.2603637" lon="114.2127865">
<ele>182.865</ele>
<time>2017-11-26T03:39:35.514Z</time>
</trkpt>
<trkpt lat="22.2603736" lon="114.2126784">
<ele>182.093</ele>
<time>2017-11-26T03:39:41.427Z</time>
</trkpt>
<trkpt lat="22.2604160" lon="114.2125905">
<ele>181.658</ele>
<time>2017-11-26T03:39:46.684Z</time>
</trkpt>
<trkpt lat="22.2604686" lon="114.2124928">
<ele>181.721</ele>
<time>2017-11-26T03:39:52.281Z</time>
</trkpt>
<trkpt lat="22.2604668" lon="114.2123902">
<ele>182.044</ele>
<time>2017-11-26T03:39:57.003Z</time>
</trkpt>
<trkpt lat="22.2604884" lon="114.2122821">
<ele>182.077</ele>
<time>2017-11-26T03:40:01.325Z</time>
</trkpt>
<trkpt lat="22.2604820" lon="114.2121708">
<ele>182.265</ele>
<time>2017-11-26T03:40:05.020Z</time>
</trkpt>
<trkpt lat="22.2604506" lon="114.2120746">
<ele>182.600</ele>
<time>2017-11-26T03:40:08.157Z</time>
</trkpt>
<trkpt lat="22.2603862" lon="114.2119985">
<ele>182.712</ele>
<time>2017-11-26T03:40:11.234Z</time>
</trkpt>
<trkpt lat="22.2603225" lon="114.2119234">
<ele>182.030</ele>
<time>2017-11-26T03:40:14.277Z</time>
</trkpt>
<trkpt lat="22.2602985" lon="114.2118270">
<ele>180.581</ele>
<time>2017-11-26T03:40:17.288Z</time>
</trkpt>
<trkpt lat="22.2602454" lon="114.2117261">
<ele>179.176</ele>
<time>2017-11-26T03:40:20.856Z</time>
</trkpt>
<trkpt lat="22.2601597" lon="114.2116363">
<ele>178.395</ele>
<time>2017-11-26T03:40:25.026Z</time>
</trkpt>
<trkpt lat="22.2600609" lon="114.2116478">
<ele>177.761</ele>
<time>2017-11-26T03:40:28.883Z</time>
</trkpt>
<trkpt lat="22.2599769" lon="114.2116827">
<ele>175.986</ele>
<time>2017-11-26T03:40:32.848Z</time>
</trkpt>
<trkpt lat="22.2598952" lon="114.2117364">
<ele>176.090</ele>
<time>2017-11-26T03:40:37.804Z</time>
</trkpt>
<trkpt lat="22.2598207" lon="114.2118135">
<ele>176.661</ele>
<time>2017-11-26T03:40:43.960Z</time>
</trkpt>
<trkpt lat="22.2597345" lon="114.2118543">
<ele>176.962</ele>
<time>2017-11-26T03:40:50.972Z</time>
</trkpt>
<trkpt lat="22.2596368" lon="114.2118273">
<ele>176.851</ele>
<time>2017-11-26T03:40:58.040Z</time>
</trkpt>
<trkpt lat="22.2595701" lon="114.2117607">
<ele>176.480</ele>
<time>2017-11-26T03:41:03.959Z</time>
</trkpt>
<trkpt lat="22.2595701" lon="114.2117607">
<ele>175.990</ele>
<time>2017-11-26T03:41:05.959Z</time>
</trkpt>
<trkpt lat="22.2595701" lon="114.2117607">
<ele>175.657</ele>
<time>2017-11-26T03:41:09.694Z</time>
</trkpt>
<trkpt lat="22.2594784" lon="114.2116307">
<ele>175.685</ele>
<time>2017-11-26T03:41:25.313Z</time>
</trkpt>
<trkpt lat="22.2593935" lon="114.2115957">
<ele>175.208</ele>
<time>2017-11-26T03:41:29.833Z</time>
</trkpt>
<trkpt lat="22.2592935" lon="114.2115099">
<ele>172.314</ele>
<time>2017-11-26T03:41:34.849Z</time>
</trkpt>
<trkpt lat="22.2592065" lon="114.2114308">
<ele>171.594</ele>
<time>2017-11-26T03:41:39.308Z</time>
</trkpt>
<trkpt lat="22.2591083" lon="114.2114644">
<ele>171.074</ele>
<time>2017-11-26T03:41:43.729Z</time>
</trkpt>
<trkpt lat="22.2590330" lon="114.2115398">
<ele>169.800</ele>
<time>2017-11-26T03:41:48.586Z</time>
</trkpt>
<trkpt lat="22.2589646" lon="114.2116052">
<ele>166.376</ele>
<time>2017-11-26T03:41:53.222Z</time>
</trkpt>
<trkpt lat="22.2589018" lon="114.2117031">
<ele>165.550</ele>
<time>2017-11-26T03:41:58.893Z</time>
</trkpt>
<trkpt lat="22.2588211" lon="114.2117539">
<ele>165.320</ele>
<time>2017-11-26T03:42:03.634Z</time>
</trkpt>
<trkpt lat="22.2587195" lon="114.2118003">
<ele>165.426</ele>
<time>2017-11-26T03:42:09.176Z</time>
</trkpt>
<trkpt lat="22.2586637" lon="114.2118838">
<ele>165.593</ele>
<time>2017-11-26T03:42:14.076Z</time>
</trkpt>
<trkpt lat="22.2586216" lon="114.2119717">
<ele>165.697</ele>
<time>2017-11-26T03:42:18.991Z</time>
</trkpt>
<trkpt lat="22.2585908" lon="114.2120723">
<ele>165.644</ele>
<time>2017-11-26T03:42:24.617Z</time>
</trkpt>
<trkpt lat="22.2585594" lon="114.2121767">
<ele>165.386</ele>
<time>2017-11-26T03:42:30.857Z</time>
</trkpt>
<trkpt lat="22.2585266" lon="114.2122696">
<ele>164.697</ele>
<time>2017-11-26T03:42:36.957Z</time>
</trkpt>
<trkpt lat="22.2585266" lon="114.2122696">
<ele>163.555</ele>
<time>2017-11-26T03:42:41.957Z</time>
</trkpt>
<trkpt lat="22.2585266" lon="114.2122696">
<ele>162.703</ele>
<time>2017-11-26T03:43:18.798Z</time>
</trkpt>
<trkpt lat="22.2584817" lon="114.2121781">
<ele>163.028</ele>
<time>2017-11-26T03:43:27.955Z</time>
</trkpt>
<trkpt lat="22.2584817" lon="114.2121781">
<ele>163.239</ele>
<time>2017-11-26T03:43:28.955Z</time>
</trkpt>
<trkpt lat="22.2584817" lon="114.2121781">
<ele>163.160</ele>
<time>2017-11-26T03:43:31.168Z</time>
</trkpt>
<trkpt lat="22.2583790" lon="114.2120850">
<ele>162.950</ele>
<time>2017-11-26T03:43:41.955Z</time>
</trkpt>
<trkpt lat="22.2583790" lon="114.2120850">
<ele>162.951</ele>
<time>2017-11-26T03:43:43.955Z</time>
</trkpt>
<trkpt lat="22.2583790" lon="114.2120850">
<ele>162.891</ele>
<time>2017-11-26T03:43:46.311Z</time>
</trkpt>
<trkpt lat="22.2582906" lon="114.2120193">
<ele>162.758</ele>
<time>2017-11-26T03:43:57.697Z</time>
</trkpt>
<trkpt lat="22.2582148" lon="114.2119539">
<ele>162.248</ele>
<time>2017-11-26T03:44:04.003Z</time>
</trkpt>
<trkpt lat="22.2581520" lon="114.2118812">
<ele>160.798</ele>
<time>2017-11-26T03:44:09.673Z</time>
</trkpt>
<trkpt lat="22.2580779" lon="114.2118088">
<ele>158.820</ele>
<time>2017-11-26T03:44:15.989Z</time>
</trkpt>
<trkpt lat="22.2580135" lon="114.2117266">
<ele>157.042</ele>
<time>2017-11-26T03:44:22.796Z</time>
</trkpt>
<trkpt lat="22.2579593" lon="114.2116333">
<ele>155.638</ele>
<time>2017-11-26T03:44:29.954Z</time>
</trkpt>
<trkpt lat="22.2579593" lon="114.2116333">
<ele>154.601</ele>
<time>2017-11-26T03:44:38.954Z</time>
</trkpt>
<trkpt lat="22.2579593" lon="114.2116333">
<ele>154.059</ele>
<time>2017-11-26T03:45:36.959Z</time>
</trkpt>
<trkpt lat="22.2579593" lon="114.2116333">
<ele>154.045</ele>
<time>2017-11-26T03:45:53.958Z</time>
</trkpt>
<trkpt lat="22.2579593" lon="114.2116333">
<ele>154.168</ele>
<time>2017-11-26T03:46:04.344Z</time>
</trkpt>
<trkpt lat="22.2580303" lon="114.2117000">
<ele>153.976</ele>
<time>2017-11-26T03:46:18.967Z</time>
</trkpt>
<trkpt lat="22.2580848" lon="114.2117803">
<ele>153.499</ele>
<time>2017-11-26T03:46:25.046Z</time>
</trkpt>
<trkpt lat="22.2581409" lon="114.2118785">
<ele>152.483</ele>
<time>2017-11-26T03:46:30.313Z</time>
</trkpt>
<trkpt lat="22.2582021" lon="114.2119544">
<ele>151.552</ele>
<time>2017-11-26T03:46:36.065Z</time>
</trkpt>
<trkpt lat="22.2582801" lon="114.2120074">
<ele>151.396</ele>
<time>2017-11-26T03:46:41.936Z</time>
</trkpt>
<trkpt lat="22.2583682" lon="114.2120715">
<ele>151.913</ele>
<time>2017-11-26T03:46:53.098Z</time>
</trkpt>
<trkpt lat="22.2584181" lon="114.2121556">
<ele>152.612</ele>
<time>2017-11-26T03:47:01.957Z</time>
</trkpt>
<trkpt lat="22.2584181" lon="114.2121556">
<ele>153.044</ele>
<time>2017-11-26T03:47:04.957Z</time>
</trkpt>
<trkpt lat="22.2584181" lon="114.2121556">
<ele>153.116</ele>
<time>2017-11-26T03:47:08.046Z</time>
</trkpt>
<trkpt lat="22.2583446" lon="114.2120793">
<ele>152.904</ele>
<time>2017-11-26T03:47:43.339Z</time>
</trkpt>
<trkpt lat="22.2582864" lon="114.2119977">
<ele>152.855</ele>
<time>2017-11-26T03:47:49.913Z</time>
</trkpt>
<trkpt lat="22.2582201" lon="114.2119103">
<ele>152.736</ele>
<time>2017-11-26T03:47:56.262Z</time>
</trkpt>
<trkpt lat="22.2581673" lon="114.2118254">
<ele>152.369</ele>
<time>2017-11-26T03:48:02.029Z</time>
</trkpt>
<trkpt lat="22.2580995" lon="114.2117423">
<ele>151.851</ele>
<time>2017-11-26T03:48:08.551Z</time>
</trkpt>
<trkpt lat="22.2580189" lon="114.2116850">
<ele>151.255</ele>
<time>2017-11-26T03:48:14.955Z</time>
</trkpt>
<trkpt lat="22.2580189" lon="114.2116850">
<ele>150.550</ele>
<time>2017-11-26T03:48:22.955Z</time>
</trkpt>
<trkpt lat="22.2580189" lon="114.2116850">
<ele>150.046</ele>
<time>2017-11-26T03:49:36.953Z</time>
</trkpt>
<trkpt lat="22.2580189" lon="114.2116850">
<ele>150.005</ele>
<time>2017-11-26T03:49:53.952Z</time>
</trkpt>
<trkpt lat="22.2580189" lon="114.2116850">
<ele>150.122</ele>
<time>2017-11-26T04:00:15.155Z</time>
</trkpt>
<trkpt lat="22.2578474" lon="114.2115539">
<ele>150.092</ele>
<time>2017-11-26T04:00:34.950Z</time>
</trkpt>
<trkpt lat="22.2578474" lon="114.2115539">
<ele>149.974</ele>
<time>2017-11-26T04:00:43.950Z</time>
</trkpt>
<trkpt lat="22.2578474" lon="114.2115539">
<ele>149.905</ele>
<time>2017-11-26T04:00:47.998Z</time>
</trkpt>
<trkpt lat="22.2578140" lon="114.2114595">
<ele>149.845</ele>
<time>2017-11-26T04:01:01.903Z</time>
</trkpt>
<trkpt lat="22.2577669" lon="114.2113675">
<ele>150.398</ele>
<time>2017-11-26T04:01:10.940Z</time>
</trkpt>
<trkpt lat="22.2576729" lon="114.2113291">
<ele>152.023</ele>
<time>2017-11-26T04:01:20.634Z</time>
</trkpt>
<trkpt lat="22.2575757" lon="114.2113539">
<ele>153.890</ele>
<time>2017-11-26T04:01:28.964Z</time>
</trkpt>
<trkpt lat="22.2574812" lon="114.2113707">
<ele>155.021</ele>
<time>2017-11-26T04:01:33.949Z</time>
</trkpt>
<trkpt lat="22.2574812" lon="114.2113707">
<ele>155.469</ele>
<time>2017-11-26T04:01:40.949Z</time>
</trkpt>
<trkpt lat="22.2574812" lon="114.2113707">
<ele>155.539</ele>
<time>2017-11-26T04:01:41.049Z</time>
</trkpt>
<trkpt lat="22.2574812" lon="114.2113707">
<ele>155.331</ele>
<time>2017-11-26T04:02:02.948Z</time>
</trkpt>
<trkpt lat="22.2574812" lon="114.2113707">
<ele>155.274</ele>
<time>2017-11-26T04:03:32.576Z</time>
</trkpt>
<trkpt lat="22.2575404" lon="114.2112859">
<ele>155.198</ele>
<time>2017-11-26T04:03:45.599Z</time>
</trkpt>
<trkpt lat="22.2576081" lon="114.2112046">
<ele>155.507</ele>
<time>2017-11-26T04:03:53.946Z</time>
</trkpt>
<trkpt lat="22.2576081" lon="114.2112046">
<ele>156.389</ele>
<time>2017-11-26T04:04:05.945Z</time>
</trkpt>
<trkpt lat="22.2576081" lon="114.2112046">
<ele>157.111</ele>
<time>2017-11-26T04:04:20.944Z</time>
</trkpt>
<trkpt lat="22.2576543" lon="114.2111004">
<ele>157.035</ele>
<time>2017-11-26T04:04:36.190Z</time>
</trkpt>
<trkpt lat="22.2577036" lon="114.2110183">
<ele>156.754</ele>
<time>2017-11-26T04:04:44.456Z</time>
</trkpt>
<trkpt lat="22.2577635" lon="114.2109284">
<ele>156.901</ele>
<time>2017-11-26T04:04:51.192Z</time>
</trkpt>
<trkpt lat="22.2578498" lon="114.2108836">
<ele>157.211</ele>
<time>2017-11-26T04:04:56.953Z</time>
</trkpt>
<trkpt lat="22.2579301" lon="114.2108375">
<ele>157.223</ele>
<time>2017-11-26T04:05:02.943Z</time>
</trkpt>
<trkpt lat="22.2579749" lon="114.2107439">
<ele>156.931</ele>
<time>2017-11-26T04:05:09.746Z</time>
</trkpt>
<trkpt lat="22.2579592" lon="114.2106403">
<ele>156.531</ele>
<time>2017-11-26T04:05:16.791Z</time>
</trkpt>
<trkpt lat="22.2578909" lon="114.2105697">
<ele>156.077</ele>
<time>2017-11-26T04:05:23.867Z</time>
</trkpt>
<trkpt lat="22.2577966" lon="114.2105653">
<ele>155.608</ele>
<time>2017-11-26T04:05:31.415Z</time>
</trkpt>
<trkpt lat="22.2577094" lon="114.2105314">
<ele>155.310</ele>
<time>2017-11-26T04:05:39.493Z</time>
</trkpt>
<trkpt lat="22.2576217" lon="114.2104832">
<ele>155.374</ele>
<time>2017-11-26T04:05:48.116Z</time>
</trkpt>
<trkpt lat="22.2575503" lon="114.2104157">
<ele>155.740</ele>
<time>2017-11-26T04:05:56.096Z</time>
</trkpt>
<trkpt lat="22.2574592" lon="114.2103963">
<ele>156.126</ele>
<time>2017-11-26T04:06:03.977Z</time>
</trkpt>
<trkpt lat="22.2573680" lon="114.2104159">
<ele>156.391</ele>
<time>2017-11-26T04:06:10.753Z</time>
</trkpt>
<trkpt lat="22.2572709" lon="114.2104231">
<ele>156.690</ele>
<time>2017-11-26T04:06:16.979Z</time>
</trkpt>
<trkpt lat="22.2571818" lon="114.2104730">
<ele>157.114</ele>
<time>2017-11-26T04:06:23.859Z</time>
</trkpt>
<trkpt lat="22.2570805" lon="114.2104920">
<ele>157.549</ele>
<time>2017-11-26T04:06:31.191Z</time>
</trkpt>
<trkpt lat="22.2569809" lon="114.2105111">
<ele>157.904</ele>
<time>2017-11-26T04:06:38.363Z</time>
</trkpt>
<trkpt lat="22.2568949" lon="114.2105590">
<ele>158.191</ele>
<time>2017-11-26T04:06:45.203Z</time>
</trkpt>
<trkpt lat="22.2568094" lon="114.2105963">
<ele>158.296</ele>
<time>2017-11-26T04:06:52.658Z</time>
</trkpt>
<trkpt lat="22.2568108" lon="114.2104859">
<ele>158.110</ele>
<time>2017-11-26T04:07:01.276Z</time>
</trkpt>
<trkpt lat="22.2567866" lon="114.2103810">
<ele>157.788</ele>
<time>2017-11-26T04:07:08.785Z</time>
</trkpt>
<trkpt lat="22.2567586" lon="114.2102798">
<ele>157.555</ele>
<time>2017-11-26T04:07:15.172Z</time>
</trkpt>
<trkpt lat="22.2568188" lon="114.2102044">
<ele>157.508</ele>
<time>2017-11-26T04:07:21.976Z</time>
</trkpt>
<trkpt lat="22.2569082" lon="114.2101807">
<ele>157.663</ele>
<time>2017-11-26T04:07:29.620Z</time>
</trkpt>
<trkpt lat="22.2569994" lon="114.2101457">
<ele>157.963</ele>
<time>2017-11-26T04:07:36.869Z</time>
</trkpt>
<trkpt lat="22.2570763" lon="114.2100825">
<ele>158.285</ele>
<time>2017-11-26T04:07:43.999Z</time>
</trkpt>
<trkpt lat="22.2570763" lon="114.2100825">
<ele>158.531</ele>
<time>2017-11-26T04:07:44.999Z</time>
</trkpt>
<trkpt lat="22.2570763" lon="114.2100825">
<ele>158.619</ele>
<time>2017-11-26T04:09:02.303Z</time>
</trkpt>
<trkpt lat="22.2571310" lon="114.2099890">
<ele>158.416</ele>
<time>2017-11-26T04:09:25.945Z</time>
</trkpt>
<trkpt lat="22.2570944" lon="114.2098870">
<ele>158.345</ele>
<time>2017-11-26T04:09:32.744Z</time>
</trkpt>
<trkpt lat="22.2570345" lon="114.2098031">
<ele>158.366</ele>
<time>2017-11-26T04:09:38.550Z</time>
</trkpt>
<trkpt lat="22.2569980" lon="114.2096915">
<ele>158.724</ele>
<time>2017-11-26T04:09:44.630Z</time>
</trkpt>
<trkpt lat="22.2569563" lon="114.2095936">
<ele>159.288</ele>
<time>2017-11-26T04:09:50.351Z</time>
</trkpt>
<trkpt lat="22.2570337" lon="114.2095360">
<ele>160.065</ele>
<time>2017-11-26T04:09:55.363Z</time>
</trkpt>
<trkpt lat="22.2571259" lon="114.2095018">
<ele>160.566</ele>
<time>2017-11-26T04:09:59.338Z</time>
</trkpt>
<trkpt lat="22.2572224" lon="114.2094384">
<ele>160.517</ele>
<time>2017-11-26T04:10:03.072Z</time>
</trkpt>
<trkpt lat="22.2573032" lon="114.2093932">
<ele>159.930</ele>
<time>2017-11-26T04:10:05.935Z</time>
</trkpt>
<trkpt lat="22.2573831" lon="114.2093481">
<ele>158.989</ele>
<time>2017-11-26T04:10:08.778Z</time>
</trkpt>
<trkpt lat="22.2574659" lon="114.2092827">
<ele>158.015</ele>
<time>2017-11-26T04:10:12.817Z</time>
</trkpt>
<trkpt lat="22.2575676" lon="114.2092725">
<ele>156.891</ele>
<time>2017-11-26T04:10:17.265Z</time>
</trkpt>
<trkpt lat="22.2576410" lon="114.2093304">
<ele>156.844</ele>
<time>2017-11-26T04:10:22.403Z</time>
</trkpt>
<trkpt lat="22.2576948" lon="114.2094088">
<ele>157.007</ele>
<time>2017-11-26T04:10:27.685Z</time>
</trkpt>
<trkpt lat="22.2577736" lon="114.2094723">
<ele>157.192</ele>
<time>2017-11-26T04:10:32.995Z</time>
</trkpt>
<trkpt lat="22.2577736" lon="114.2094723">
<ele>157.249</ele>
<time>2017-11-26T04:10:42.994Z</time>
</trkpt>
<trkpt lat="22.2577736" lon="114.2094723">
<ele>157.174</ele>
<time>2017-11-26T04:10:48.397Z</time>
</trkpt>
<trkpt lat="22.2578744" lon="114.2095137">
<ele>157.034</ele>
<time>2017-11-26T04:11:05.224Z</time>
</trkpt>
<trkpt lat="22.2579564" lon="114.2095627">
<ele>156.796</ele>
<time>2017-11-26T04:11:12.219Z</time>
</trkpt>
<trkpt lat="22.2580299" lon="114.2096371">
<ele>156.025</ele>
<time>2017-11-26T04:11:19.647Z</time>
</trkpt>
<trkpt lat="22.2581119" lon="114.2095912">
<ele>154.996</ele>
<time>2017-11-26T04:11:28.053Z</time>
</trkpt>
<trkpt lat="22.2581833" lon="114.2095161">
<ele>154.508</ele>
<time>2017-11-26T04:11:36.540Z</time>
</trkpt>
<trkpt lat="22.2582722" lon="114.2094911">
<ele>154.830</ele>
<time>2017-11-26T04:11:42.668Z</time>
</trkpt>
<trkpt lat="22.2583627" lon="114.2094850">
<ele>155.632</ele>
<time>2017-11-26T04:11:48.123Z</time>
</trkpt>
<trkpt lat="22.2584527" lon="114.2094877">
<ele>156.522</ele>
<time>2017-11-26T04:11:53.681Z</time>
</trkpt>
<trkpt lat="22.2585309" lon="114.2094199">
<ele>157.128</ele>
<time>2017-11-26T04:12:00.728Z</time>
</trkpt>
<trkpt lat="22.2585636" lon="114.2093210">
<ele>157.222</ele>
<time>2017-11-26T04:12:08.107Z</time>
</trkpt>
<trkpt lat="22.2585776" lon="114.2092239">
<ele>156.878</ele>
<time>2017-11-26T04:12:14.755Z</time>
</trkpt>
<trkpt lat="22.2586334" lon="114.2091400">
<ele>156.294</ele>
<time>2017-11-26T04:12:21.199Z</time>
</trkpt>
<trkpt lat="22.2587166" lon="114.2091007">
<ele>155.868</ele>
<time>2017-11-26T04:12:27.295Z</time>
</trkpt>
<trkpt lat="22.2588070" lon="114.2090523">
<ele>155.825</ele>
<time>2017-11-26T04:12:33.666Z</time>
</trkpt>
<trkpt lat="22.2589000" lon="114.2089964">
<ele>156.044</ele>
<time>2017-11-26T04:12:39.632Z</time>
</trkpt>
<trkpt lat="22.2589982" lon="114.2089581">
<ele>156.368</ele>
<time>2017-11-26T04:12:45.169Z</time>
</trkpt>
<trkpt lat="22.2590939" lon="114.2089370">
<ele>156.733</ele>
<time>2017-11-26T04:12:50.344Z</time>
</trkpt>
<trkpt lat="22.2591968" lon="114.2089160">
<ele>157.114</ele>
<time>2017-11-26T04:12:55.991Z</time>
</trkpt>
<trkpt lat="22.2591968" lon="114.2089160">
<ele>157.405</ele>
<time>2017-11-26T04:13:01.991Z</time>
</trkpt>
<trkpt lat="22.2591968" lon="114.2089160">
<ele>157.470</ele>
<time>2017-11-26T04:13:08.119Z</time>
</trkpt>
<trkpt lat="22.2592730" lon="114.2088227">
<ele>157.265</ele>
<time>2017-11-26T04:13:24.060Z</time>
</trkpt>
<trkpt lat="22.2593303" lon="114.2087354">
<ele>157.212</ele>
<time>2017-11-26T04:13:33.319Z</time>
</trkpt>
<trkpt lat="22.2593609" lon="114.2086361">
<ele>157.266</ele>
<time>2017-11-26T04:13:41.339Z</time>
</trkpt>
<trkpt lat="22.2593671" lon="114.2085372">
<ele>157.524</ele>
<time>2017-11-26T04:13:48.117Z</time>
</trkpt>
<trkpt lat="22.2594325" lon="114.2084467">
<ele>157.943</ele>
<time>2017-11-26T04:13:55.990Z</time>
</trkpt>
<trkpt lat="22.2594325" lon="114.2084467">
<ele>158.307</ele>
<time>2017-11-26T04:13:59.990Z</time>
</trkpt>
<trkpt lat="22.2594325" lon="114.2084467">
<ele>158.438</ele>
<time>2017-11-26T04:14:00.090Z</time>
</trkpt>
<trkpt lat="22.2595647" lon="114.2084004">
<ele>158.352</ele>
<time>2017-11-26T04:14:14.499Z</time>
</trkpt>
<trkpt lat="22.2596514" lon="114.2084324">
<ele>158.300</ele>
<time>2017-11-26T04:14:19.205Z</time>
</trkpt>
<trkpt lat="22.2597529" lon="114.2084635">
<ele>158.650</ele>
<time>2017-11-26T04:14:23.941Z</time>
</trkpt>
<trkpt lat="22.2598299" lon="114.2084078">
<ele>158.680</ele>
<time>2017-11-26T04:14:27.785Z</time>
</trkpt>
<trkpt lat="22.2599063" lon="114.2083413">
<ele>158.751</ele>
<time>2017-11-26T04:14:31.618Z</time>
</trkpt>
<trkpt lat="22.2600097" lon="114.2083271">
<ele>159.127</ele>
<time>2017-11-26T04:14:35.613Z</time>
</trkpt>
<trkpt lat="22.2600992" lon="114.2082936">
<ele>159.684</ele>
<time>2017-11-26T04:14:39.297Z</time>
</trkpt>
<trkpt lat="22.2601787" lon="114.2082404">
<ele>160.087</ele>
<time>2017-11-26T04:14:43.056Z</time>
</trkpt>
<trkpt lat="22.2602716" lon="114.2082383">
<ele>160.236</ele>
<time>2017-11-26T04:14:47.206Z</time>
</trkpt>
<trkpt lat="22.2603696" lon="114.2081967">
<ele>160.238</ele>
<time>2017-11-26T04:14:53.210Z</time>
</trkpt>
<trkpt lat="22.2603489" lon="114.2080979">
<ele>160.157</ele>
<time>2017-11-26T04:15:01.147Z</time>
</trkpt>
<trkpt lat="22.2603863" lon="114.2080080">
<ele>160.403</ele>
<time>2017-11-26T04:15:08.954Z</time>
</trkpt>
<trkpt lat="22.2604566" lon="114.2079472">
<ele>161.088</ele>
<time>2017-11-26T04:15:14.819Z</time>
</trkpt>
<trkpt lat="22.2605212" lon="114.2078733">
<ele>161.797</ele>
<time>2017-11-26T04:15:20.595Z</time>
</trkpt>
<trkpt lat="22.2605955" lon="114.2078065">
<ele>162.249</ele>
<time>2017-11-26T04:15:26.742Z</time>
</trkpt>
<trkpt lat="22.2606732" lon="114.2077468">
<ele>162.599</ele>
<time>2017-11-26T04:15:32.892Z</time>
</trkpt>
<trkpt lat="22.2607629" lon="114.2077842">
<ele>162.787</ele>
<time>2017-11-26T04:15:38.766Z</time>
</trkpt>
<trkpt lat="22.2608529" lon="114.2078018">
<ele>162.697</ele>
<time>2017-11-26T04:15:44.002Z</time>
</trkpt>
<trkpt lat="22.2609463" lon="114.2077805">
<ele>162.415</ele>
<time>2017-11-26T04:15:50.158Z</time>
</trkpt>
<trkpt lat="22.2610137" lon="114.2077149">
<ele>162.085</ele>
<time>2017-11-26T04:15:56.662Z</time>
</trkpt>
<trkpt lat="22.2610997" lon="114.2076693">
<ele>161.849</ele>
<time>2017-11-26T04:16:03.820Z</time>
</trkpt>
<trkpt lat="22.2611939" lon="114.2076534">
<ele>161.744</ele>
<time>2017-11-26T04:16:10.514Z</time>
</trkpt>
<trkpt lat="22.2612860" lon="114.2076684">
<ele>161.692</ele>
<time>2017-11-26T04:16:16.598Z</time>
</trkpt>
<trkpt lat="22.2613735" lon="114.2076388">
<ele>161.661</ele>
<time>2017-11-26T04:16:22.556Z</time>
</trkpt>
<trkpt lat="22.2613833" lon="114.2075354">
<ele>161.612</ele>
<time>2017-11-26T04:16:29.183Z</time>
</trkpt>
<trkpt lat="22.2613994" lon="114.2074361">
<ele>161.707</ele>
<time>2017-11-26T04:16:35.494Z</time>
</trkpt>
<trkpt lat="22.2613760" lon="114.2073238">
<ele>162.199</ele>
<time>2017-11-26T04:16:42.384Z</time>
</trkpt>
<trkpt lat="22.2613931" lon="114.2072285">
<ele>162.313</ele>
<time>2017-11-26T04:16:48.065Z</time>
</trkpt>
<trkpt lat="22.2614511" lon="114.2071373">
<ele>162.418</ele>
<time>2017-11-26T04:16:54.320Z</time>
</trkpt>
<trkpt lat="22.2614279" lon="114.2070417">
<ele>162.625</ele>
<time>2017-11-26T04:17:00.183Z</time>
</trkpt>
<trkpt lat="22.2614755" lon="114.2069572">
<ele>162.841</ele>
<time>2017-11-26T04:17:06.729Z</time>
</trkpt>
<trkpt lat="22.2615854" lon="114.2069241">
<ele>162.877</ele>
<time>2017-11-26T04:17:17.449Z</time>
</trkpt>
<trkpt lat="22.2616741" lon="114.2069463">
<ele>162.713</ele>
<time>2017-11-26T04:17:26.517Z</time>
</trkpt>
<trkpt lat="22.2617680" lon="114.2069581">
<ele>162.607</ele>
<time>2017-11-26T04:17:33.991Z</time>
</trkpt>
<trkpt lat="22.2617680" lon="114.2069581">
<ele>162.755</ele>
<time>2017-11-26T04:17:36.991Z</time>
</trkpt>
<trkpt lat="22.2617680" lon="114.2069581">
<ele>162.917</ele>
<time>2017-11-26T04:18:07.990Z</time>
</trkpt>
<trkpt lat="22.2617680" lon="114.2069581">
<ele>162.854</ele>
<time>2017-11-26T04:18:08.140Z</time>
</trkpt>
<trkpt lat="22.2618424" lon="114.2069010">
<ele>162.706</ele>
<time>2017-11-26T04:18:19.427Z</time>
</trkpt>
<trkpt lat="22.2618941" lon="114.2068146">
<ele>162.951</ele>
<time>2017-11-26T04:18:26.574Z</time>
</trkpt>
<trkpt lat="22.2619224" lon="114.2067178">
<ele>163.749</ele>
<time>2017-11-26T04:18:32.947Z</time>
</trkpt>
<trkpt lat="22.2619584" lon="114.2066113">
<ele>164.245</ele>
<time>2017-11-26T04:18:38.990Z</time>
</trkpt>
<trkpt lat="22.2619584" lon="114.2066113">
<ele>163.774</ele>
<time>2017-11-26T04:18:45.989Z</time>
</trkpt>
<trkpt lat="22.2619584" lon="114.2066113">
<ele>163.101</ele>
<time>2017-11-26T04:19:28.749Z</time>
</trkpt>
<trkpt lat="22.2620288" lon="114.2064927">
<ele>163.079</ele>
<time>2017-11-26T04:19:48.183Z</time>
</trkpt>
<trkpt lat="22.2620577" lon="114.2063998">
<ele>163.568</ele>
<time>2017-11-26T04:19:56.987Z</time>
</trkpt>
<trkpt lat="22.2619267" lon="114.2061887">
<ele>164.122</ele>
<time>2017-11-26T04:20:18.757Z</time>
</trkpt>
<trkpt lat="22.2618310" lon="114.2060589">
<ele>164.514</ele>
<time>2017-11-26T04:20:31.494Z</time>
</trkpt>
<trkpt lat="22.2617381" lon="114.2060250">
<ele>164.692</ele>
<time>2017-11-26T04:20:39.823Z</time>
</trkpt>
<trkpt lat="22.2616646" lon="114.2059558">
<ele>164.901</ele>
<time>2017-11-26T04:20:48.123Z</time>
</trkpt>
<trkpt lat="22.2615856" lon="114.2058913">
<ele>165.354</ele>
<time>2017-11-26T04:20:57.443Z</time>
</trkpt>
<trkpt lat="22.2615079" lon="114.2058291">
<ele>165.822</ele>
<time>2017-11-26T04:21:07.440Z</time>
</trkpt>
<trkpt lat="22.2614568" lon="114.2057391">
<ele>166.357</ele>
<time>2017-11-26T04:21:18.310Z</time>
</trkpt>
<trkpt lat="22.2614005" lon="114.2056616">
<ele>167.929</ele>
<time>2017-11-26T04:21:27.448Z</time>
</trkpt>
<trkpt lat="22.2613086" lon="114.2056037">
<ele>170.611</ele>
<time>2017-11-26T04:21:37.972Z</time>
</trkpt>
<trkpt lat="22.2612113" lon="114.2055675">
<ele>171.762</ele>
<time>2017-11-26T04:21:46.991Z</time>
</trkpt>
<trkpt lat="22.2612113" lon="114.2055675">
<ele>169.752</ele>
<time>2017-11-26T04:21:52.991Z</time>
</trkpt>
<trkpt lat="22.2612113" lon="114.2055675">
<ele>167.369</ele>
<time>2017-11-26T04:22:24.990Z</time>
</trkpt>
<trkpt lat="22.2612113" lon="114.2055675">
<ele>167.258</ele>
<time>2017-11-26T04:22:52.370Z</time>
</trkpt>
<trkpt lat="22.2612113" lon="114.2055675">
<ele>168.193</ele>
<time>2017-11-26T04:23:54.988Z</time>
</trkpt>
<trkpt lat="22.2612113" lon="114.2055675">
<ele>167.776</ele>
<time>2017-11-26T04:24:02.565Z</time>
</trkpt>
<trkpt lat="22.2611728" lon="114.2054736">
<ele>167.644</ele>
<time>2017-11-26T04:24:29.988Z</time>
</trkpt>
<trkpt lat="22.2611728" lon="114.2054736">
<ele>167.786</ele>
<time>2017-11-26T04:24:42.987Z</time>
</trkpt>
<trkpt lat="22.2611728" lon="114.2054736">
<ele>167.884</ele>
<time>2017-11-26T04:29:38.060Z</time>
</trkpt>
<trkpt lat="22.2611267" lon="114.2053852">
<ele>167.676</ele>
<time>2017-11-26T04:30:33.416Z</time>
</trkpt>
<trkpt lat="22.2610712" lon="114.2052968">
<ele>169.308</ele>
<time>2017-11-26T04:31:15.985Z</time>
</trkpt>
<trkpt lat="22.2610712" lon="114.2052968">
<ele>173.751</ele>
<time>2017-11-26T04:31:24.985Z</time>
</trkpt>
<trkpt lat="22.2610712" lon="114.2052968">
<ele>177.452</ele>
<time>2017-11-26T04:31:25.085Z</time>
</trkpt>
<trkpt lat="22.2610712" lon="114.2052968">
<ele>175.272</ele>
<time>2017-11-26T04:31:37.984Z</time>
</trkpt>
<trkpt lat="22.2610712" lon="114.2052968">
<ele>173.982</ele>
<time>2017-11-26T04:31:40.328Z</time>
</trkpt>
<trkpt lat="22.2608649" lon="114.2053639">
<ele>174.267</ele>
<time>2017-11-26T04:31:53.984Z</time>
</trkpt>
<trkpt lat="22.2608649" lon="114.2053639">
<ele>175.300</ele>
<time>2017-11-26T04:32:06.984Z</time>
</trkpt>
<trkpt lat="22.2608649" lon="114.2053639">
<ele>175.759</ele>
<time>2017-11-26T04:32:50.718Z</time>
</trkpt>
<trkpt lat="22.2606083" lon="114.2049607">
<ele>175.301</ele>
<time>2017-11-26T04:34:02.037Z</time>
</trkpt>
<trkpt lat="22.2605192" lon="114.2049810">
<ele>177.016</ele>
<time>2017-11-26T04:34:07.981Z</time>
</trkpt>
<trkpt lat="22.2605192" lon="114.2049810">
<ele>181.600</ele>
<time>2017-11-26T04:34:13.980Z</time>
</trkpt>
<trkpt lat="22.2605192" lon="114.2049810">
<ele>185.366</ele>
<time>2017-11-26T04:34:20.954Z</time>
</trkpt>
<trkpt lat="22.2604690" lon="114.2048736">
<ele>183.139</ele>
<time>2017-11-26T04:34:54.797Z</time>
</trkpt>
<trkpt lat="22.2605069" lon="114.2047775">
<ele>183.287</ele>
<time>2017-11-26T04:35:09.070Z</time>
</trkpt>
<trkpt lat="22.2604145" lon="114.2047652">
<ele>187.183</ele>
<time>2017-11-26T04:35:17.979Z</time>
</trkpt>
<trkpt lat="22.2604145" lon="114.2047652">
<ele>191.916</ele>
<time>2017-11-26T04:35:39.978Z</time>
</trkpt>
<trkpt lat="22.2604145" lon="114.2047652">
<ele>194.117</ele>
<time>2017-11-26T04:35:40.078Z</time>
</trkpt>
<trkpt lat="22.2603079" lon="114.2047558">
<ele>193.794</ele>
<time>2017-11-26T04:35:48.978Z</time>
</trkpt>
<trkpt lat="22.2603079" lon="114.2047558">
<ele>192.843</ele>
<time>2017-11-26T04:35:56.978Z</time>
</trkpt>
<trkpt lat="22.2603079" lon="114.2047558">
<ele>192.700</ele>
<time>2017-11-26T04:36:53.435Z</time>
</trkpt>
<trkpt lat="22.2599366" lon="114.2044769">
<ele>193.009</ele>
<time>2017-11-26T04:39:03.277Z</time>
</trkpt>
<trkpt lat="22.2599130" lon="114.2043816">
<ele>195.287</ele>
<time>2017-11-26T04:39:13.864Z</time>
</trkpt>
<trkpt lat="22.2598265" lon="114.2044151">
<ele>201.588</ele>
<time>2017-11-26T04:39:24.369Z</time>
</trkpt>
<trkpt lat="22.2596546" lon="114.2039608">
<ele>210.853</ele>
<time>2017-11-26T04:40:20.978Z</time>
</trkpt>
<trkpt lat="22.2596546" lon="114.2039608">
<ele>211.146</ele>
<time>2017-11-26T04:40:43.977Z</time>
</trkpt>
<trkpt lat="22.2596546" lon="114.2039608">
<ele>210.851</ele>
<time>2017-11-26T04:41:28.419Z</time>
</trkpt>
<trkpt lat="22.2596654" lon="114.2038085">
<ele>210.754</ele>
<time>2017-11-26T04:41:45.976Z</time>
</trkpt>
<trkpt lat="22.2596654" lon="114.2038085">
<ele>210.806</ele>
<time>2017-11-26T04:41:51.976Z</time>
</trkpt>
<trkpt lat="22.2596654" lon="114.2038085">
<ele>210.826</ele>
<time>2017-11-26T04:41:52.076Z</time>
</trkpt>
<trkpt lat="22.2595470" lon="114.2037872">
<ele>210.739</ele>
<time>2017-11-26T04:42:11.139Z</time>
</trkpt>
<trkpt lat="22.2594985" lon="114.2036981">
<ele>212.375</ele>
<time>2017-11-26T04:42:16.802Z</time>
</trkpt>
<trkpt lat="22.2594536" lon="114.2036081">
<ele>216.947</ele>
<time>2017-11-26T04:42:20.975Z</time>
</trkpt>
<trkpt lat="22.2594536" lon="114.2036081">
<ele>221.730</ele>
<time>2017-11-26T04:42:25.975Z</time>
</trkpt>
<trkpt lat="22.2594536" lon="114.2036081">
<ele>223.722</ele>
<time>2017-11-26T04:42:26.075Z</time>
</trkpt>
<trkpt lat="22.2592875" lon="114.2036906">
<ele>223.337</ele>
<time>2017-11-26T04:42:46.974Z</time>
</trkpt>
<trkpt lat="22.2592875" lon="114.2036906">
<ele>222.457</ele>
<time>2017-11-26T04:42:54.974Z</time>
</trkpt>
<trkpt lat="22.2592875" lon="114.2036906">
<ele>222.316</ele>
<time>2017-11-26T04:43:31.815Z</time>
</trkpt>
<trkpt lat="22.2592151" lon="114.2035093">
<ele>222.683</ele>
<time>2017-11-26T04:43:55.680Z</time>
</trkpt>
<trkpt lat="22.2592854" lon="114.2034338">
<ele>223.155</ele>
<time>2017-11-26T04:44:02.982Z</time>
</trkpt>
<trkpt lat="22.2592800" lon="114.2033280">
<ele>224.012</ele>
<time>2017-11-26T04:44:09.979Z</time>
</trkpt>
<trkpt lat="22.2592800" lon="114.2033280">
<ele>224.949</ele>
<time>2017-11-26T04:44:17.979Z</time>
</trkpt>
<trkpt lat="22.2592800" lon="114.2033280">
<ele>225.205</ele>
<time>2017-11-26T04:44:25.029Z</time>
</trkpt>
<trkpt lat="22.2592217" lon="114.2032337">
<ele>224.807</ele>
<time>2017-11-26T04:44:35.267Z</time>
</trkpt>
<trkpt lat="22.2592293" lon="114.2031333">
<ele>223.832</ele>
<time>2017-11-26T04:44:39.978Z</time>
</trkpt>
<trkpt lat="22.2592293" lon="114.2031333">
<ele>222.286</ele>
<time>2017-11-26T04:44:52.978Z</time>
</trkpt>
<trkpt lat="22.2592293" lon="114.2031333">
<ele>221.162</ele>
<time>2017-11-26T04:45:24.929Z</time>
</trkpt>
<trkpt lat="22.2591284" lon="114.2031122">
<ele>221.588</ele>
<time>2017-11-26T04:45:35.747Z</time>
</trkpt>
<trkpt lat="22.2590293" lon="114.2031016">
<ele>221.354</ele>
<time>2017-11-26T04:45:40.218Z</time>
</trkpt>
<trkpt lat="22.2589699" lon="114.2030270">
<ele>220.010</ele>
<time>2017-11-26T04:45:42.833Z</time>
</trkpt>
<trkpt lat="22.2585568" lon="114.2027437">
<ele>218.211</ele>
<time>2017-11-26T04:45:56.631Z</time>
</trkpt>
<trkpt lat="22.2584694" lon="114.2027048">
<ele>218.679</ele>
<time>2017-11-26T04:45:58.976Z</time>
</trkpt>
<trkpt lat="22.2584694" lon="114.2027048">
<ele>219.356</ele>
<time>2017-11-26T04:45:59.976Z</time>
</trkpt>
<trkpt lat="22.2584694" lon="114.2027048">
<ele>219.614</ele>
<time>2017-11-26T04:46:13.976Z</time>
</trkpt>
<trkpt lat="22.2584694" lon="114.2027048">
<ele>219.474</ele>
<time>2017-11-26T04:47:30.652Z</time>
</trkpt>
<trkpt lat="22.2585462" lon="114.2027627">
<ele>219.273</ele>
<time>2017-11-26T04:47:42.973Z</time>
</trkpt>
<trkpt lat="22.2585462" lon="114.2027627">
<ele>219.227</ele>
<time>2017-11-26T04:47:44.973Z</time>
</trkpt>
<trkpt lat="22.2585462" lon="114.2027627">
<ele>219.238</ele>
<time>2017-11-26T04:48:14.919Z</time>
</trkpt>
<trkpt lat="22.2585462" lon="114.2027627">
<ele>219.050</ele>
<time>2017-11-26T04:48:53.972Z</time>
</trkpt>
<trkpt lat="22.2585462" lon="114.2027627">
<ele>218.968</ele>
<time>2017-11-26T04:48:54.072Z</time>
</trkpt>
<trkpt lat="22.2586501" lon="114.2027078">
<ele>218.924</ele>
<time>2017-11-26T04:49:13.090Z</time>
</trkpt>
<trkpt lat="22.2587495" lon="114.2026950">
<ele>218.969</ele>
<time>2017-11-26T04:49:18.664Z</time>
</trkpt>
<trkpt lat="22.2588381" lon="114.2026362">
<ele>219.139</ele>
<time>2017-11-26T04:49:23.491Z</time>
</trkpt>
<trkpt lat="22.2588974" lon="114.2025489">
<ele>219.327</ele>
<time>2017-11-26T04:49:27.971Z</time>
</trkpt>
<trkpt lat="22.2588974" lon="114.2025489">
<ele>219.427</ele>
<time>2017-11-26T04:49:40.970Z</time>
</trkpt>
<trkpt lat="22.2588974" lon="114.2025489">
<ele>219.415</ele>
<time>2017-11-26T04:50:39.112Z</time>
</trkpt>
<trkpt lat="22.2588933" lon="114.2026820">
<ele>219.213</ele>
<time>2017-11-26T04:50:53.861Z</time>
</trkpt>
<trkpt lat="22.2588806" lon="114.2028033">
<ele>219.451</ele>
<time>2017-11-26T04:51:01.306Z</time>
</trkpt>
<trkpt lat="22.2589430" lon="114.2028945">
<ele>220.443</ele>
<time>2017-11-26T04:51:07.380Z</time>
</trkpt>
<trkpt lat="22.2589901" lon="114.2029776">
<ele>221.795</ele>
<time>2017-11-26T04:51:12.851Z</time>
</trkpt>
<trkpt lat="22.2590642" lon="114.2030556">
<ele>222.631</ele>
<time>2017-11-26T04:51:26.697Z</time>
</trkpt>
<trkpt lat="22.2591673" lon="114.2030486">
<ele>222.394</ele>
<time>2017-11-26T04:51:42.022Z</time>
</trkpt>
<trkpt lat="22.2591902" lon="114.2029361">
<ele>222.261</ele>
<time>2017-11-26T04:51:57.841Z</time>
</trkpt>
<trkpt lat="22.2591902" lon="114.2029361">
<ele>222.261</ele>
<time>2017-11-26T04:51:57.841Z</time>
</trkpt>
<trkpt lat="22.2594236" lon="114.2030520">
<ele>213.933</ele>
<time>2017-11-26T04:52:35.973Z</time>
</trkpt>
<trkpt lat="22.2593378" lon="114.2035595">
<ele>213.834</ele>
<time>2017-11-26T04:55:42.529Z</time>
</trkpt>
<trkpt lat="22.2594085" lon="114.2036281">
<ele>216.125</ele>
<time>2017-11-26T04:56:14.967Z</time>
</trkpt>
<trkpt lat="22.2594085" lon="114.2036281">
<ele>222.187</ele>
<time>2017-11-26T04:56:34.967Z</time>
</trkpt>
<trkpt lat="22.2594085" lon="114.2036281">
<ele>227.215</ele>
<time>2017-11-26T04:56:35.067Z</time>
</trkpt>
<trkpt lat="22.2593012" lon="114.2035438">
<ele>227.037</ele>
<time>2017-11-26T04:56:45.967Z</time>
</trkpt>
<trkpt lat="22.2593012" lon="114.2035438">
<ele>224.935</ele>
<time>2017-11-26T04:56:46.966Z</time>
</trkpt>
<trkpt lat="22.2593012" lon="114.2035438">
<ele>224.647</ele>
<time>2017-11-26T04:56:50.654Z</time>
</trkpt>
<trkpt lat="22.2592604" lon="114.2036605">
<ele>225.699</ele>
<time>2017-11-26T04:57:02.057Z</time>
</trkpt>
<trkpt lat="22.2592702" lon="114.2037695">
<ele>226.540</ele>
<time>2017-11-26T04:57:06.966Z</time>
</trkpt>
<trkpt lat="22.2592702" lon="114.2037695">
<ele>226.811</ele>
<time>2017-11-26T04:57:15.966Z</time>
</trkpt>
<trkpt lat="22.2592702" lon="114.2037695">
<ele>226.743</ele>
<time>2017-11-26T04:57:16.066Z</time>
</trkpt>
<trkpt lat="22.2592877" lon="114.2039180">
<ele>226.600</ele>
<time>2017-11-26T04:57:30.846Z</time>
</trkpt>
<trkpt lat="22.2592681" lon="114.2040278">
<ele>226.503</ele>
<time>2017-11-26T04:57:36.974Z</time>
</trkpt>
<trkpt lat="22.2592387" lon="114.2041215">
<ele>226.596</ele>
<time>2017-11-26T04:57:41.365Z</time>
</trkpt>
<trkpt lat="22.2592642" lon="114.2042251">
<ele>226.917</ele>
<time>2017-11-26T04:57:45.971Z</time>
</trkpt>
<trkpt lat="22.2592642" lon="114.2042251">
<ele>227.211</ele>
<time>2017-11-26T04:57:51.971Z</time>
</trkpt>
<trkpt lat="22.2592642" lon="114.2042251">
<ele>227.258</ele>
<time>2017-11-26T04:57:52.014Z</time>
</trkpt>
<trkpt lat="22.2593365" lon="114.2043193">
<ele>227.132</ele>
<time>2017-11-26T04:58:09.215Z</time>
</trkpt>
<trkpt lat="22.2593639" lon="114.2044164">
<ele>227.052</ele>
<time>2017-11-26T04:58:18.245Z</time>
</trkpt>
<trkpt lat="22.2593310" lon="114.2045126">
<ele>227.224</ele>
<time>2017-11-26T04:58:26.804Z</time>
</trkpt>
<trkpt lat="22.2593016" lon="114.2046106">
<ele>227.900</ele>
<time>2017-11-26T04:58:35.315Z</time>
</trkpt>
<trkpt lat="22.2592854" lon="114.2047196">
<ele>229.068</ele>
<time>2017-11-26T04:58:43.805Z</time>
</trkpt>
<trkpt lat="22.2592887" lon="114.2048201">
<ele>230.376</ele>
<time>2017-11-26T04:58:50.789Z</time>
</trkpt>
<trkpt lat="22.2592787" lon="114.2049237">
<ele>231.460</ele>
<time>2017-11-26T04:58:57.974Z</time>
</trkpt>
<trkpt lat="22.2592574" lon="114.2050214">
<ele>232.099</ele>
<time>2017-11-26T04:59:05.267Z</time>
</trkpt>
<trkpt lat="22.2591867" lon="114.2050907">
<ele>232.314</ele>
<time>2017-11-26T04:59:13.168Z</time>
</trkpt>
<trkpt lat="22.2590891" lon="114.2050989">
<ele>232.692</ele>
<time>2017-11-26T04:59:20.301Z</time>
</trkpt>
<trkpt lat="22.2590174" lon="114.2051604">
<ele>233.600</ele>
<time>2017-11-26T04:59:25.934Z</time>
</trkpt>
<trkpt lat="22.2589349" lon="114.2052125">
<ele>234.592</ele>
<time>2017-11-26T04:59:31.491Z</time>
</trkpt>
<trkpt lat="22.2588433" lon="114.2052515">
<ele>235.132</ele>
<time>2017-11-26T04:59:37.399Z</time>
</trkpt>
<trkpt lat="22.2587467" lon="114.2053083">
<ele>235.414</ele>
<time>2017-11-26T04:59:45.015Z</time>
</trkpt>
<trkpt lat="22.2586509" lon="114.2053640">
<ele>235.814</ele>
<time>2017-11-26T04:59:51.416Z</time>
</trkpt>
<trkpt lat="22.2585555" lon="114.2053458">
<ele>236.282</ele>
<time>2017-11-26T04:59:57.044Z</time>
</trkpt>
<trkpt lat="22.2584840" lon="114.2054210">
<ele>236.532</ele>
<time>2017-11-26T05:00:03.956Z</time>
</trkpt>
<trkpt lat="22.2584236" lon="114.2055000">
<ele>236.519</ele>
<time>2017-11-26T05:00:11.591Z</time>
</trkpt>
<trkpt lat="22.2583449" lon="114.2055687">
<ele>236.401</ele>
<time>2017-11-26T05:00:19.227Z</time>
</trkpt>
<trkpt lat="22.2582450" lon="114.2055825">
<ele>236.279</ele>
<time>2017-11-26T05:00:25.680Z</time>
</trkpt>
<trkpt lat="22.2581597" lon="114.2056428">
<ele>235.966</ele>
<time>2017-11-26T05:00:31.728Z</time>
</trkpt>
<trkpt lat="22.2580621" lon="114.2056885">
<ele>235.732</ele>
<time>2017-11-26T05:00:37.964Z</time>
</trkpt>
<trkpt lat="22.2579622" lon="114.2057356">
<ele>235.502</ele>
<time>2017-11-26T05:00:43.820Z</time>
</trkpt>
<trkpt lat="22.2579088" lon="114.2058241">
<ele>235.214</ele>
<time>2017-11-26T05:00:48.238Z</time>
</trkpt>
<trkpt lat="22.2578482" lon="114.2059016">
<ele>234.657</ele>
<time>2017-11-26T05:00:52.313Z</time>
</trkpt>
<trkpt lat="22.2577858" lon="114.2060118">
<ele>233.801</ele>
<time>2017-11-26T05:00:57.158Z</time>
</trkpt>
<trkpt lat="22.2577585" lon="114.2061253">
<ele>232.834</ele>
<time>2017-11-26T05:01:00.967Z</time>
</trkpt>
<trkpt lat="22.2577585" lon="114.2061253">
<ele>232.025</ele>
<time>2017-11-26T05:01:02.967Z</time>
</trkpt>
<trkpt lat="22.2577585" lon="114.2061253">
<ele>231.600</ele>
<time>2017-11-26T05:01:03.067Z</time>
</trkpt>
<trkpt lat="22.2575729" lon="114.2061632">
<ele>231.545</ele>
<time>2017-11-26T05:01:07.967Z</time>
</trkpt>
<trkpt lat="22.2575729" lon="114.2061632">
<ele>231.577</ele>
<time>2017-11-26T05:01:17.966Z</time>
</trkpt>
<trkpt lat="22.2575729" lon="114.2061632">
<ele>231.493</ele>
<time>2017-11-26T05:01:18.066Z</time>
</trkpt>
<trkpt lat="22.2576087" lon="114.2062535">
<ele>231.291</ele>
<time>2017-11-26T05:01:31.465Z</time>
</trkpt>
<trkpt lat="22.2575888" lon="114.2063617">
<ele>231.259</ele>
<time>2017-11-26T05:01:38.464Z</time>
</trkpt>
<trkpt lat="22.2575920" lon="114.2064751">
<ele>231.022</ele>
<time>2017-11-26T05:01:43.018Z</time>
</trkpt>
<trkpt lat="22.2576248" lon="114.2065668">
<ele>230.274</ele>
<time>2017-11-26T05:01:46.591Z</time>
</trkpt>
<trkpt lat="22.2576395" lon="114.2066670">
<ele>229.128</ele>
<time>2017-11-26T05:01:50.244Z</time>
</trkpt>
<trkpt lat="22.2576441" lon="114.2067707">
<ele>228.005</ele>
<time>2017-11-26T05:01:54.052Z</time>
</trkpt>
<trkpt lat="22.2576277" lon="114.2068717">
<ele>227.153</ele>
<time>2017-11-26T05:01:57.587Z</time>
</trkpt>
<trkpt lat="22.2576045" lon="114.2069667">
<ele>226.640</ele>
<time>2017-11-26T05:02:01.034Z</time>
</trkpt>
<trkpt lat="22.2575560" lon="114.2070582">
<ele>226.412</ele>
<time>2017-11-26T05:02:05.081Z</time>
</trkpt>
<trkpt lat="22.2575146" lon="114.2071638">
<ele>226.228</ele>
<time>2017-11-26T05:02:10.229Z</time>
</trkpt>
<trkpt lat="22.2574842" lon="114.2072586">
<ele>225.783</ele>
<time>2017-11-26T05:02:15.567Z</time>
</trkpt>
<trkpt lat="22.2574576" lon="114.2073595">
<ele>224.403</ele>
<time>2017-11-26T05:02:21.622Z</time>
</trkpt>
<trkpt lat="22.2574221" lon="114.2074603">
<ele>223.699</ele>
<time>2017-11-26T05:02:28.049Z</time>
</trkpt>
<trkpt lat="22.2573600" lon="114.2075306">
<ele>222.868</ele>
<time>2017-11-26T05:02:34.273Z</time>
</trkpt>
<trkpt lat="22.2573311" lon="114.2076255">
<ele>221.896</ele>
<time>2017-11-26T05:02:41.424Z</time>
</trkpt>
<trkpt lat="22.2573134" lon="114.2077237">
<ele>219.812</ele>
<time>2017-11-26T05:02:48.358Z</time>
</trkpt>
<trkpt lat="22.2573108" lon="114.2078364">
<ele>218.579</ele>
<time>2017-11-26T05:02:54.826Z</time>
</trkpt>
<trkpt lat="22.2573459" lon="114.2079433">
<ele>217.167</ele>
<time>2017-11-26T05:03:00.303Z</time>
</trkpt>
<trkpt lat="22.2573381" lon="114.2080586">
<ele>215.879</ele>
<time>2017-11-26T05:03:05.317Z</time>
</trkpt>
<trkpt lat="22.2573474" lon="114.2081585">
<ele>214.769</ele>
<time>2017-11-26T05:03:09.378Z</time>
</trkpt>
<trkpt lat="22.2573451" lon="114.2082557">
<ele>213.560</ele>
<time>2017-11-26T05:03:13.321Z</time>
</trkpt>
<trkpt lat="22.2573747" lon="114.2083490">
<ele>212.198</ele>
<time>2017-11-26T05:03:17.429Z</time>
</trkpt>
<trkpt lat="22.2574136" lon="114.2084437">
<ele>210.893</ele>
<time>2017-11-26T05:03:21.790Z</time>
</trkpt>
<trkpt lat="22.2574359" lon="114.2085567">
<ele>209.682</ele>
<time>2017-11-26T05:03:26.488Z</time>
</trkpt>
<trkpt lat="22.2575195" lon="114.2086425">
<ele>208.305</ele>
<time>2017-11-26T05:03:31.260Z</time>
</trkpt>
<trkpt lat="22.2575609" lon="114.2087518">
<ele>206.658</ele>
<time>2017-11-26T05:03:35.833Z</time>
</trkpt>
<trkpt lat="22.2576532" lon="114.2088147">
<ele>205.216</ele>
<time>2017-11-26T05:03:40.835Z</time>
</trkpt>
<trkpt lat="22.2576130" lon="114.2089021">
<ele>204.475</ele>
<time>2017-11-26T05:03:45.963Z</time>
</trkpt>
<trkpt lat="22.2576130" lon="114.2089021">
<ele>204.344</ele>
<time>2017-11-26T05:03:52.963Z</time>
</trkpt>
<trkpt lat="22.2576130" lon="114.2089021">
<ele>204.324</ele>
<time>2017-11-26T05:03:53.063Z</time>
</trkpt>
<trkpt lat="22.2576130" lon="114.2089021">
<ele>204.132</ele>
<time>2017-11-26T05:04:05.963Z</time>
</trkpt>
<trkpt lat="22.2576130" lon="114.2089021">
<ele>204.077</ele>
<time>2017-11-26T05:04:06.063Z</time>
</trkpt>
<trkpt lat="22.2576130" lon="114.2089021">
<ele>203.949</ele>
<time>2017-11-26T05:04:08.962Z</time>
</trkpt>
<trkpt lat="22.2576130" lon="114.2089021">
<ele>203.886</ele>
<time>2017-11-26T05:04:09.062Z</time>
</trkpt>
<trkpt lat="22.2575243" lon="114.2088141">
<ele>203.820</ele>
<time>2017-11-26T05:04:21.704Z</time>
</trkpt>
<trkpt lat="22.2574295" lon="114.2088352">
<ele>203.240</ele>
<time>2017-11-26T05:04:29.442Z</time>
</trkpt>
<trkpt lat="22.2573613" lon="114.2088987">
<ele>201.545</ele>
<time>2017-11-26T05:04:35.984Z</time>
</trkpt>
<trkpt lat="22.2573236" lon="114.2089931">
<ele>198.944</ele>
<time>2017-11-26T05:04:41.873Z</time>
</trkpt>
<trkpt lat="22.2572935" lon="114.2090898">
<ele>196.384</ele>
<time>2017-11-26T05:04:47.494Z</time>
</trkpt>
<trkpt lat="22.2572751" lon="114.2091904">
<ele>194.773</ele>
<time>2017-11-26T05:04:54.615Z</time>
</trkpt>
<trkpt lat="22.2572227" lon="114.2092765">
<ele>194.013</ele>
<time>2017-11-26T05:05:02.535Z</time>
</trkpt>
<trkpt lat="22.2571212" lon="114.2092734">
<ele>193.235</ele>
<time>2017-11-26T05:05:10.260Z</time>
</trkpt>
<trkpt lat="22.2570225" lon="114.2092924">
<ele>192.266</ele>
<time>2017-11-26T05:05:16.488Z</time>
</trkpt>
<trkpt lat="22.2569447" lon="114.2093471">
<ele>191.519</ele>
<time>2017-11-26T05:05:22.663Z</time>
</trkpt>
<trkpt lat="22.2569026" lon="114.2094445">
<ele>191.141</ele>
<time>2017-11-26T05:05:30.147Z</time>
</trkpt>
<trkpt lat="22.2569134" lon="114.2095451">
<ele>190.778</ele>
<time>2017-11-26T05:05:37.026Z</time>
</trkpt>
<trkpt lat="22.2568869" lon="114.2096529">
<ele>190.029</ele>
<time>2017-11-26T05:05:43.500Z</time>
</trkpt>
<trkpt lat="22.2569047" lon="114.2097490">
<ele>188.442</ele>
<time>2017-11-26T05:05:48.387Z</time>
</trkpt>
<trkpt lat="22.2569578" lon="114.2098473">
<ele>185.557</ele>
<time>2017-11-26T05:05:53.611Z</time>
</trkpt>
<trkpt lat="22.2570154" lon="114.2099367">
<ele>182.019</ele>
<time>2017-11-26T05:05:58.617Z</time>
</trkpt>
<trkpt lat="22.2570473" lon="114.2100409">
<ele>179.377</ele>
<time>2017-11-26T05:06:03.966Z</time>
</trkpt>
<trkpt lat="22.2570473" lon="114.2100409">
<ele>178.317</ele>
<time>2017-11-26T05:06:13.966Z</time>
</trkpt>
<trkpt lat="22.2570473" lon="114.2100409">
<ele>178.400</ele>
<time>2017-11-26T05:12:13.105Z</time>
</trkpt>
<trkpt lat="22.2569639" lon="114.2101248">
<ele>178.609</ele>
<time>2017-11-26T05:12:29.258Z</time>
</trkpt>
<trkpt lat="22.2568771" lon="114.2101567">
<ele>175.712</ele>
<time>2017-11-26T05:12:36.360Z</time>
</trkpt>
<trkpt lat="22.2567850" lon="114.2101681">
<ele>168.720</ele>
<time>2017-11-26T05:12:42.507Z</time>
</trkpt>
<trkpt lat="22.2566856" lon="114.2102189">
<ele>161.765</ele>
<time>2017-11-26T05:12:48.990Z</time>
</trkpt>
<trkpt lat="22.2566463" lon="114.2103111">
<ele>158.688</ele>
<time>2017-11-26T05:12:54.695Z</time>
</trkpt>
<trkpt lat="22.2566911" lon="114.2103972">
<ele>158.442</ele>
<time>2017-11-26T05:13:00.448Z</time>
</trkpt>
<trkpt lat="22.2567481" lon="114.2104889">
<ele>159.128</ele>
<time>2017-11-26T05:13:07.034Z</time>
</trkpt>
<trkpt lat="22.2567887" lon="114.2105768">
<ele>159.751</ele>
<time>2017-11-26T05:13:13.516Z</time>
</trkpt>
<trkpt lat="22.2567448" lon="114.2106661">
<ele>160.059</ele>
<time>2017-11-26T05:13:21.385Z</time>
</trkpt>
<trkpt lat="22.2566898" lon="114.2107538">
<ele>159.960</ele>
<time>2017-11-26T05:13:29.795Z</time>
</trkpt>
<trkpt lat="22.2566334" lon="114.2108407">
<ele>159.489</ele>
<time>2017-11-26T05:13:37.215Z</time>
</trkpt>
<trkpt lat="22.2565942" lon="114.2109380">
<ele>158.825</ele>
<time>2017-11-26T05:13:44.831Z</time>
</trkpt>
<trkpt lat="22.2565792" lon="114.2110370">
<ele>158.098</ele>
<time>2017-11-26T05:13:51.961Z</time>
</trkpt>
<trkpt lat="22.2565792" lon="114.2110370">
<ele>157.478</ele>
<time>2017-11-26T05:13:55.961Z</time>
</trkpt>
<trkpt lat="22.2565792" lon="114.2110370">
<ele>157.162</ele>
<time>2017-11-26T05:13:56.061Z</time>
</trkpt>
<trkpt lat="22.2565730" lon="114.2111608">
<ele>157.148</ele>
<time>2017-11-26T05:14:11.594Z</time>
</trkpt>
<trkpt lat="22.2565508" lon="114.2112562">
<ele>157.278</ele>
<time>2017-11-26T05:14:18.481Z</time>
</trkpt>
<trkpt lat="22.2565080" lon="114.2113473">
<ele>157.399</ele>
<time>2017-11-26T05:14:24.764Z</time>
</trkpt>
<trkpt lat="22.2564662" lon="114.2114432">
<ele>157.362</ele>
<time>2017-11-26T05:14:31.314Z</time>
</trkpt>
<trkpt lat="22.2564019" lon="114.2115187">
<ele>157.120</ele>
<time>2017-11-26T05:14:37.660Z</time>
</trkpt>
<trkpt lat="22.2563481" lon="114.2116075">
<ele>156.644</ele>
<time>2017-11-26T05:14:43.975Z</time>
</trkpt>
<trkpt lat="22.2563069" lon="114.2116989">
<ele>155.936</ele>
<time>2017-11-26T05:14:49.586Z</time>
</trkpt>
<trkpt lat="22.2563001" lon="114.2118018">
<ele>155.184</ele>
<time>2017-11-26T05:14:55.265Z</time>
</trkpt>
<trkpt lat="22.2563405" lon="114.2118901">
<ele>154.520</ele>
<time>2017-11-26T05:15:00.960Z</time>
</trkpt>
<trkpt lat="22.2563405" lon="114.2118901">
<ele>153.938</ele>
<time>2017-11-26T05:15:01.960Z</time>
</trkpt>
<trkpt lat="22.2563405" lon="114.2118901">
<ele>153.597</ele>
<time>2017-11-26T05:15:40.744Z</time>
</trkpt>
<trkpt lat="22.2563141" lon="114.2120181">
<ele>153.656</ele>
<time>2017-11-26T05:15:56.178Z</time>
</trkpt>
<trkpt lat="22.2562700" lon="114.2121042">
<ele>153.740</ele>
<time>2017-11-26T05:16:02.500Z</time>
</trkpt>
<trkpt lat="22.2562239" lon="114.2121971">
<ele>153.838</ele>
<time>2017-11-26T05:16:08.602Z</time>
</trkpt>
<trkpt lat="22.2562031" lon="114.2122934">
<ele>154.006</ele>
<time>2017-11-26T05:16:13.958Z</time>
</trkpt>
<trkpt lat="22.2562031" lon="114.2122934">
<ele>154.161</ele>
<time>2017-11-26T05:16:20.958Z</time>
</trkpt>
<trkpt lat="22.2562031" lon="114.2122934">
<ele>154.190</ele>
<time>2017-11-26T05:16:49.292Z</time>
</trkpt>
<trkpt lat="22.2561926" lon="114.2124080">
<ele>154.114</ele>
<time>2017-11-26T05:17:05.794Z</time>
</trkpt>
<trkpt lat="22.2561144" lon="114.2124625">
<ele>154.022</ele>
<time>2017-11-26T05:17:13.923Z</time>
</trkpt>
<trkpt lat="22.2560471" lon="114.2125278">
<ele>153.945</ele>
<time>2017-11-26T05:17:21.137Z</time>
</trkpt>
<trkpt lat="22.2559961" lon="114.2126242">
<ele>153.786</ele>
<time>2017-11-26T05:17:31.025Z</time>
</trkpt>
<trkpt lat="22.2559062" lon="114.2126495">
<ele>153.527</ele>
<time>2017-11-26T05:17:41.956Z</time>
</trkpt>
<trkpt lat="22.2559062" lon="114.2126495">
<ele>153.310</ele>
<time>2017-11-26T05:17:43.956Z</time>
</trkpt>
<trkpt lat="22.2559062" lon="114.2126495">
<ele>153.228</ele>
<time>2017-11-26T05:17:51.807Z</time>
</trkpt>
<trkpt lat="22.2558806" lon="114.2127584">
<ele>153.185</ele>
<time>2017-11-26T05:18:24.955Z</time>
</trkpt>
<trkpt lat="22.2558806" lon="114.2127584">
<ele>153.150</ele>
<time>2017-11-26T05:18:30.955Z</time>
</trkpt>
<trkpt lat="22.2558806" lon="114.2127584">
<ele>153.114</ele>
<time>2017-11-26T05:19:12.847Z</time>
</trkpt>
<trkpt lat="22.2558399" lon="114.2126675">
<ele>153.004</ele>
<time>2017-11-26T05:19:26.960Z</time>
</trkpt>
<trkpt lat="22.2558399" lon="114.2126675">
<ele>152.972</ele>
<time>2017-11-26T05:19:28.960Z</time>
</trkpt>
<trkpt lat="22.2558399" lon="114.2126675">
<ele>152.944</ele>
<time>2017-11-26T05:19:29.060Z</time>
</trkpt>
<trkpt lat="22.2559325" lon="114.2127286">
<ele>152.829</ele>
<time>2017-11-26T05:19:44.541Z</time>
</trkpt>
<trkpt lat="22.2559285" lon="114.2128371">
<ele>152.829</ele>
<time>2017-11-26T05:19:58.868Z</time>
</trkpt>
<trkpt lat="22.2558887" lon="114.2129341">
<ele>152.910</ele>
<time>2017-11-26T05:20:11.238Z</time>
</trkpt>
<trkpt lat="22.2558094" lon="114.2130198">
<ele>152.827</ele>
<time>2017-11-26T05:20:17.235Z</time>
</trkpt>
<trkpt lat="22.2557034" lon="114.2131001">
<ele>152.364</ele>
<time>2017-11-26T05:20:22.189Z</time>
</trkpt>
<trkpt lat="22.2555923" lon="114.2131289">
<ele>151.721</ele>
<time>2017-11-26T05:20:25.642Z</time>
</trkpt>
<trkpt lat="22.2554603" lon="114.2131592">
<ele>151.070</ele>
<time>2017-11-26T05:20:29.302Z</time>
</trkpt>
<trkpt lat="22.2553378" lon="114.2131871">
<ele>150.345</ele>
<time>2017-11-26T05:20:32.507Z</time>
</trkpt>
<trkpt lat="22.2552438" lon="114.2132397">
<ele>149.401</ele>
<time>2017-11-26T05:20:35.240Z</time>
</trkpt>
<trkpt lat="22.2551601" lon="114.2132826">
<ele>148.192</ele>
<time>2017-11-26T05:20:37.752Z</time>
</trkpt>
<trkpt lat="22.2550353" lon="114.2133872">
<ele>147.049</ele>
<time>2017-11-26T05:20:42.329Z</time>
</trkpt>
<trkpt lat="22.2549497" lon="114.2134475">
<ele>146.390</ele>
<time>2017-11-26T05:20:45.405Z</time>
</trkpt>
<trkpt lat="22.2548765" lon="114.2135074">
<ele>146.198</ele>
<time>2017-11-26T05:20:48.360Z</time>
</trkpt>
<trkpt lat="22.2548342" lon="114.2136009">
<ele>146.165</ele>
<time>2017-11-26T05:20:51.624Z</time>
</trkpt>
<trkpt lat="22.2548035" lon="114.2137229">
<ele>145.983</ele>
<time>2017-11-26T05:20:56.356Z</time>
</trkpt>
<trkpt lat="22.2547458" lon="114.2138443">
<ele>145.459</ele>
<time>2017-11-26T05:21:01.893Z</time>
</trkpt>
<trkpt lat="22.2546315" lon="114.2139274">
<ele>144.574</ele>
<time>2017-11-26T05:21:06.573Z</time>
</trkpt>
<trkpt lat="22.2545185" lon="114.2140079">
<ele>143.453</ele>
<time>2017-11-26T05:21:10.447Z</time>
</trkpt>
<trkpt lat="22.2544128" lon="114.2140979">
<ele>141.853</ele>
<time>2017-11-26T05:21:14.019Z</time>
</trkpt>
<trkpt lat="22.2542958" lon="114.2141609">
<ele>139.594</ele>
<time>2017-11-26T05:21:17.387Z</time>
</trkpt>
<trkpt lat="22.2541807" lon="114.2142253">
<ele>137.312</ele>
<time>2017-11-26T05:21:20.703Z</time>
</trkpt>
<trkpt lat="22.2540706" lon="114.2142655">
<ele>135.519</ele>
<time>2017-11-26T05:21:23.763Z</time>
</trkpt>
<trkpt lat="22.2539460" lon="114.2142436">
<ele>134.121</ele>
<time>2017-11-26T05:21:27.231Z</time>
</trkpt>
<trkpt lat="22.2538354" lon="114.2142081">
<ele>133.086</ele>
<time>2017-11-26T05:21:30.484Z</time>
</trkpt>
<trkpt lat="22.2537385" lon="114.2141646">
<ele>132.425</ele>
<time>2017-11-26T05:21:33.471Z</time>
</trkpt>
<trkpt lat="22.2536462" lon="114.2141823">
<ele>132.048</ele>
<time>2017-11-26T05:21:36.154Z</time>
</trkpt>
<trkpt lat="22.2535539" lon="114.2142159">
<ele>131.721</ele>
<time>2017-11-26T05:21:39.025Z</time>
</trkpt>
<trkpt lat="22.2534515" lon="114.2142167">
<ele>131.194</ele>
<time>2017-11-26T05:21:42.207Z</time>
</trkpt>
<trkpt lat="22.2533607" lon="114.2142484">
<ele>130.517</ele>
<time>2017-11-26T05:21:45.236Z</time>
</trkpt>
<trkpt lat="22.2532669" lon="114.2142616">
<ele>129.863</ele>
<time>2017-11-26T05:21:48.235Z</time>
</trkpt>
<trkpt lat="22.2531776" lon="114.2142740">
<ele>129.304</ele>
<time>2017-11-26T05:21:51.136Z</time>
</trkpt>
<trkpt lat="22.2530833" lon="114.2142719">
<ele>128.643</ele>
<time>2017-11-26T05:21:54.235Z</time>
</trkpt>
<trkpt lat="22.2529813" lon="114.2142390">
<ele>127.526</ele>
<time>2017-11-26T05:21:57.605Z</time>
</trkpt>
<trkpt lat="22.2528759" lon="114.2141644">
<ele>125.983</ele>
<time>2017-11-26T05:22:01.328Z</time>
</trkpt>
<trkpt lat="22.2527776" lon="114.2140963">
<ele>124.399</ele>
<time>2017-11-26T05:22:04.722Z</time>
</trkpt>
<trkpt lat="22.2526849" lon="114.2140330">
<ele>122.792</ele>
<time>2017-11-26T05:22:07.948Z</time>
</trkpt>
<trkpt lat="22.2522500" lon="114.2137737">
<ele>119.540</ele>
<time>2017-11-26T05:22:22.821Z</time>
</trkpt>
<trkpt lat="22.2521674" lon="114.2137153">
<ele>116.974</ele>
<time>2017-11-26T05:22:26.251Z</time>
</trkpt>
<trkpt lat="22.2521042" lon="114.2136458">
<ele>113.081</ele>
<time>2017-11-26T05:22:29.561Z</time>
</trkpt>
<trkpt lat="22.2520125" lon="114.2136452">
<ele>108.077</ele>
<time>2017-11-26T05:22:33.819Z</time>
</trkpt>
<trkpt lat="22.2519125" lon="114.2136598">
<ele>109.418</ele>
<time>2017-11-26T05:22:39.028Z</time>
</trkpt>
<trkpt lat="22.2518256" lon="114.2136031">
<ele>111.295</ele>
<time>2017-11-26T05:22:44.227Z</time>
</trkpt>
<trkpt lat="22.2517702" lon="114.2135000">
<ele>111.517</ele>
<time>2017-11-26T05:22:50.991Z</time>
</trkpt>
<trkpt lat="22.2517079" lon="114.2134279">
<ele>109.826</ele>
<time>2017-11-26T05:22:57.382Z</time>
</trkpt>
<trkpt lat="22.2516181" lon="114.2134234">
<ele>107.743</ele>
<time>2017-11-26T05:23:03.660Z</time>
</trkpt>
<trkpt lat="22.2515385" lon="114.2135001">
<ele>105.183</ele>
<time>2017-11-26T05:23:10.924Z</time>
</trkpt>
<trkpt lat="22.2514424" lon="114.2134892">
<ele>103.661</ele>
<time>2017-11-26T05:23:17.761Z</time>
</trkpt>
<trkpt lat="22.2513384" lon="114.2135010">
<ele>103.383</ele>
<time>2017-11-26T05:23:25.096Z</time>
</trkpt>
<trkpt lat="22.2511204" lon="114.2135226">
<ele>103.408</ele>
<time>2017-11-26T05:23:40.414Z</time>
</trkpt>
<trkpt lat="22.2510361" lon="114.2134805">
<ele>102.401</ele>
<time>2017-11-26T05:23:45.594Z</time>
</trkpt>
<trkpt lat="22.2509369" lon="114.2134416">
<ele>99.975</ele>
<time>2017-11-26T05:23:49.616Z</time>
</trkpt>
<trkpt lat="22.2508355" lon="114.2134067">
<ele>94.342</ele>
<time>2017-11-26T05:23:53.114Z</time>
</trkpt>
<trkpt lat="22.2507391" lon="114.2133702">
<ele>88.422</ele>
<time>2017-11-26T05:23:56.437Z</time>
</trkpt>
<trkpt lat="22.2506479" lon="114.2133133">
<ele>85.260</ele>
<time>2017-11-26T05:23:59.972Z</time>
</trkpt>
<trkpt lat="22.2505464" lon="114.2132484">
<ele>84.234</ele>
<time>2017-11-26T05:24:04.183Z</time>
</trkpt>
<trkpt lat="22.2504635" lon="114.2131941">
<ele>83.978</ele>
<time>2017-11-26T05:24:08.450Z</time>
</trkpt>
<trkpt lat="22.2503730" lon="114.2131475">
<ele>83.804</ele>
<time>2017-11-26T05:24:13.386Z</time>
</trkpt>
<trkpt lat="22.2502877" lon="114.2131017">
<ele>83.256</ele>
<time>2017-11-26T05:24:18.886Z</time>
</trkpt>
<trkpt lat="22.2501853" lon="114.2130731">
<ele>79.937</ele>
<time>2017-11-26T05:24:25.000Z</time>
</trkpt>
<trkpt lat="22.2500743" lon="114.2130525">
<ele>77.900</ele>
<time>2017-11-26T05:24:29.987Z</time>
</trkpt>
<trkpt lat="22.2499574" lon="114.2130693">
<ele>75.937</ele>
<time>2017-11-26T05:24:33.907Z</time>
</trkpt>
<trkpt lat="22.2498441" lon="114.2130927">
<ele>74.184</ele>
<time>2017-11-26T05:24:37.513Z</time>
</trkpt>
<trkpt lat="22.2497356" lon="114.2131170">
<ele>72.326</ele>
<time>2017-11-26T05:24:41.011Z</time>
</trkpt>
<trkpt lat="22.2496277" lon="114.2131060">
<ele>70.508</ele>
<time>2017-11-26T05:24:44.548Z</time>
</trkpt>
<trkpt lat="22.2495470" lon="114.2131500">
<ele>69.307</ele>
<time>2017-11-26T05:24:47.541Z</time>
</trkpt>
<trkpt lat="22.2494521" lon="114.2131814">
<ele>68.886</ele>
<time>2017-11-26T05:24:50.812Z</time>
</trkpt>
<trkpt lat="22.2493646" lon="114.2132282">
<ele>68.571</ele>
<time>2017-11-26T05:24:53.964Z</time>
</trkpt>
<trkpt lat="22.2492721" lon="114.2132691">
<ele>67.741</ele>
<time>2017-11-26T05:24:57.131Z</time>
</trkpt>
<trkpt lat="22.2491790" lon="114.2133187">
<ele>66.425</ele>
<time>2017-11-26T05:25:00.418Z</time>
</trkpt>
<trkpt lat="22.2491092" lon="114.2133825">
<ele>64.963</ele>
<time>2017-11-26T05:25:03.289Z</time>
</trkpt>
<trkpt lat="22.2490274" lon="114.2134461">
<ele>63.537</ele>
<time>2017-11-26T05:25:06.467Z</time>
</trkpt>
<trkpt lat="22.2489557" lon="114.2135047">
<ele>62.128</ele>
<time>2017-11-26T05:25:09.356Z</time>
</trkpt>
<trkpt lat="22.2488608" lon="114.2135839">
<ele>60.820</ele>
<time>2017-11-26T05:25:13.262Z</time>
</trkpt>
<trkpt lat="22.2487790" lon="114.2136555">
<ele>59.887</ele>
<time>2017-11-26T05:25:16.845Z</time>
</trkpt>
<trkpt lat="22.2487125" lon="114.2137210">
<ele>59.243</ele>
<time>2017-11-26T05:25:20.052Z</time>
</trkpt>
<trkpt lat="22.2486139" lon="114.2137593">
<ele>58.290</ele>
<time>2017-11-26T05:25:24.793Z</time>
</trkpt>
<trkpt lat="22.2485338" lon="114.2138182">
<ele>57.622</ele>
<time>2017-11-26T05:25:30.172Z</time>
</trkpt>
<trkpt lat="22.2484672" lon="114.2138853">
<ele>56.467</ele>
<time>2017-11-26T05:25:36.762Z</time>
</trkpt>
<trkpt lat="22.2483929" lon="114.2139451">
<ele>54.957</ele>
<time>2017-11-26T05:25:44.951Z</time>
</trkpt>
<trkpt lat="22.2483929" lon="114.2139451">
<ele>53.587</ele>
<time>2017-11-26T05:25:53.951Z</time>
</trkpt>
<trkpt lat="22.2483929" lon="114.2139451">
<ele>52.903</ele>
<time>2017-11-26T05:25:54.051Z</time>
</trkpt>
<trkpt lat="22.2483354" lon="114.2141084">
<ele>52.948</ele>
<time>2017-11-26T05:26:06.951Z</time>
</trkpt>
<trkpt lat="22.2483354" lon="114.2141084">
<ele>53.183</ele>
<time>2017-11-26T05:26:08.951Z</time>
</trkpt>
<trkpt lat="22.2483354" lon="114.2141084">
<ele>53.187</ele>
<time>2017-11-26T05:26:12.788Z</time>
</trkpt>
<trkpt lat="22.2484112" lon="114.2142282">
<ele>53.032</ele>
<time>2017-11-26T05:26:25.592Z</time>
</trkpt>
<trkpt lat="22.2483831" lon="114.2143274">
<ele>52.898</ele>
<time>2017-11-26T05:26:30.346Z</time>
</trkpt>
<trkpt lat="22.2483533" lon="114.2144304">
<ele>52.349</ele>
<time>2017-11-26T05:26:34.956Z</time>
</trkpt>
<trkpt lat="22.2483533" lon="114.2144304">
<ele>51.543</ele>
<time>2017-11-26T05:26:41.956Z</time>
</trkpt>
<trkpt lat="22.2483533" lon="114.2144304">
<ele>51.039</ele>
<time>2017-11-26T05:27:30.430Z</time>
</trkpt>
<trkpt lat="22.2483640" lon="114.2143189">
<ele>51.047</ele>
<time>2017-11-26T05:27:46.607Z</time>
</trkpt>
<trkpt lat="22.2483966" lon="114.2142216">
<ele>50.388</ele>
<time>2017-11-26T05:27:55.763Z</time>
</trkpt>
<trkpt lat="22.2483439" lon="114.2141366">
<ele>48.194</ele>
<time>2017-11-26T05:28:04.954Z</time>
</trkpt>
<trkpt lat="22.2483439" lon="114.2141366">
<ele>45.764</ele>
<time>2017-11-26T05:28:14.954Z</time>
</trkpt>
<trkpt lat="22.2483439" lon="114.2141366">
<ele>44.656</ele>
<time>2017-11-26T05:33:49.953Z</time>
</trkpt>
<trkpt lat="22.2483439" lon="114.2141366">
<ele>44.767</ele>
<time>2017-11-26T05:34:30.953Z</time>
</trkpt>
<trkpt lat="22.2483439" lon="114.2141366">
<ele>45.164</ele>
<time>2017-11-26T05:34:31.053Z</time>
</trkpt>
<trkpt lat="22.2482720" lon="114.2140000">
<ele>45.161</ele>
<time>2017-11-26T05:34:45.351Z</time>
</trkpt>
<trkpt lat="22.2482135" lon="114.2139139">
<ele>44.290</ele>
<time>2017-11-26T05:34:51.962Z</time>
</trkpt>
<trkpt lat="22.2481767" lon="114.2138230">
<ele>42.424</ele>
<time>2017-11-26T05:34:58.275Z</time>
</trkpt>
<trkpt lat="22.2482238" lon="114.2137283">
<ele>40.455</ele>
<time>2017-11-26T05:35:04.645Z</time>
</trkpt>
<trkpt lat="22.2482728" lon="114.2136467">
<ele>39.377</ele>
<time>2017-11-26T05:35:10.377Z</time>
</trkpt>
<trkpt lat="22.2482874" lon="114.2135417">
<ele>39.157</ele>
<time>2017-11-26T05:35:16.820Z</time>
</trkpt>
<trkpt lat="22.2482552" lon="114.2134439">
<ele>39.351</ele>
<time>2017-11-26T05:35:23.540Z</time>
</trkpt>
<trkpt lat="22.2482674" lon="114.2133402">
<ele>39.669</ele>
<time>2017-11-26T05:35:30.168Z</time>
</trkpt>
<trkpt lat="22.2482793" lon="114.2132409">
<ele>40.006</ele>
<time>2017-11-26T05:35:36.604Z</time>
</trkpt>
<trkpt lat="22.2483161" lon="114.2131249">
<ele>40.133</ele>
<time>2017-11-26T05:35:43.503Z</time>
</trkpt>
<trkpt lat="22.2483953" lon="114.2130744">
<ele>39.207</ele>
<time>2017-11-26T05:35:47.951Z</time>
</trkpt>
<trkpt lat="22.2483953" lon="114.2130744">
<ele>37.184</ele>
<time>2017-11-26T05:35:51.951Z</time>
</trkpt>
<trkpt lat="22.2483953" lon="114.2130744">
<ele>35.575</ele>
<time>2017-11-26T05:35:52.051Z</time>
</trkpt>
<trkpt lat="22.2484857" lon="114.2129868">
<ele>35.597</ele>
<time>2017-11-26T05:36:01.060Z</time>
</trkpt>
<trkpt lat="22.2485428" lon="114.2129008">
<ele>35.988</ele>
<time>2017-11-26T05:36:06.237Z</time>
</trkpt>
<trkpt lat="22.2485467" lon="114.2127911">
<ele>35.400</ele>
<time>2017-11-26T05:36:11.504Z</time>
</trkpt>
<trkpt lat="22.2486181" lon="114.2127158">
<ele>33.461</ele>
<time>2017-11-26T05:36:16.591Z</time>
</trkpt>
<trkpt lat="22.2487075" lon="114.2127298">
<ele>32.977</ele>
<time>2017-11-26T05:36:21.138Z</time>
</trkpt>
<trkpt lat="22.2486723" lon="114.2128334">
<ele>32.782</ele>
<time>2017-11-26T05:36:27.340Z</time>
</trkpt>
<trkpt lat="22.2486256" lon="114.2129220">
<ele>33.106</ele>
<time>2017-11-26T05:36:32.989Z</time>
</trkpt>
<trkpt lat="22.2487200" lon="114.2129179">
<ele>34.135</ele>
<time>2017-11-26T05:36:38.629Z</time>
</trkpt>
<trkpt lat="22.2488088" lon="114.2128707">
<ele>35.628</ele>
<time>2017-11-26T05:36:44.950Z</time>
</trkpt>
<trkpt lat="22.2488088" lon="114.2128707">
<ele>37.015</ele>
<time>2017-11-26T05:36:46.950Z</time>
</trkpt>
<trkpt lat="22.2488088" lon="114.2128707">
<ele>37.732</ele>
<time>2017-11-26T05:36:53.208Z</time>
</trkpt>
<trkpt lat="22.2488377" lon="114.2127721">
<ele>37.268</ele>
<time>2017-11-26T05:37:16.070Z</time>
</trkpt>
<trkpt lat="22.2487687" lon="114.2127070">
<ele>36.841</ele>
<time>2017-11-26T05:37:26.138Z</time>
</trkpt>
<trkpt lat="22.2486705" lon="114.2127145">
<ele>36.024</ele>
<time>2017-11-26T05:37:35.879Z</time>
</trkpt>
<trkpt lat="22.2486294" lon="114.2128081">
<ele>34.644</ele>
<time>2017-11-26T05:37:45.949Z</time>
</trkpt>
<trkpt lat="22.2486294" lon="114.2128081">
<ele>33.240</ele>
<time>2017-11-26T05:37:47.949Z</time>
</trkpt>
<trkpt lat="22.2486294" lon="114.2128081">
<ele>32.524</ele>
<time>2017-11-26T05:39:48.019Z</time>
</trkpt>
<trkpt lat="22.2486539" lon="114.2129186">
<ele>32.660</ele>
<time>2017-11-26T05:40:19.672Z</time>
</trkpt>
<trkpt lat="22.2485607" lon="114.2129603">
<ele>33.222</ele>
<time>2017-11-26T05:40:33.268Z</time>
</trkpt>
<trkpt lat="22.2485147" lon="114.2130459">
<ele>33.938</ele>
<time>2017-11-26T05:40:43.428Z</time>
</trkpt>
<trkpt lat="22.2484317" lon="114.2130932">
<ele>35.148</ele>
<time>2017-11-26T05:40:54.827Z</time>
</trkpt>
<trkpt lat="22.2483697" lon="114.2131663">
<ele>37.256</ele>
<time>2017-11-26T05:41:04.053Z</time>
</trkpt>
<trkpt lat="22.2483225" lon="114.2132665">
<ele>39.734</ele>
<time>2017-11-26T05:41:09.952Z</time>
</trkpt>
<trkpt lat="22.2483225" lon="114.2132665">
<ele>41.407</ele>
<time>2017-11-26T05:41:16.951Z</time>
</trkpt>
<trkpt lat="22.2483225" lon="114.2132665">
<ele>41.850</ele>
<time>2017-11-26T05:41:17.051Z</time>
</trkpt>
<trkpt lat="22.2483225" lon="114.2132665">
<ele>41.432</ele>
<time>2017-11-26T05:41:41.951Z</time>
</trkpt>
<trkpt lat="22.2483225" lon="114.2132665">
<ele>41.331</ele>
<time>2017-11-26T05:41:51.418Z</time>
</trkpt>
<trkpt lat="22.2482549" lon="114.2133331">
<ele>41.356</ele>
<time>2017-11-26T05:42:05.536Z</time>
</trkpt>
<trkpt lat="22.2481848" lon="114.2134001">
<ele>41.296</ele>
<time>2017-11-26T05:42:11.589Z</time>
</trkpt>
<trkpt lat="22.2481507" lon="114.2134974">
<ele>41.038</ele>
<time>2017-11-26T05:42:17.102Z</time>
</trkpt>
<trkpt lat="22.2481432" lon="114.2135972">
<ele>40.656</ele>
<time>2017-11-26T05:42:21.881Z</time>
</trkpt>
<trkpt lat="22.2481320" lon="114.2137040">
<ele>40.336</ele>
<time>2017-11-26T05:42:26.704Z</time>
</trkpt>
<trkpt lat="22.2481642" lon="114.2138000">
<ele>40.186</ele>
<time>2017-11-26T05:42:30.950Z</time>
</trkpt>
<trkpt lat="22.2481642" lon="114.2138000">
<ele>40.186</ele>
<time>2017-11-26T05:42:48.949Z</time>
</trkpt>
<trkpt lat="22.2481642" lon="114.2138000">
<ele>40.219</ele>
<time>2017-11-26T05:43:14.984Z</time>
</trkpt>
<trkpt lat="22.2481910" lon="114.2139146">
<ele>40.207</ele>
<time>2017-11-26T05:43:29.095Z</time>
</trkpt>
<trkpt lat="22.2482396" lon="114.2140019">
<ele>40.387</ele>
<time>2017-11-26T05:43:35.948Z</time>
</trkpt>
<trkpt lat="22.2482396" lon="114.2140019">
<ele>40.934</ele>
<time>2017-11-26T05:43:38.948Z</time>
</trkpt>
<trkpt lat="22.2482396" lon="114.2140019">
<ele>41.397</ele>
<time>2017-11-26T05:43:48.973Z</time>
</trkpt>
<trkpt lat="22.2481854" lon="114.2139235">
<ele>41.108</ele>
<time>2017-11-26T05:44:10.224Z</time>
</trkpt>
<trkpt lat="22.2481837" lon="114.2138166">
<ele>40.899</ele>
<time>2017-11-26T05:44:19.210Z</time>
</trkpt>
<trkpt lat="22.2481679" lon="114.2137185">
<ele>40.777</ele>
<time>2017-11-26T05:44:27.200Z</time>
</trkpt>
<trkpt lat="22.2481605" lon="114.2138166">
<ele>40.705</ele>
<time>2017-11-26T05:44:35.259Z</time>
</trkpt>
<trkpt lat="22.2481989" lon="114.2139213">
<ele>40.712</ele>
<time>2017-11-26T05:44:44.947Z</time>
</trkpt>
<trkpt lat="22.2481989" lon="114.2139213">
<ele>40.811</ele>
<time>2017-11-26T05:44:52.947Z</time>
</trkpt>
<trkpt lat="22.2481989" lon="114.2139213">
<ele>40.894</ele>
<time>2017-11-26T05:47:02.410Z</time>
</trkpt>
<trkpt lat="22.2481492" lon="114.2138369">
<ele>40.812</ele>
<time>2017-11-26T05:47:16.727Z</time>
</trkpt>
<trkpt lat="22.2481807" lon="114.2137357">
<ele>40.767</ele>
<time>2017-11-26T05:47:24.744Z</time>
</trkpt>
<trkpt lat="22.2481632" lon="114.2136390">
<ele>40.813</ele>
<time>2017-11-26T05:47:32.804Z</time>
</trkpt>
<trkpt lat="22.2481948" lon="114.2135313">
<ele>41.024</ele>
<time>2017-11-26T05:47:41.883Z</time>
</trkpt>
<trkpt lat="22.2482119" lon="114.2134324">
<ele>41.339</ele>
<time>2017-11-26T05:47:48.487Z</time>
</trkpt>
<trkpt lat="22.2482916" lon="114.2133558">
<ele>41.659</ele>
<time>2017-11-26T05:47:55.161Z</time>
</trkpt>
<trkpt lat="22.2483248" lon="114.2132648">
<ele>42.065</ele>
<time>2017-11-26T05:48:00.769Z</time>
</trkpt>
<trkpt lat="22.2483616" lon="114.2131708">
<ele>42.559</ele>
<time>2017-11-26T05:48:07.014Z</time>
</trkpt>
<trkpt lat="22.2483985" lon="114.2130731">
<ele>42.652</ele>
<time>2017-11-26T05:48:14.284Z</time>
</trkpt>
<trkpt lat="22.2484753" lon="114.2130168">
<ele>42.193</ele>
<time>2017-11-26T05:48:20.488Z</time>
</trkpt>
<trkpt lat="22.2485312" lon="114.2129277">
<ele>42.077</ele>
<time>2017-11-26T05:48:26.279Z</time>
</trkpt>
<trkpt lat="22.2485875" lon="114.2128488">
<ele>41.324</ele>
<time>2017-11-26T05:48:31.645Z</time>
</trkpt>
<trkpt lat="22.2486261" lon="114.2127431">
<ele>39.111</ele>
<time>2017-11-26T05:48:38.364Z</time>
</trkpt>
<trkpt lat="22.2486901" lon="114.2126688">
<ele>36.522</ele>
<time>2017-11-26T05:48:44.998Z</time>
</trkpt>
<trkpt lat="22.2486901" lon="114.2126688">
<ele>34.903</ele>
<time>2017-11-26T05:48:55.998Z</time>
</trkpt>
<trkpt lat="22.2486901" lon="114.2126688">
<ele>34.351</ele>
<time>2017-11-26T05:48:56.330Z</time>
</trkpt>
<trkpt lat="22.2486675" lon="114.2127754">
<ele>34.692</ele>
<time>2017-11-26T05:49:19.169Z</time>
</trkpt>
<trkpt lat="22.2487498" lon="114.2128479">
<ele>35.160</ele>
<time>2017-11-26T05:49:26.600Z</time>
</trkpt>
<trkpt lat="22.2488453" lon="114.2128453">
<ele>36.126</ele>
<time>2017-11-26T05:49:31.150Z</time>
</trkpt>
<trkpt lat="22.2489355" lon="114.2128410">
<ele>37.357</ele>
<time>2017-11-26T05:49:34.997Z</time>
</trkpt>
<trkpt lat="22.2489355" lon="114.2128410">
<ele>38.331</ele>
<time>2017-11-26T05:49:39.997Z</time>
</trkpt>
<trkpt lat="22.2489355" lon="114.2128410">
<ele>38.761</ele>
<time>2017-11-26T05:49:40.097Z</time>
</trkpt>
<trkpt lat="22.2490149" lon="114.2128928">
<ele>38.563</ele>
<time>2017-11-26T05:49:49.997Z</time>
</trkpt>
<trkpt lat="22.2490149" lon="114.2128928">
<ele>38.120</ele>
<time>2017-11-26T05:50:07.996Z</time>
</trkpt>
<trkpt lat="22.2490149" lon="114.2128928">
<ele>37.924</ele>
<time>2017-11-26T05:50:08.096Z</time>
</trkpt>
<trkpt lat="22.2491083" lon="114.2130042">
<ele>37.978</ele>
<time>2017-11-26T05:50:25.657Z</time>
</trkpt>
<trkpt lat="22.2491914" lon="114.2129536">
<ele>37.344</ele>
<time>2017-11-26T05:50:34.996Z</time>
</trkpt>
<trkpt lat="22.2491914" lon="114.2129536">
<ele>36.141</ele>
<time>2017-11-26T05:50:35.996Z</time>
</trkpt>
<trkpt lat="22.2491914" lon="114.2129536">
<ele>35.671</ele>
<time>2017-11-26T05:50:36.096Z</time>
</trkpt>
<trkpt lat="22.2491023" lon="114.2129877">
<ele>36.095</ele>
<time>2017-11-26T05:50:56.995Z</time>
</trkpt>
<trkpt lat="22.2491023" lon="114.2129877">
<ele>36.138</ele>
<time>2017-11-26T05:51:03.995Z</time>
</trkpt>
<trkpt lat="22.2491023" lon="114.2129877">
<ele>36.111</ele>
<time>2017-11-26T05:51:21.654Z</time>
</trkpt>
<trkpt lat="22.2490797" lon="114.2128894">
<ele>36.073</ele>
<time>2017-11-26T05:51:35.835Z</time>
</trkpt>
<trkpt lat="22.2491808" lon="114.2129096">
<ele>35.643</ele>
<time>2017-11-26T05:51:48.472Z</time>
</trkpt>
<trkpt lat="22.2492729" lon="114.2129089">
<ele>34.574</ele>
<time>2017-11-26T05:52:00.213Z</time>
</trkpt>
<trkpt lat="22.2493562" lon="114.2128630">
<ele>33.533</ele>
<time>2017-11-26T05:52:09.296Z</time>
</trkpt>
<trkpt lat="22.2497944" lon="114.2130055">
<ele>33.365</ele>
<time>2017-11-26T05:52:52.075Z</time>
</trkpt>
<trkpt lat="22.2498779" lon="114.2129588">
<ele>34.075</ele>
<time>2017-11-26T05:53:00.993Z</time>
</trkpt>
<trkpt lat="22.2498779" lon="114.2129588">
<ele>34.990</ele>
<time>2017-11-26T05:53:07.992Z</time>
</trkpt>
<trkpt lat="22.2498779" lon="114.2129588">
<ele>35.530</ele>
<time>2017-11-26T05:54:11.806Z</time>
</trkpt>
<trkpt lat="22.2499683" lon="114.2129038">
<ele>35.480</ele>
<time>2017-11-26T05:54:56.666Z</time>
</trkpt>
<trkpt lat="22.2500406" lon="114.2128354">
<ele>35.621</ele>
<time>2017-11-26T05:55:06.052Z</time>
</trkpt>
<trkpt lat="22.2500991" lon="114.2127588">
<ele>36.598</ele>
<time>2017-11-26T05:55:16.161Z</time>
</trkpt>
<trkpt lat="22.2501765" lon="114.2126969">
<ele>37.830</ele>
<time>2017-11-26T05:55:26.755Z</time>
</trkpt>
<trkpt lat="22.2502737" lon="114.2126609">
<ele>39.126</ele>
<time>2017-11-26T05:55:38.110Z</time>
</trkpt>
<trkpt lat="22.2503666" lon="114.2126575">
<ele>40.865</ele>
<time>2017-11-26T05:55:45.942Z</time>
</trkpt>
<trkpt lat="22.2504658" lon="114.2126810">
<ele>42.502</ele>
<time>2017-11-26T05:55:55.279Z</time>
</trkpt>
<trkpt lat="22.2505418" lon="114.2127371">
<ele>43.500</ele>
<time>2017-11-26T05:56:05.726Z</time>
</trkpt>
<trkpt lat="22.2506349" lon="114.2127406">
<ele>44.187</ele>
<time>2017-11-26T05:56:16.920Z</time>
</trkpt>
<trkpt lat="22.2507112" lon="114.2128078">
<ele>44.858</ele>
<time>2017-11-26T05:56:28.913Z</time>
</trkpt>
<trkpt lat="22.2507631" lon="114.2128977">
<ele>45.475</ele>
<time>2017-11-26T05:56:43.840Z</time>
</trkpt>
<trkpt lat="22.2507514" lon="114.2129980">
<ele>45.956</ele>
<time>2017-11-26T05:56:58.322Z</time>
</trkpt>
<trkpt lat="22.2507551" lon="114.2130966">
<ele>46.509</ele>
<time>2017-11-26T05:57:09.233Z</time>
</trkpt>
<trkpt lat="22.2508452" lon="114.2131455">
<ele>47.582</ele>
<time>2017-11-26T05:57:20.546Z</time>
</trkpt>
<trkpt lat="22.2509247" lon="114.2131911">
<ele>49.286</ele>
<time>2017-11-26T05:57:30.043Z</time>
</trkpt>
<trkpt lat="22.2510143" lon="114.2131759">
<ele>51.019</ele>
<time>2017-11-26T05:57:39.119Z</time>
</trkpt>
<trkpt lat="22.2511061" lon="114.2131823">
<ele>52.058</ele>
<time>2017-11-26T05:57:49.848Z</time>
</trkpt>
<trkpt lat="22.2512039" lon="114.2131805">
<ele>52.407</ele>
<time>2017-11-26T05:58:02.489Z</time>
</trkpt>
<trkpt lat="22.2512963" lon="114.2131478">
<ele>52.573</ele>
<time>2017-11-26T05:58:11.716Z</time>
</trkpt>
<trkpt lat="22.2513500" lon="114.2132341">
<ele>53.031</ele>
<time>2017-11-26T05:58:20.992Z</time>
</trkpt>
<trkpt lat="22.2513500" lon="114.2132341">
<ele>53.808</ele>
<time>2017-11-26T05:58:40.991Z</time>
</trkpt>
<trkpt lat="22.2513500" lon="114.2132341">
<ele>54.351</ele>
<time>2017-11-26T05:58:41.091Z</time>
</trkpt>
<trkpt lat="22.2514844" lon="114.2132165">
<ele>54.307</ele>
<time>2017-11-26T05:59:03.634Z</time>
</trkpt>
<trkpt lat="22.2515657" lon="114.2131664">
<ele>54.631</ele>
<time>2017-11-26T05:59:15.685Z</time>
</trkpt>
<trkpt lat="22.2516359" lon="114.2131011">
<ele>56.121</ele>
<time>2017-11-26T05:59:29.990Z</time>
</trkpt>
<trkpt lat="22.2516359" lon="114.2131011">
<ele>57.890</ele>
<time>2017-11-26T05:59:36.990Z</time>
</trkpt>
<trkpt lat="22.2516359" lon="114.2131011">
<ele>58.723</ele>
<time>2017-11-26T05:59:37.090Z</time>
</trkpt>
<trkpt lat="22.2517868" lon="114.2131554">
<ele>58.609</ele>
<time>2017-11-26T05:59:53.017Z</time>
</trkpt>
<trkpt lat="22.2518522" lon="114.2132380">
<ele>58.641</ele>
<time>2017-11-26T05:59:59.938Z</time>
</trkpt>
<trkpt lat="22.2519465" lon="114.2132214">
<ele>59.641</ele>
<time>2017-11-26T06:00:07.157Z</time>
</trkpt>
<trkpt lat="22.2520076" lon="114.2133007">
<ele>61.041</ele>
<time>2017-11-26T06:00:14.989Z</time>
</trkpt>
<trkpt lat="22.2520076" lon="114.2133007">
<ele>62.013</ele>
<time>2017-11-26T06:00:15.989Z</time>
</trkpt>
<trkpt lat="22.2520076" lon="114.2133007">
<ele>62.383</ele>
<time>2017-11-26T06:00:33.989Z</time>
</trkpt>
<trkpt lat="22.2520076" lon="114.2133007">
<ele>62.299</ele>
<time>2017-11-26T06:00:34.089Z</time>
</trkpt>
<trkpt lat="22.2520740" lon="114.2133816">
<ele>62.131</ele>
<time>2017-11-26T06:01:01.350Z</time>
</trkpt>
<trkpt lat="22.2521656" lon="114.2133834">
<ele>62.293</ele>
<time>2017-11-26T06:01:09.136Z</time>
</trkpt>
<trkpt lat="22.2522418" lon="114.2134468">
<ele>62.560</ele>
<time>2017-11-26T06:01:18.289Z</time>
</trkpt>
<trkpt lat="22.2523222" lon="114.2135011">
<ele>62.971</ele>
<time>2017-11-26T06:01:27.987Z</time>
</trkpt>
<trkpt lat="22.2523222" lon="114.2135011">
<ele>63.504</ele>
<time>2017-11-26T06:01:32.987Z</time>
</trkpt>
<trkpt lat="22.2523222" lon="114.2135011">
<ele>63.854</ele>
<time>2017-11-26T06:03:45.900Z</time>
</trkpt>
<trkpt lat="22.2524127" lon="114.2135024">
<ele>63.811</ele>
<time>2017-11-26T06:04:04.238Z</time>
</trkpt>
<trkpt lat="22.2524940" lon="114.2135606">
<ele>63.752</ele>
<time>2017-11-26T06:04:15.994Z</time>
</trkpt>
<trkpt lat="22.2525896" lon="114.2135851">
<ele>64.040</ele>
<time>2017-11-26T06:04:27.677Z</time>
</trkpt>
<trkpt lat="22.2526658" lon="114.2136486">
<ele>64.644</ele>
<time>2017-11-26T06:04:41.720Z</time>
</trkpt>
<trkpt lat="22.2527528" lon="114.2136932">
<ele>65.368</ele>
<time>2017-11-26T06:04:57.361Z</time>
</trkpt>
<trkpt lat="22.2528313" lon="114.2137488">
<ele>66.102</ele>
<time>2017-11-26T06:05:17.257Z</time>
</trkpt>
<trkpt lat="22.2529179" lon="114.2137933">
<ele>67.037</ele>
<time>2017-11-26T06:05:32.059Z</time>
</trkpt>
<trkpt lat="22.2530104" lon="114.2138078">
<ele>68.354</ele>
<time>2017-11-26T06:05:45.988Z</time>
</trkpt>
<trkpt lat="22.2530104" lon="114.2138078">
<ele>69.633</ele>
<time>2017-11-26T06:05:53.988Z</time>
</trkpt>
<trkpt lat="22.2530104" lon="114.2138078">
<ele>70.258</ele>
<time>2017-11-26T06:06:05.774Z</time>
</trkpt>
<trkpt lat="22.2531266" lon="114.2138337">
<ele>70.166</ele>
<time>2017-11-26T06:06:24.415Z</time>
</trkpt>
<trkpt lat="22.2532156" lon="114.2138728">
<ele>70.348</ele>
<time>2017-11-26T06:06:35.801Z</time>
</trkpt>
<trkpt lat="22.2532968" lon="114.2139155">
<ele>71.794</ele>
<time>2017-11-26T06:06:48.440Z</time>
</trkpt>
<trkpt lat="22.2533812" lon="114.2138722">
<ele>74.271</ele>
<time>2017-11-26T06:07:01.824Z</time>
</trkpt>
<trkpt lat="22.2534744" lon="114.2138845">
<ele>77.161</ele>
<time>2017-11-26T06:07:13.986Z</time>
</trkpt>
<trkpt lat="22.2534744" lon="114.2138845">
<ele>79.861</ele>
<time>2017-11-26T06:07:19.986Z</time>
</trkpt>
<trkpt lat="22.2534744" lon="114.2138845">
<ele>81.288</ele>
<time>2017-11-26T06:07:20.340Z</time>
</trkpt>
<trkpt lat="22.2535480" lon="114.2138259">
<ele>81.132</ele>
<time>2017-11-26T06:07:35.758Z</time>
</trkpt>
<trkpt lat="22.2536361" lon="114.2138713">
<ele>81.075</ele>
<time>2017-11-26T06:07:46.301Z</time>
</trkpt>
<trkpt lat="22.2537294" lon="114.2138814">
<ele>82.659</ele>
<time>2017-11-26T06:07:56.985Z</time>
</trkpt>
<trkpt lat="22.2537294" lon="114.2138814">
<ele>85.066</ele>
<time>2017-11-26T06:08:10.984Z</time>
</trkpt>
<trkpt lat="22.2537294" lon="114.2138814">
<ele>86.431</ele>
<time>2017-11-26T06:08:16.300Z</time>
</trkpt>
<trkpt lat="22.2538099" lon="114.2138296">
<ele>86.297</ele>
<time>2017-11-26T06:08:28.745Z</time>
</trkpt>
<trkpt lat="22.2538056" lon="114.2137266">
<ele>86.122</ele>
<time>2017-11-26T06:08:34.984Z</time>
</trkpt>
<trkpt lat="22.2538056" lon="114.2137266">
<ele>87.087</ele>
<time>2017-11-26T06:08:37.984Z</time>
</trkpt>
<trkpt lat="22.2538056" lon="114.2137266">
<ele>88.142</ele>
<time>2017-11-26T06:09:33.122Z</time>
</trkpt>
<trkpt lat="22.2538056" lon="114.2137266">
<ele>87.509</ele>
<time>2017-11-26T06:09:51.988Z</time>
</trkpt>
<trkpt lat="22.2538056" lon="114.2137266">
<ele>87.115</ele>
<time>2017-11-26T06:14:06.550Z</time>
</trkpt>
<trkpt lat="22.2537658" lon="114.2138218">
<ele>87.185</ele>
<time>2017-11-26T06:14:21.642Z</time>
</trkpt>
<trkpt lat="22.2536977" lon="114.2138892">
<ele>87.721</ele>
<time>2017-11-26T06:14:29.066Z</time>
</trkpt>
<trkpt lat="22.2536416" lon="114.2139672">
<ele>88.478</ele>
<time>2017-11-26T06:14:35.982Z</time>
</trkpt>
<trkpt lat="22.2536416" lon="114.2139672">
<ele>88.944</ele>
<time>2017-11-26T06:14:35.982Z</time>
</trkpt>
<trkpt lat="22.2536416" lon="114.2139672">
<ele>88.881</ele>
<time>2017-11-26T06:15:41.486Z</time>
</trkpt>
<trkpt lat="22.2536718" lon="114.2138689">
<ele>88.594</ele>
<time>2017-11-26T06:15:50.980Z</time>
</trkpt>
<trkpt lat="22.2536718" lon="114.2138689">
<ele>88.412</ele>
<time>2017-11-26T06:15:55.980Z</time>
</trkpt>
<trkpt lat="22.2536718" lon="114.2138689">
<ele>88.362</ele>
<time>2017-11-26T06:15:56.080Z</time>
</trkpt>
<trkpt lat="22.2535791" lon="114.2138945">
<ele>88.322</ele>
<time>2017-11-26T06:16:18.990Z</time>
</trkpt>
<trkpt lat="22.2534822" lon="114.2139094">
<ele>88.007</ele>
<time>2017-11-26T06:16:28.979Z</time>
</trkpt>
<trkpt lat="22.2534822" lon="114.2139094">
<ele>87.217</ele>
<time>2017-11-26T06:16:35.979Z</time>
</trkpt>
<trkpt lat="22.2534822" lon="114.2139094">
<ele>86.547</ele>
<time>2017-11-26T06:16:36.079Z</time>
</trkpt>
<trkpt lat="22.2535814" lon="114.2139096">
<ele>86.832</ele>
<time>2017-11-26T06:17:02.367Z</time>
</trkpt>
<trkpt lat="22.2536652" lon="114.2138667">
<ele>87.078</ele>
<time>2017-11-26T06:17:16.356Z</time>
</trkpt>
<trkpt lat="22.2537585" lon="114.2138685">
<ele>87.234</ele>
<time>2017-11-26T06:17:27.677Z</time>
</trkpt>
<trkpt lat="22.2538274" lon="114.2138044">
<ele>87.619</ele>
<time>2017-11-26T06:17:37.727Z</time>
</trkpt>
<trkpt lat="22.2538614" lon="114.2137127">
<ele>88.421</ele>
<time>2017-11-26T06:17:49.984Z</time>
</trkpt>
<trkpt lat="22.2538614" lon="114.2137127">
<ele>89.269</ele>
<time>2017-11-26T06:18:00.984Z</time>
</trkpt>
<trkpt lat="22.2538614" lon="114.2137127">
<ele>89.664</ele>
<time>2017-11-26T06:18:31.519Z</time>
</trkpt>
<trkpt lat="22.2539661" lon="114.2136286">
<ele>89.585</ele>
<time>2017-11-26T06:18:55.764Z</time>
</trkpt>
<trkpt lat="22.2540375" lon="114.2135682">
<ele>89.837</ele>
<time>2017-11-26T06:19:07.614Z</time>
</trkpt>
<trkpt lat="22.2541145" lon="114.2135067">
<ele>91.318</ele>
<time>2017-11-26T06:19:21.982Z</time>
</trkpt>
<trkpt lat="22.2541145" lon="114.2135067">
<ele>93.499</ele>
<time>2017-11-26T06:19:59.981Z</time>
</trkpt>
<trkpt lat="22.2541145" lon="114.2135067">
<ele>94.803</ele>
<time>2017-11-26T06:23:39.979Z</time>
</trkpt>
<trkpt lat="22.2542168" lon="114.2133749">
<ele>94.681</ele>
<time>2017-11-26T06:25:28.981Z</time>
</trkpt>
<trkpt lat="22.2542168" lon="114.2133749">
<ele>94.123</ele>
<time>2017-11-26T06:25:33.981Z</time>
</trkpt>
<trkpt lat="22.2542168" lon="114.2133749">
<ele>94.040</ele>
<time>2017-11-26T06:25:34.081Z</time>
</trkpt>
<trkpt lat="22.2541763" lon="114.2132657">
<ele>94.300</ele>
<time>2017-11-26T06:26:07.311Z</time>
</trkpt>
<trkpt lat="22.2541450" lon="114.2133675">
<ele>95.870</ele>
<time>2017-11-26T06:26:18.528Z</time>
</trkpt>
<trkpt lat="22.2541284" lon="114.2134655">
<ele>99.479</ele>
<time>2017-11-26T06:26:23.980Z</time>
</trkpt>
<trkpt lat="22.2541284" lon="114.2134655">
<ele>102.905</ele>
<time>2017-11-26T06:26:25.980Z</time>
</trkpt>
<trkpt lat="22.2541284" lon="114.2134655">
<ele>104.073</ele>
<time>2017-11-26T06:26:26.080Z</time>
</trkpt>
<trkpt lat="22.2542137" lon="114.2134219">
<ele>103.139</ele>
<time>2017-11-26T06:26:40.979Z</time>
</trkpt>
<trkpt lat="22.2542137" lon="114.2134219">
<ele>102.811</ele>
<time>2017-11-26T06:26:49.979Z</time>
</trkpt>
<trkpt lat="22.2542137" lon="114.2134219">
<ele>102.797</ele>
<time>2017-11-26T06:26:51.224Z</time>
</trkpt>
<trkpt lat="22.2542675" lon="114.2132807">
<ele>102.912</ele>
<time>2017-11-26T06:27:06.296Z</time>
</trkpt>
<trkpt lat="22.2543219" lon="114.2131867">
<ele>103.644</ele>
<time>2017-11-26T06:27:11.979Z</time>
</trkpt>
<trkpt lat="22.2543219" lon="114.2131867">
<ele>105.352</ele>
<time>2017-11-26T06:27:30.979Z</time>
</trkpt>
<trkpt lat="22.2543219" lon="114.2131867">
<ele>106.734</ele>
<time>2017-11-26T06:27:31.079Z</time>
</trkpt>
<trkpt lat="22.2543298" lon="114.2130841">
<ele>106.663</ele>
<time>2017-11-26T06:27:44.978Z</time>
</trkpt>
<trkpt lat="22.2543298" lon="114.2130841">
<ele>106.061</ele>
<time>2017-11-26T06:27:54.978Z</time>
</trkpt>
<trkpt lat="22.2543298" lon="114.2130841">
<ele>105.964</ele>
<time>2017-11-26T06:27:55.078Z</time>
</trkpt>
<trkpt lat="22.2544852" lon="114.2131509">
<ele>106.243</ele>
<time>2017-11-26T06:28:13.891Z</time>
</trkpt>
<trkpt lat="22.2545432" lon="114.2132387">
<ele>107.992</ele>
<time>2017-11-26T06:28:24.006Z</time>
</trkpt>
<trkpt lat="22.2546381" lon="114.2132082">
<ele>112.082</ele>
<time>2017-11-26T06:28:34.091Z</time>
</trkpt>
<trkpt lat="22.2547301" lon="114.2131919">
<ele>116.330</ele>
<time>2017-11-26T06:28:46.813Z</time>
</trkpt>
<trkpt lat="22.2547883" lon="114.2131069">
<ele>118.522</ele>
<time>2017-11-26T06:28:56.710Z</time>
</trkpt>
<trkpt lat="22.2548722" lon="114.2130684">
<ele>119.059</ele>
<time>2017-11-26T06:29:06.060Z</time>
</trkpt>
<trkpt lat="22.2549601" lon="114.2130403">
<ele>119.202</ele>
<time>2017-11-26T06:29:15.895Z</time>
</trkpt>
<trkpt lat="22.2549787" lon="114.2129433">
<ele>120.019</ele>
<time>2017-11-26T06:29:24.976Z</time>
</trkpt>
<trkpt lat="22.2549787" lon="114.2129433">
<ele>121.412</ele>
<time>2017-11-26T06:29:33.976Z</time>
</trkpt>
<trkpt lat="22.2549787" lon="114.2129433">
<ele>122.310</ele>
<time>2017-11-26T06:29:35.308Z</time>
</trkpt>
<trkpt lat="22.2550892" lon="114.2130391">
<ele>122.215</ele>
<time>2017-11-26T06:29:47.976Z</time>
</trkpt>
<trkpt lat="22.2550892" lon="114.2130391">
<ele>121.796</ele>
<time>2017-11-26T06:30:06.975Z</time>
</trkpt>
<trkpt lat="22.2550892" lon="114.2130391">
<ele>121.714</ele>
<time>2017-11-26T06:30:07.075Z</time>
</trkpt>
<trkpt lat="22.2551835" lon="114.2129392">
<ele>121.883</ele>
<time>2017-11-26T06:30:20.975Z</time>
</trkpt>
<trkpt lat="22.2551835" lon="114.2129392">
<ele>121.987</ele>
<time>2017-11-26T06:30:42.975Z</time>
</trkpt>
<trkpt lat="22.2551835" lon="114.2129392">
<ele>121.946</ele>
<time>2017-11-26T06:30:43.075Z</time>
</trkpt>
<trkpt lat="22.2553668" lon="114.2128456">
<ele>121.867</ele>
<time>2017-11-26T06:31:15.442Z</time>
</trkpt>
<trkpt lat="22.2554180" lon="114.2127610">
<ele>123.827</ele>
<time>2017-11-26T06:31:28.980Z</time>
</trkpt>
<trkpt lat="22.2554180" lon="114.2127610">
<ele>129.015</ele>
<time>2017-11-26T06:31:30.980Z</time>
</trkpt>
<trkpt lat="22.2554180" lon="114.2127610">
<ele>133.329</ele>
<time>2017-11-26T06:31:31.080Z</time>
</trkpt>
<trkpt lat="22.2555103" lon="114.2127174">
<ele>130.855</ele>
<time>2017-11-26T06:32:05.595Z</time>
</trkpt>
<trkpt lat="22.2555317" lon="114.2128117">
<ele>130.480</ele>
<time>2017-11-26T06:32:20.341Z</time>
</trkpt>
<trkpt lat="22.2555844" lon="114.2127319">
<ele>133.694</ele>
<time>2017-11-26T06:32:34.979Z</time>
</trkpt>
<trkpt lat="22.2555844" lon="114.2127319">
<ele>138.160</ele>
<time>2017-11-26T06:32:39.978Z</time>
</trkpt>
<trkpt lat="22.2555844" lon="114.2127319">
<ele>140.513</ele>
<time>2017-11-26T06:32:40.078Z</time>
</trkpt>
<trkpt lat="22.2556812" lon="114.2126956">
<ele>140.253</ele>
<time>2017-11-26T06:32:57.400Z</time>
</trkpt>
<trkpt lat="22.2557723" lon="114.2126712">
<ele>140.180</ele>
<time>2017-11-26T06:33:09.978Z</time>
</trkpt>
<trkpt lat="22.2557723" lon="114.2126712">
<ele>142.425</ele>
<time>2017-11-26T06:33:24.977Z</time>
</trkpt>
<trkpt lat="22.2557723" lon="114.2126712">
<ele>144.723</ele>
<time>2017-11-26T07:08:47.085Z</time>
</trkpt>
<trkpt lat="22.2558819" lon="114.2126930">
<ele>144.678</ele>
<time>2017-11-26T07:10:14.899Z</time>
</trkpt>
<trkpt lat="22.2557934" lon="114.2126723">
<ele>144.323</ele>
<time>2017-11-26T07:10:25.960Z</time>
</trkpt>
<trkpt lat="22.2557934" lon="114.2126723">
<ele>145.823</ele>
<time>2017-11-26T07:10:27.960Z</time>
</trkpt>
<trkpt lat="22.2557934" lon="114.2126723">
<ele>147.521</ele>
<time>2017-11-26T07:10:28.060Z</time>
</trkpt>
<trkpt lat="22.2557016" lon="114.2126868">
<ele>146.501</ele>
<time>2017-11-26T07:10:44.730Z</time>
</trkpt>
<trkpt lat="22.2556109" lon="114.2127090">
<ele>145.769</ele>
<time>2017-11-26T07:10:55.960Z</time>
</trkpt>
<trkpt lat="22.2556109" lon="114.2127090">
<ele>145.492</ele>
<time>2017-11-26T07:11:01.959Z</time>
</trkpt>
<trkpt lat="22.2556109" lon="114.2127090">
<ele>145.441</ele>
<time>2017-11-26T07:11:02.059Z</time>
</trkpt>
<trkpt lat="22.2555174" lon="114.2127107">
<ele>145.350</ele>
<time>2017-11-26T07:12:14.958Z</time>
</trkpt>
<trkpt lat="22.2555174" lon="114.2127107">
<ele>145.302</ele>
<time>2017-11-26T07:12:22.958Z</time>
</trkpt>
<trkpt lat="22.2555174" lon="114.2127107">
<ele>145.238</ele>
<time>2017-11-26T07:12:23.058Z</time>
</trkpt>
<trkpt lat="22.2554319" lon="114.2126756">
<ele>145.171</ele>
<time>2017-11-26T07:12:38.477Z</time>
</trkpt>
<trkpt lat="22.2553661" lon="114.2127469">
<ele>144.110</ele>
<time>2017-11-26T07:12:52.225Z</time>
</trkpt>
<trkpt lat="22.2552765" lon="114.2127759">
<ele>141.381</ele>
<time>2017-11-26T07:13:06.957Z</time>
</trkpt>
<trkpt lat="22.2552765" lon="114.2127759">
<ele>138.561</ele>
<time>2017-11-26T07:13:18.957Z</time>
</trkpt>
<trkpt lat="22.2552765" lon="114.2127759">
<ele>137.356</ele>
<time>2017-11-26T07:13:19.057Z</time>
</trkpt>
<trkpt lat="22.2551727" lon="114.2128495">
<ele>137.479</ele>
<time>2017-11-26T07:13:34.515Z</time>
</trkpt>
<trkpt lat="22.2551053" lon="114.2129256">
<ele>137.312</ele>
<time>2017-11-26T07:13:40.818Z</time>
</trkpt>
<trkpt lat="22.2550146" lon="114.2129073">
<ele>135.683</ele>
<time>2017-11-26T07:13:45.956Z</time>
</trkpt>
<trkpt lat="22.2550146" lon="114.2129073">
<ele>133.472</ele>
<time>2017-11-26T07:14:04.957Z</time>
</trkpt>
<trkpt lat="22.2550146" lon="114.2129073">
<ele>132.263</ele>
<time>2017-11-26T07:14:05.057Z</time>
</trkpt>
<trkpt lat="22.2549289" lon="114.2129676">
<ele>132.307</ele>
<time>2017-11-26T07:14:28.405Z</time>
</trkpt>
<trkpt lat="22.2548611" lon="114.2130360">
<ele>131.870</ele>
<time>2017-11-26T07:14:39.961Z</time>
</trkpt>
<trkpt lat="22.2548611" lon="114.2130360">
<ele>129.698</ele>
<time>2017-11-26T07:14:46.961Z</time>
</trkpt>
<trkpt lat="22.2548611" lon="114.2130360">
<ele>127.667</ele>
<time>2017-11-26T07:14:47.061Z</time>
</trkpt>
<trkpt lat="22.2547755" lon="114.2130952">
<ele>127.625</ele>
<time>2017-11-26T07:15:02.897Z</time>
</trkpt>
<trkpt lat="22.2546803" lon="114.2131328">
<ele>127.328</ele>
<time>2017-11-26T07:15:09.961Z</time>
</trkpt>
<trkpt lat="22.2546803" lon="114.2131328">
<ele>124.691</ele>
<time>2017-11-26T07:15:20.960Z</time>
</trkpt>
<trkpt lat="22.2546803" lon="114.2131328">
<ele>122.100</ele>
<time>2017-11-26T07:15:24.514Z</time>
</trkpt>
<trkpt lat="22.2547758" lon="114.2131168">
<ele>123.365</ele>
<time>2017-11-26T07:15:51.752Z</time>
</trkpt>
<trkpt lat="22.2548508" lon="114.2130529">
<ele>123.921</ele>
<time>2017-11-26T07:16:02.934Z</time>
</trkpt>
<trkpt lat="22.2549112" lon="114.2129790">
<ele>123.130</ele>
<time>2017-11-26T07:16:12.959Z</time>
</trkpt>
<trkpt lat="22.2549112" lon="114.2129790">
<ele>122.162</ele>
<time>2017-11-26T07:16:17.959Z</time>
</trkpt>
<trkpt lat="22.2549112" lon="114.2129790">
<ele>122.092</ele>
<time>2017-11-26T07:16:18.059Z</time>
</trkpt>
<trkpt lat="22.2550073" lon="114.2129703">
<ele>122.550</ele>
<time>2017-11-26T07:16:35.541Z</time>
</trkpt>
<trkpt lat="22.2550936" lon="114.2129312">
<ele>123.275</ele>
<time>2017-11-26T07:16:49.958Z</time>
</trkpt>
<trkpt lat="22.2550936" lon="114.2129312">
<ele>124.358</ele>
<time>2017-11-26T07:17:05.958Z</time>
</trkpt>
<trkpt lat="22.2550936" lon="114.2129312">
<ele>125.136</ele>
<time>2017-11-26T07:17:12.866Z</time>
</trkpt>
<trkpt lat="22.2551993" lon="114.2128555">
<ele>124.587</ele>
<time>2017-11-26T07:17:35.908Z</time>
</trkpt>
<trkpt lat="22.2552857" lon="114.2128842">
<ele>125.644</ele>
<time>2017-11-26T07:17:48.041Z</time>
</trkpt>
<trkpt lat="22.2553389" lon="114.2128041">
<ele>129.448</ele>
<time>2017-11-26T07:18:00.116Z</time>
</trkpt>
<trkpt lat="22.2553627" lon="114.2126989">
<ele>134.063</ele>
<time>2017-11-26T07:18:11.824Z</time>
</trkpt>
<trkpt lat="22.2554503" lon="114.2126597">
<ele>137.053</ele>
<time>2017-11-26T07:18:23.076Z</time>
</trkpt>
<trkpt lat="22.2555364" lon="114.2126936">
<ele>138.287</ele>
<time>2017-11-26T07:18:34.202Z</time>
</trkpt>
<trkpt lat="22.2556342" lon="114.2127246">
<ele>139.128</ele>
<time>2017-11-26T07:18:46.716Z</time>
</trkpt>
<trkpt lat="22.2556909" lon="114.2128008">
<ele>140.810</ele>
<time>2017-11-26T07:18:57.938Z</time>
</trkpt>
<trkpt lat="22.2557450" lon="114.2127231">
<ele>143.024</ele>
<time>2017-11-26T07:19:07.578Z</time>
</trkpt>
<trkpt lat="22.2558266" lon="114.2126703">
<ele>145.158</ele>
<time>2017-11-26T07:19:19.182Z</time>
</trkpt>
<trkpt lat="22.2559138" lon="114.2127036">
<ele>147.423</ele>
<time>2017-11-26T07:19:36.768Z</time>
</trkpt>
<trkpt lat="22.2559733" lon="114.2126275">
<ele>149.613</ele>
<time>2017-11-26T07:19:55.005Z</time>
</trkpt>
<trkpt lat="22.2560520" lon="114.2125549">
<ele>151.092</ele>
<time>2017-11-26T07:20:09.925Z</time>
</trkpt>
<trkpt lat="22.2561302" lon="114.2124959">
<ele>151.737</ele>
<time>2017-11-26T07:20:22.349Z</time>
</trkpt>
<trkpt lat="22.2561945" lon="114.2124244">
<ele>151.895</ele>
<time>2017-11-26T07:20:30.952Z</time>
</trkpt>
<trkpt lat="22.2562491" lon="114.2123399">
<ele>151.869</ele>
<time>2017-11-26T07:20:38.426Z</time>
</trkpt>
<trkpt lat="22.2562739" lon="114.2122378">
<ele>151.834</ele>
<time>2017-11-26T07:20:46.152Z</time>
</trkpt>
<trkpt lat="22.2563017" lon="114.2121438">
<ele>151.868</ele>
<time>2017-11-26T07:20:53.727Z</time>
</trkpt>
<trkpt lat="22.2563217" lon="114.2120433">
<ele>151.946</ele>
<time>2017-11-26T07:21:02.219Z</time>
</trkpt>
<trkpt lat="22.2563506" lon="114.2119432">
<ele>151.990</ele>
<time>2017-11-26T07:21:11.369Z</time>
</trkpt>
<trkpt lat="22.2563408" lon="114.2118399">
<ele>151.983</ele>
<time>2017-11-26T07:21:20.009Z</time>
</trkpt>
<trkpt lat="22.2563172" lon="114.2117372">
<ele>151.978</ele>
<time>2017-11-26T07:21:28.177Z</time>
</trkpt>
<trkpt lat="22.2563183" lon="114.2116358">
<ele>152.024</ele>
<time>2017-11-26T07:21:36.080Z</time>
</trkpt>
<trkpt lat="22.2563707" lon="114.2115417">
<ele>152.177</ele>
<time>2017-11-26T07:21:45.056Z</time>
</trkpt>
<trkpt lat="22.2564431" lon="114.2114669">
<ele>152.410</ele>
<time>2017-11-26T07:21:53.438Z</time>
</trkpt>
<trkpt lat="22.2565094" lon="114.2113947">
<ele>152.614</ele>
<time>2017-11-26T07:22:00.363Z</time>
</trkpt>
<trkpt lat="22.2565814" lon="114.2113285">
<ele>152.733</ele>
<time>2017-11-26T07:22:07.324Z</time>
</trkpt>
<trkpt lat="22.2565863" lon="114.2112164">
<ele>152.791</ele>
<time>2017-11-26T07:22:15.561Z</time>
</trkpt>
<trkpt lat="22.2565457" lon="114.2111059">
<ele>152.846</ele>
<time>2017-11-26T07:22:23.958Z</time>
</trkpt>
<trkpt lat="22.2565457" lon="114.2111059">
<ele>152.943</ele>
<time>2017-11-26T07:22:31.957Z</time>
</trkpt>
<trkpt lat="22.2565457" lon="114.2111059">
<ele>152.996</ele>
<time>2017-11-26T07:22:50.987Z</time>
</trkpt>
<trkpt lat="22.2565898" lon="114.2110090">
<ele>152.931</ele>
<time>2017-11-26T07:23:07.926Z</time>
</trkpt>
<trkpt lat="22.2566341" lon="114.2109241">
<ele>152.848</ele>
<time>2017-11-26T07:23:16.273Z</time>
</trkpt>
<trkpt lat="22.2567012" lon="114.2108507">
<ele>152.884</ele>
<time>2017-11-26T07:23:23.624Z</time>
</trkpt>
<trkpt lat="22.2567455" lon="114.2107577">
<ele>153.047</ele>
<time>2017-11-26T07:23:31.156Z</time>
</trkpt>
<trkpt lat="22.2568153" lon="114.2106838">
<ele>153.267</ele>
<time>2017-11-26T07:23:39.234Z</time>
</trkpt>
<trkpt lat="22.2568253" lon="114.2105808">
<ele>153.479</ele>
<time>2017-11-26T07:23:47.396Z</time>
</trkpt>
<trkpt lat="22.2567979" lon="114.2104831">
<ele>153.652</ele>
<time>2017-11-26T07:23:56.044Z</time>
</trkpt>
<trkpt lat="22.2567631" lon="114.2103786">
<ele>153.783</ele>
<time>2017-11-26T07:24:06.170Z</time>
</trkpt>
<trkpt lat="22.2567858" lon="114.2102750">
<ele>153.883</ele>
<time>2017-11-26T07:24:13.681Z</time>
</trkpt>
<trkpt lat="22.2568655" lon="114.2102139">
<ele>154.089</ele>
<time>2017-11-26T07:24:20.004Z</time>
</trkpt>
<trkpt lat="22.2569406" lon="114.2101465">
<ele>154.612</ele>
<time>2017-11-26T07:24:26.528Z</time>
</trkpt>
<trkpt lat="22.2570190" lon="114.2100990">
<ele>155.529</ele>
<time>2017-11-26T07:24:32.955Z</time>
</trkpt>
<trkpt lat="22.2570190" lon="114.2100990">
<ele>156.574</ele>
<time>2017-11-26T07:24:36.955Z</time>
</trkpt>
<trkpt lat="22.2570190" lon="114.2100990">
<ele>157.165</ele>
<time>2017-11-26T07:28:07.423Z</time>
</trkpt>
<trkpt lat="22.2568345" lon="114.2101839">
<ele>156.674</ele>
<time>2017-11-26T07:28:34.446Z</time>
</trkpt>
<trkpt lat="22.2567467" lon="114.2102134">
<ele>156.415</ele>
<time>2017-11-26T07:28:42.015Z</time>
</trkpt>
<trkpt lat="22.2567135" lon="114.2103185">
<ele>156.178</ele>
<time>2017-11-26T07:28:49.347Z</time>
</trkpt>
<trkpt lat="22.2567350" lon="114.2104135">
<ele>155.685</ele>
<time>2017-11-26T07:28:55.218Z</time>
</trkpt>
<trkpt lat="22.2567704" lon="114.2105143">
<ele>155.000</ele>
<time>2017-11-26T07:29:02.213Z</time>
</trkpt>
<trkpt lat="22.2567928" lon="114.2106127">
<ele>154.454</ele>
<time>2017-11-26T07:29:09.421Z</time>
</trkpt>
<trkpt lat="22.2567907" lon="114.2107133">
<ele>154.185</ele>
<time>2017-11-26T07:29:16.430Z</time>
</trkpt>
<trkpt lat="22.2567081" lon="114.2107806">
<ele>154.055</ele>
<time>2017-11-26T07:29:23.520Z</time>
</trkpt>
<trkpt lat="22.2566456" lon="114.2108650">
<ele>153.915</ele>
<time>2017-11-26T07:29:29.876Z</time>
</trkpt>
<trkpt lat="22.2565995" lon="114.2109494">
<ele>153.724</ele>
<time>2017-11-26T07:29:35.448Z</time>
</trkpt>
<trkpt lat="22.2565535" lon="114.2110359">
<ele>153.592</ele>
<time>2017-11-26T07:29:41.268Z</time>
</trkpt>
<trkpt lat="22.2565693" lon="114.2111391">
<ele>153.436</ele>
<time>2017-11-26T07:29:47.755Z</time>
</trkpt>
<trkpt lat="22.2565554" lon="114.2112422">
<ele>153.293</ele>
<time>2017-11-26T07:29:54.653Z</time>
</trkpt>
<trkpt lat="22.2565029" lon="114.2113301">
<ele>153.192</ele>
<time>2017-11-26T07:30:01.702Z</time>
</trkpt>
<trkpt lat="22.2564440" lon="114.2114172">
<ele>153.108</ele>
<time>2017-11-26T07:30:08.568Z</time>
</trkpt>
<trkpt lat="22.2563971" lon="114.2115005">
<ele>153.016</ele>
<time>2017-11-26T07:30:14.698Z</time>
</trkpt>
<trkpt lat="22.2563607" lon="114.2115948">
<ele>152.892</ele>
<time>2017-11-26T07:30:21.540Z</time>
</trkpt>
<trkpt lat="22.2563167" lon="114.2116829">
<ele>152.687</ele>
<time>2017-11-26T07:30:28.554Z</time>
</trkpt>
<trkpt lat="22.2563118" lon="114.2117878">
<ele>152.423</ele>
<time>2017-11-26T07:30:35.835Z</time>
</trkpt>
<trkpt lat="22.2563297" lon="114.2118931">
<ele>152.211</ele>
<time>2017-11-26T07:30:42.953Z</time>
</trkpt>
<trkpt lat="22.2563297" lon="114.2118931">
<ele>152.104</ele>
<time>2017-11-26T07:30:45.953Z</time>
</trkpt>
<trkpt lat="22.2563297" lon="114.2118931">
<ele>152.058</ele>
<time>2017-11-26T07:30:57.121Z</time>
</trkpt>
<trkpt lat="22.2563053" lon="114.2119948">
<ele>151.978</ele>
<time>2017-11-26T07:31:10.732Z</time>
</trkpt>
<trkpt lat="22.2562600" lon="114.2120935">
<ele>151.939</ele>
<time>2017-11-26T07:31:18.670Z</time>
</trkpt>
<trkpt lat="22.2562307" lon="114.2121893">
<ele>151.900</ele>
<time>2017-11-26T07:31:24.870Z</time>
</trkpt>
<trkpt lat="22.2562011" lon="114.2122925">
<ele>151.839</ele>
<time>2017-11-26T07:31:30.952Z</time>
</trkpt>
<trkpt lat="22.2562011" lon="114.2122925">
<ele>151.766</ele>
<time>2017-11-26T07:31:34.952Z</time>
</trkpt>
<trkpt lat="22.2562011" lon="114.2122925">
<ele>151.704</ele>
<time>2017-11-26T07:32:03.656Z</time>
</trkpt>
<trkpt lat="22.2561728" lon="114.2123864">
<ele>151.665</ele>
<time>2017-11-26T07:32:15.981Z</time>
</trkpt>
<trkpt lat="22.2561146" lon="114.2124634">
<ele>151.667</ele>
<time>2017-11-26T07:32:24.186Z</time>
</trkpt>
<trkpt lat="22.2560561" lon="114.2125445">
<ele>151.706</ele>
<time>2017-11-26T07:32:32.492Z</time>
</trkpt>
<trkpt lat="22.2559774" lon="114.2126065">
<ele>151.694</ele>
<time>2017-11-26T07:32:40.269Z</time>
</trkpt>
<trkpt lat="22.2559175" lon="114.2126857">
<ele>151.511</ele>
<time>2017-11-26T07:32:48.055Z</time>
</trkpt>
<trkpt lat="22.2558693" lon="114.2127775">
<ele>151.204</ele>
<time>2017-11-26T07:32:57.723Z</time>
</trkpt>
<trkpt lat="22.2559404" lon="114.2127172">
<ele>150.960</ele>
<time>2017-11-26T07:33:07.918Z</time>
</trkpt>
<trkpt lat="22.2558984" lon="114.2128052">
<ele>150.737</ele>
<time>2017-11-26T07:33:19.414Z</time>
</trkpt>
<trkpt lat="22.2558554" lon="114.2128911">
<ele>150.276</ele>
<time>2017-11-26T07:33:29.554Z</time>
</trkpt>
<trkpt lat="22.2558062" lon="114.2129824">
<ele>149.438</ele>
<time>2017-11-26T07:33:38.432Z</time>
</trkpt>
<trkpt lat="22.2557294" lon="114.2130456">
<ele>148.325</ele>
<time>2017-11-26T07:33:47.589Z</time>
</trkpt>
<trkpt lat="22.2556451" lon="114.2130973">
<ele>147.082</ele>
<time>2017-11-26T07:33:56.380Z</time>
</trkpt>
<trkpt lat="22.2555526" lon="114.2131178">
<ele>145.768</ele>
<time>2017-11-26T07:34:03.540Z</time>
</trkpt>
<trkpt lat="22.2554706" lon="114.2131694">
<ele>144.448</ele>
<time>2017-11-26T07:34:10.718Z</time>
</trkpt>
<trkpt lat="22.2553823" lon="114.2131993">
<ele>143.217</ele>
<time>2017-11-26T07:34:18.301Z</time>
</trkpt>
<trkpt lat="22.2552935" lon="114.2132193">
<ele>142.020</ele>
<time>2017-11-26T07:34:26.238Z</time>
</trkpt>
<trkpt lat="22.2552032" lon="114.2132687">
<ele>140.720</ele>
<time>2017-11-26T07:34:34.772Z</time>
</trkpt>
<trkpt lat="22.2551196" lon="114.2133215">
<ele>139.321</ele>
<time>2017-11-26T07:34:43.090Z</time>
</trkpt>
<trkpt lat="22.2550223" lon="114.2133143">
<ele>137.855</ele>
<time>2017-11-26T07:34:51.044Z</time>
</trkpt>
<trkpt lat="22.2549339" lon="114.2133653">
<ele>136.354</ele>
<time>2017-11-26T07:34:58.215Z</time>
</trkpt>
<trkpt lat="22.2548444" lon="114.2134154">
<ele>134.883</ele>
<time>2017-11-26T07:35:05.688Z</time>
</trkpt>
<trkpt lat="22.2548103" lon="114.2135084">
<ele>133.370</ele>
<time>2017-11-26T07:35:13.925Z</time>
</trkpt>
<trkpt lat="22.2547338" lon="114.2135896">
<ele>131.754</ele>
<time>2017-11-26T07:35:25.122Z</time>
</trkpt>
<trkpt lat="22.2546696" lon="114.2136598">
<ele>130.130</ele>
<time>2017-11-26T07:35:33.296Z</time>
</trkpt>
<trkpt lat="22.2546181" lon="114.2137525">
<ele>128.560</ele>
<time>2017-11-26T07:35:39.858Z</time>
</trkpt>
<trkpt lat="22.2545489" lon="114.2138279">
<ele>127.138</ele>
<time>2017-11-26T07:35:45.826Z</time>
</trkpt>
<trkpt lat="22.2544801" lon="114.2139031">
<ele>125.947</ele>
<time>2017-11-26T07:35:52.143Z</time>
</trkpt>
<trkpt lat="22.2544395" lon="114.2139950">
<ele>124.878</ele>
<time>2017-11-26T07:35:59.616Z</time>
</trkpt>
<trkpt lat="22.2543587" lon="114.2140466">
<ele>123.749</ele>
<time>2017-11-26T07:36:07.610Z</time>
</trkpt>
<trkpt lat="22.2542768" lon="114.2140973">
<ele>122.495</ele>
<time>2017-11-26T07:36:15.553Z</time>
</trkpt>
<trkpt lat="22.2541891" lon="114.2141338">
<ele>121.119</ele>
<time>2017-11-26T07:36:22.944Z</time>
</trkpt>
<trkpt lat="22.2541035" lon="114.2141782">
<ele>119.701</ele>
<time>2017-11-26T07:36:31.299Z</time>
</trkpt>
<trkpt lat="22.2540124" lon="114.2141918">
<ele>118.297</ele>
<time>2017-11-26T07:36:40.025Z</time>
</trkpt>
<trkpt lat="22.2539232" lon="114.2142165">
<ele>116.894</ele>
<time>2017-11-26T07:36:48.109Z</time>
</trkpt>
<trkpt lat="22.2538350" lon="114.2142451">
<ele>115.539</ele>
<time>2017-11-26T07:36:56.669Z</time>
</trkpt>
<trkpt lat="22.2537438" lon="114.2142569">
<ele>114.302</ele>
<time>2017-11-26T07:37:04.885Z</time>
</trkpt>
<trkpt lat="22.2536436" lon="114.2142550">
<ele>113.198</ele>
<time>2017-11-26T07:37:12.652Z</time>
</trkpt>
<trkpt lat="22.2535460" lon="114.2142432">
<ele>112.107</ele>
<time>2017-11-26T07:37:20.782Z</time>
</trkpt>
<trkpt lat="22.2534622" lon="114.2142792">
<ele>110.818</ele>
<time>2017-11-26T07:37:28.517Z</time>
</trkpt>
<trkpt lat="22.2533731" lon="114.2143012">
<ele>109.374</ele>
<time>2017-11-26T07:37:36.078Z</time>
</trkpt>
<trkpt lat="22.2532855" lon="114.2143288">
<ele>107.949</ele>
<time>2017-11-26T07:37:43.500Z</time>
</trkpt>
<trkpt lat="22.2531941" lon="114.2143096">
<ele>106.625</ele>
<time>2017-11-26T07:37:50.577Z</time>
</trkpt>
<trkpt lat="22.2531006" lon="114.2142839">
<ele>105.490</ele>
<time>2017-11-26T07:37:57.264Z</time>
</trkpt>
<trkpt lat="22.2530059" lon="114.2142434">
<ele>104.504</ele>
<time>2017-11-26T07:38:04.447Z</time>
</trkpt>
<trkpt lat="22.2529172" lon="114.2142117">
<ele>103.487</ele>
<time>2017-11-26T07:38:12.462Z</time>
</trkpt>
<trkpt lat="22.2528244" lon="114.2142195">
<ele>102.179</ele>
<time>2017-11-26T07:38:20.675Z</time>
</trkpt>
<trkpt lat="22.2527608" lon="114.2141466">
<ele>100.576</ele>
<time>2017-11-26T07:38:27.891Z</time>
</trkpt>
<trkpt lat="22.2526701" lon="114.2141559">
<ele>98.969</ele>
<time>2017-11-26T07:38:34.162Z</time>
</trkpt>
<trkpt lat="22.2525777" lon="114.2141284">
<ele>97.575</ele>
<time>2017-11-26T07:38:40.523Z</time>
</trkpt>
<trkpt lat="22.2525004" lon="114.2140686">
<ele>96.426</ele>
<time>2017-11-26T07:38:47.116Z</time>
</trkpt>
<trkpt lat="22.2524182" lon="114.2140041">
<ele>95.428</ele>
<time>2017-11-26T07:38:54.661Z</time>
</trkpt>
<trkpt lat="22.2523418" lon="114.2139474">
<ele>94.298</ele>
<time>2017-11-26T07:39:02.215Z</time>
</trkpt>
<trkpt lat="22.2522749" lon="114.2138652">
<ele>92.887</ele>
<time>2017-11-26T07:39:11.789Z</time>
</trkpt>
<trkpt lat="22.2522360" lon="114.2137776">
<ele>91.291</ele>
<time>2017-11-26T07:39:19.703Z</time>
</trkpt>
<trkpt lat="22.2521588" lon="114.2137256">
<ele>89.753</ele>
<time>2017-11-26T07:39:27.942Z</time>
</trkpt>
<trkpt lat="22.2520698" lon="114.2136893">
<ele>88.465</ele>
<time>2017-11-26T07:39:37.593Z</time>
</trkpt>
<trkpt lat="22.2519927" lon="114.2136322">
<ele>87.348</ele>
<time>2017-11-26T07:39:45.878Z</time>
</trkpt>
<trkpt lat="22.2518932" lon="114.2135918">
<ele>86.135</ele>
<time>2017-11-26T07:39:54.984Z</time>
</trkpt>
<trkpt lat="22.2518051" lon="114.2135471">
<ele>84.756</ele>
<time>2017-11-26T07:40:02.919Z</time>
</trkpt>
<trkpt lat="22.2516962" lon="114.2135384">
<ele>83.385</ele>
<time>2017-11-26T07:40:11.886Z</time>
</trkpt>
<trkpt lat="22.2516002" lon="114.2135458">
<ele>82.007</ele>
<time>2017-11-26T07:40:19.734Z</time>
</trkpt>
<trkpt lat="22.2515052" lon="114.2135467">
<ele>80.535</ele>
<time>2017-11-26T07:40:27.050Z</time>
</trkpt>
<trkpt lat="22.2514116" lon="114.2135639">
<ele>79.066</ele>
<time>2017-11-26T07:40:33.947Z</time>
</trkpt>
<trkpt lat="22.2513189" lon="114.2135778">
<ele>77.743</ele>
<time>2017-11-26T07:40:40.721Z</time>
</trkpt>
<trkpt lat="22.2512268" lon="114.2135533">
<ele>76.564</ele>
<time>2017-11-26T07:40:48.077Z</time>
</trkpt>
<trkpt lat="22.2511259" lon="114.2135599">
<ele>75.411</ele>
<time>2017-11-26T07:40:55.831Z</time>
</trkpt>
<trkpt lat="22.2510269" lon="114.2135450">
<ele>74.107</ele>
<time>2017-11-26T07:41:03.255Z</time>
</trkpt>
<trkpt lat="22.2509302" lon="114.2135031">
<ele>72.630</ele>
<time>2017-11-26T07:41:10.707Z</time>
</trkpt>
<trkpt lat="22.2508496" lon="114.2134413">
<ele>71.154</ele>
<time>2017-11-26T07:41:17.582Z</time>
</trkpt>
<trkpt lat="22.2507665" lon="114.2133826">
<ele>69.786</ele>
<time>2017-11-26T07:41:24.489Z</time>
</trkpt>
<trkpt lat="22.2506802" lon="114.2133334">
<ele>68.507</ele>
<time>2017-11-26T07:41:31.667Z</time>
</trkpt>
<trkpt lat="22.2505945" lon="114.2133022">
<ele>67.267</ele>
<time>2017-11-26T07:41:38.441Z</time>
</trkpt>
<trkpt lat="22.2505160" lon="114.2132295">
<ele>66.167</ele>
<time>2017-11-26T07:41:46.031Z</time>
</trkpt>
<trkpt lat="22.2504516" lon="114.2131554">
<ele>67.079</ele>
<time>2017-11-26T07:41:53.005Z</time>
</trkpt>
<trkpt lat="22.2503544" lon="114.2131444">
<ele>71.058</ele>
<time>2017-11-26T07:42:00.200Z</time>
</trkpt>
<trkpt lat="22.2502523" lon="114.2131133">
<ele>73.065</ele>
<time>2017-11-26T07:42:08.143Z</time>
</trkpt>
<trkpt lat="22.2501624" lon="114.2130901">
<ele>68.955</ele>
<time>2017-11-26T07:42:14.944Z</time>
</trkpt>
<trkpt lat="22.2501624" lon="114.2130901">
<ele>62.659</ele>
<time>2017-11-26T07:42:15.944Z</time>
</trkpt>
<trkpt lat="22.2501624" lon="114.2130901">
<ele>59.423</ele>
<time>2017-11-26T07:42:16.044Z</time>
</trkpt>
<trkpt lat="22.2500422" lon="114.2130891">
<ele>61.314</ele>
<time>2017-11-26T07:42:29.778Z</time>
</trkpt>
<trkpt lat="22.2499441" lon="114.2131146">
<ele>62.453</ele>
<time>2017-11-26T07:42:36.313Z</time>
</trkpt>
<trkpt lat="22.2498450" lon="114.2131200">
<ele>62.043</ele>
<time>2017-11-26T07:42:42.322Z</time>
</trkpt>
<trkpt lat="22.2497514" lon="114.2131175">
<ele>61.364</ele>
<time>2017-11-26T07:42:47.944Z</time>
</trkpt>
<trkpt lat="22.2497514" lon="114.2131175">
<ele>62.025</ele>
<time>2017-11-26T07:42:47.944Z</time>
</trkpt>
<trkpt lat="22.2497514" lon="114.2131175">
<ele>62.735</ele>
<time>2017-11-26T07:44:45.316Z</time>
</trkpt>
<trkpt lat="22.2496538" lon="114.2131098">
<ele>62.089</ele>
<time>2017-11-26T07:48:22.883Z</time>
</trkpt>
<trkpt lat="22.2495607" lon="114.2131320">
<ele>60.513</ele>
<time>2017-11-26T07:51:13.867Z</time>
</trkpt>
<trkpt lat="22.2494631" lon="114.2131617">
<ele>56.818</ele>
<time>2017-11-26T07:51:33.318Z</time>
</trkpt>
<trkpt lat="22.2493762" lon="114.2131937">
<ele>53.100</ele>
<time>2017-11-26T07:51:39.656Z</time>
</trkpt>
<trkpt lat="22.2492754" lon="114.2132239">
<ele>51.392</ele>
<time>2017-11-26T07:51:45.709Z</time>
</trkpt>
<trkpt lat="22.2491902" lon="114.2132680">
<ele>50.994</ele>
<time>2017-11-26T07:51:50.953Z</time>
</trkpt>
<trkpt lat="22.2491065" lon="114.2133053">
<ele>50.782</ele>
<time>2017-11-26T07:51:56.199Z</time>
</trkpt>
<trkpt lat="22.2490308" lon="114.2133676">
<ele>50.308</ele>
<time>2017-11-26T07:52:02.193Z</time>
</trkpt>
<trkpt lat="22.2489486" lon="114.2134167">
<ele>49.554</ele>
<time>2017-11-26T07:52:08.571Z</time>
</trkpt>
<trkpt lat="22.2488679" lon="114.2134690">
<ele>48.642</ele>
<time>2017-11-26T07:52:15.404Z</time>
</trkpt>
<trkpt lat="22.2488138" lon="114.2135524">
<ele>47.826</ele>
<time>2017-11-26T07:52:22.587Z</time>
</trkpt>
<trkpt lat="22.2487544" lon="114.2136397">
<ele>47.316</ele>
<time>2017-11-26T07:52:30.608Z</time>
</trkpt>
<trkpt lat="22.2486888" lon="114.2137115">
<ele>47.140</ele>
<time>2017-11-26T07:52:38.148Z</time>
</trkpt>
<trkpt lat="22.2486064" lon="114.2137695">
<ele>47.053</ele>
<time>2017-11-26T07:52:45.967Z</time>
</trkpt>
<trkpt lat="22.2485279" lon="114.2138301">
<ele>46.747</ele>
<time>2017-11-26T07:52:53.996Z</time>
</trkpt>
<trkpt lat="22.2485279" lon="114.2138301">
<ele>46.242</ele>
<time>2017-11-26T07:52:54.996Z</time>
</trkpt>
<trkpt lat="22.2485279" lon="114.2138301">
<ele>45.894</ele>
<time>2017-11-26T07:53:05.886Z</time>
</trkpt>
<trkpt lat="22.2484493" lon="114.2139042">
<ele>46.048</ele>
<time>2017-11-26T07:53:19.590Z</time>
</trkpt>
<trkpt lat="22.2483772" lon="114.2139718">
<ele>46.317</ele>
<time>2017-11-26T07:53:26.280Z</time>
</trkpt>
<trkpt lat="22.2483116" lon="114.2140451">
<ele>46.821</ele>
<time>2017-11-26T07:53:31.995Z</time>
</trkpt>
<trkpt lat="22.2483116" lon="114.2140451">
<ele>47.406</ele>
<time>2017-11-26T07:53:33.995Z</time>
</trkpt>
<trkpt lat="22.2483116" lon="114.2140451">
<ele>47.715</ele>
<time>2017-11-26T07:53:53.156Z</time>
</trkpt>
<trkpt lat="22.2482360" lon="114.2139845">
<ele>47.487</ele>
<time>2017-11-26T07:54:07.679Z</time>
</trkpt>
<trkpt lat="22.2481730" lon="114.2139047">
<ele>47.590</ele>
<time>2017-11-26T07:54:12.995Z</time>
</trkpt>
<trkpt lat="22.2481730" lon="114.2139047">
<ele>48.140</ele>
<time>2017-11-26T07:54:15.994Z</time>
</trkpt>
<trkpt lat="22.2481730" lon="114.2139047">
<ele>48.625</ele>
<time>2017-11-26T07:54:18.712Z</time>
</trkpt>
<trkpt lat="22.2481959" lon="114.2137671">
<ele>48.601</ele>
<time>2017-11-26T07:54:32.671Z</time>
</trkpt>
<trkpt lat="22.2481687" lon="114.2136641">
<ele>48.612</ele>
<time>2017-11-26T07:54:39.785Z</time>
</trkpt>
<trkpt lat="22.2481591" lon="114.2135592">
<ele>49.186</ele>
<time>2017-11-26T07:54:46.569Z</time>
</trkpt>
<trkpt lat="22.2482104" lon="114.2134741">
<ele>49.939</ele>
<time>2017-11-26T07:54:52.346Z</time>
</trkpt>
<trkpt lat="22.2482530" lon="114.2133790">
<ele>50.185</ele>
<time>2017-11-26T07:54:57.994Z</time>
</trkpt>
<trkpt lat="22.2482530" lon="114.2133790">
<ele>49.835</ele>
<time>2017-11-26T07:55:00.994Z</time>
</trkpt>
<trkpt lat="22.2482530" lon="114.2133790">
<ele>49.425</ele>
<time>2017-11-26T07:55:05.364Z</time>
</trkpt>
<trkpt lat="22.2483794" lon="114.2132941">
<ele>49.398</ele>
<time>2017-11-26T07:55:24.466Z</time>
</trkpt>
<trkpt lat="22.2483683" lon="114.2131872">
<ele>49.284</ele>
<time>2017-11-26T07:55:31.898Z</time>
</trkpt>
<trkpt lat="22.2483823" lon="114.2130888">
<ele>48.621</ele>
<time>2017-11-26T07:55:36.993Z</time>
</trkpt>
<trkpt lat="22.2483823" lon="114.2130888">
<ele>47.835</ele>
<time>2017-11-26T07:55:39.993Z</time>
</trkpt>
<trkpt lat="22.2483823" lon="114.2130888">
<ele>47.476</ele>
<time>2017-11-26T07:55:40.093Z</time>
</trkpt>
<trkpt lat="22.2484631" lon="114.2130186">
<ele>47.659</ele>
<time>2017-11-26T07:55:50.844Z</time>
</trkpt>
<trkpt lat="22.2485279" lon="114.2129438">
<ele>47.529</ele>
<time>2017-11-26T07:55:55.992Z</time>
</trkpt>
<trkpt lat="22.2485279" lon="114.2129438">
<ele>46.948</ele>
<time>2017-11-26T07:56:01.992Z</time>
</trkpt>
<trkpt lat="22.2485279" lon="114.2129438">
<ele>46.424</ele>
<time>2017-11-26T07:56:37.278Z</time>
</trkpt>
<trkpt lat="22.2484737" lon="114.2130230">
<ele>46.664</ele>
<time>2017-11-26T07:56:50.561Z</time>
</trkpt>
<trkpt lat="22.2484066" lon="114.2131017">
<ele>46.721</ele>
<time>2017-11-26T07:57:00.628Z</time>
</trkpt>
<trkpt lat="22.2483382" lon="114.2131660">
<ele>46.439</ele>
<time>2017-11-26T07:57:09.991Z</time>
</trkpt>
<trkpt lat="22.2483382" lon="114.2131660">
<ele>46.140</ele>
<time>2017-11-26T07:57:12.991Z</time>
</trkpt>
<trkpt lat="22.2483382" lon="114.2131660">
<ele>46.119</ele>
<time>2017-11-26T07:57:15.424Z</time>
</trkpt>
<trkpt lat="22.2482860" lon="114.2132706">
<ele>46.213</ele>
<time>2017-11-26T07:57:31.454Z</time>
</trkpt>
<trkpt lat="22.2482427" lon="114.2133605">
<ele>46.214</ele>
<time>2017-11-26T07:57:38.900Z</time>
</trkpt>
<trkpt lat="22.2482344" lon="114.2134635">
<ele>46.127</ele>
<time>2017-11-26T07:57:45.714Z</time>
</trkpt>
<trkpt lat="22.2481783" lon="114.2135431">
<ele>46.069</ele>
<time>2017-11-26T07:57:52.587Z</time>
</trkpt>
<trkpt lat="22.2481518" lon="114.2136476">
<ele>46.198</ele>
<time>2017-11-26T07:57:59.690Z</time>
</trkpt>
<trkpt lat="22.2481723" lon="114.2137661">
<ele>46.510</ele>
<time>2017-11-26T07:58:06.410Z</time>
</trkpt>
<trkpt lat="22.2481400" lon="114.2138599">
<ele>46.783</ele>
<time>2017-11-26T07:58:12.176Z</time>
</trkpt>
<trkpt lat="22.2481965" lon="114.2139463">
<ele>46.802</ele>
<time>2017-11-26T07:58:19.108Z</time>
</trkpt>
<trkpt lat="22.2482556" lon="114.2140264">
<ele>46.579</ele>
<time>2017-11-26T07:58:26.996Z</time>
</trkpt>
<trkpt lat="22.2482556" lon="114.2140264">
<ele>46.367</ele>
<time>2017-11-26T07:58:34.995Z</time>
</trkpt>
<trkpt lat="22.2482556" lon="114.2140264">
<ele>46.349</ele>
<time>2017-11-26T07:58:35.022Z</time>
</trkpt>
<trkpt lat="22.2483564" lon="114.2141313">
<ele>46.438</ele>
<time>2017-11-26T07:58:50.566Z</time>
</trkpt>
<trkpt lat="22.2483796" lon="114.2142291">
<ele>46.773</ele>
<time>2017-11-26T07:58:57.064Z</time>
</trkpt>
<trkpt lat="22.2483866" lon="114.2143355">
<ele>47.489</ele>
<time>2017-11-26T07:59:03.424Z</time>
</trkpt>
<trkpt lat="22.2483917" lon="114.2144400">
<ele>48.160</ele>
<time>2017-11-26T07:59:08.995Z</time>
</trkpt>
<trkpt lat="22.2483917" lon="114.2144400">
<ele>48.385</ele>
<time>2017-11-26T07:59:13.994Z</time>
</trkpt>
<trkpt lat="22.2483917" lon="114.2144400">
<ele>48.310</ele>
<time>2017-11-26T08:00:00.993Z</time>
</trkpt>
<trkpt lat="22.2483917" lon="114.2144400">
<ele>48.200</ele>
<time>2017-11-26T08:00:59.219Z</time>
</trkpt>
<trkpt lat="22.2484157" lon="114.2143440">
<ele>48.211</ele>
<time>2017-11-26T08:01:41.991Z</time>
</trkpt>
<trkpt lat="22.2484157" lon="114.2143440">
<ele>48.244</ele>
<time>2017-11-26T08:01:45.991Z</time>
</trkpt>
<trkpt lat="22.2484157" lon="114.2143440">
<ele>48.250</ele>
<time>2017-11-26T08:01:46.091Z</time>
</trkpt>
<trkpt lat="22.2483932" lon="114.2142361">
<ele>48.228</ele>
<time>2017-11-26T08:01:58.780Z</time>
</trkpt>
<trkpt lat="22.2483821" lon="114.2141303">
<ele>48.306</ele>
<time>2017-11-26T08:02:07.354Z</time>
</trkpt>
<trkpt lat="22.2482971" lon="114.2140824">
<ele>48.576</ele>
<time>2017-11-26T08:02:15.731Z</time>
</trkpt>
<trkpt lat="22.2482059" lon="114.2141325">
<ele>48.878</ele>
<time>2017-11-26T08:02:23.976Z</time>
</trkpt>
<trkpt lat="22.2481141" lon="114.2141699">
<ele>49.253</ele>
<time>2017-11-26T08:02:32.593Z</time>
</trkpt>
<trkpt lat="22.2480212" lon="114.2141903">
<ele>49.943</ele>
<time>2017-11-26T08:02:42.776Z</time>
</trkpt>
<trkpt lat="22.2479245" lon="114.2142051">
<ele>50.815</ele>
<time>2017-11-26T08:02:53.921Z</time>
</trkpt>
<trkpt lat="22.2478283" lon="114.2142435">
<ele>51.499</ele>
<time>2017-11-26T08:03:03.522Z</time>
</trkpt>
<trkpt lat="22.2477332" lon="114.2142523">
<ele>51.803</ele>
<time>2017-11-26T08:03:11.283Z</time>
</trkpt>
<trkpt lat="22.2476355" lon="114.2142828">
<ele>51.767</ele>
<time>2017-11-26T08:03:19.078Z</time>
</trkpt>
<trkpt lat="22.2475449" lon="114.2143258">
<ele>51.395</ele>
<time>2017-11-26T08:03:26.380Z</time>
</trkpt>
<trkpt lat="22.2474553" lon="114.2143759">
<ele>50.629</ele>
<time>2017-11-26T08:03:34.024Z</time>
</trkpt>
<trkpt lat="22.2473585" lon="114.2144121">
<ele>49.753</ele>
<time>2017-11-26T08:03:42.007Z</time>
</trkpt>
<trkpt lat="22.2472663" lon="114.2144683">
<ele>49.240</ele>
<time>2017-11-26T08:03:50.863Z</time>
</trkpt>
<trkpt lat="22.2471784" lon="114.2145200">
<ele>49.243</ele>
<time>2017-11-26T08:03:59.930Z</time>
</trkpt>
<trkpt lat="22.2470835" lon="114.2145387">
<ele>49.729</ele>
<time>2017-11-26T08:04:08.715Z</time>
</trkpt>
<trkpt lat="22.2469935" lon="114.2145645">
<ele>50.592</ele>
<time>2017-11-26T08:04:16.517Z</time>
</trkpt>
<trkpt lat="22.2469135" lon="114.2146221">
<ele>51.551</ele>
<time>2017-11-26T08:04:23.951Z</time>
</trkpt>
<trkpt lat="22.2468379" lon="114.2146884">
<ele>52.273</ele>
<time>2017-11-26T08:04:31.630Z</time>
</trkpt>
<trkpt lat="22.2467658" lon="114.2147532">
<ele>52.542</ele>
<time>2017-11-26T08:04:39.538Z</time>
</trkpt>
<trkpt lat="22.2466831" lon="114.2147925">
<ele>52.334</ele>
<time>2017-11-26T08:04:47.422Z</time>
</trkpt>
<trkpt lat="22.2465905" lon="114.2148394">
<ele>51.909</ele>
<time>2017-11-26T08:04:56.100Z</time>
</trkpt>
<trkpt lat="22.2465169" lon="114.2148953">
<ele>51.700</ele>
<time>2017-11-26T08:05:03.285Z</time>
</trkpt>
<trkpt lat="22.2464479" lon="114.2149664">
<ele>51.872</ele>
<time>2017-11-26T08:05:10.750Z</time>
</trkpt>
<trkpt lat="22.2463662" lon="114.2150179">
<ele>52.148</ele>
<time>2017-11-26T08:05:18.032Z</time>
</trkpt>
<trkpt lat="22.2462680" lon="114.2150558">
<ele>52.253</ele>
<time>2017-11-26T08:05:25.784Z</time>
</trkpt>
<trkpt lat="22.2461782" lon="114.2151120">
<ele>52.215</ele>
<time>2017-11-26T08:05:32.922Z</time>
</trkpt>
<trkpt lat="22.2460813" lon="114.2151215">
<ele>52.154</ele>
<time>2017-11-26T08:05:39.282Z</time>
</trkpt>
<trkpt lat="22.2459882" lon="114.2151391">
<ele>52.254</ele>
<time>2017-11-26T08:05:46.592Z</time>
</trkpt>
<trkpt lat="22.2459376" lon="114.2152203">
<ele>52.586</ele>
<time>2017-11-26T08:05:54.850Z</time>
</trkpt>
<trkpt lat="22.2458396" lon="114.2152360">
<ele>52.784</ele>
<time>2017-11-26T08:06:03.917Z</time>
</trkpt>
<trkpt lat="22.2457663" lon="114.2153018">
<ele>52.560</ele>
<time>2017-11-26T08:06:11.003Z</time>
</trkpt>
<trkpt lat="22.2457014" lon="114.2153746">
<ele>52.309</ele>
<time>2017-11-26T08:06:18.355Z</time>
</trkpt>
<trkpt lat="22.2456467" lon="114.2154549">
<ele>52.439</ele>
<time>2017-11-26T08:06:26.240Z</time>
</trkpt>
<trkpt lat="22.2456439" lon="114.2155535">
<ele>52.779</ele>
<time>2017-11-26T08:06:34.610Z</time>
</trkpt>
<trkpt lat="22.2455827" lon="114.2156397">
<ele>52.808</ele>
<time>2017-11-26T08:06:43.642Z</time>
</trkpt>
<trkpt lat="22.2455380" lon="114.2157372">
<ele>52.336</ele>
<time>2017-11-26T08:06:52.207Z</time>
</trkpt>
<trkpt lat="22.2454608" lon="114.2157978">
<ele>51.769</ele>
<time>2017-11-26T08:07:00.180Z</time>
</trkpt>
<trkpt lat="22.2453716" lon="114.2158534">
<ele>51.505</ele>
<time>2017-11-26T08:07:08.135Z</time>
</trkpt>
<trkpt lat="22.2452943" lon="114.2159217">
<ele>51.613</ele>
<time>2017-11-26T08:07:15.299Z</time>
</trkpt>
<trkpt lat="22.2452276" lon="114.2160079">
<ele>52.139</ele>
<time>2017-11-26T08:07:22.583Z</time>
</trkpt>
<trkpt lat="22.2451342" lon="114.2160573">
<ele>52.911</ele>
<time>2017-11-26T08:07:29.468Z</time>
</trkpt>
<trkpt lat="22.2450473" lon="114.2161120">
<ele>53.609</ele>
<time>2017-11-26T08:07:36.407Z</time>
</trkpt>
<trkpt lat="22.2449548" lon="114.2161391">
<ele>54.084</ele>
<time>2017-11-26T08:07:43.503Z</time>
</trkpt>
<trkpt lat="22.2448650" lon="114.2161765">
<ele>54.319</ele>
<time>2017-11-26T08:07:51.185Z</time>
</trkpt>
<trkpt lat="22.2447864" lon="114.2162400">
<ele>54.360</ele>
<time>2017-11-26T08:07:59.392Z</time>
</trkpt>
<trkpt lat="22.2447148" lon="114.2163099">
<ele>54.335</ele>
<time>2017-11-26T08:08:07.495Z</time>
</trkpt>
<trkpt lat="22.2446457" lon="114.2163881">
<ele>54.324</ele>
<time>2017-11-26T08:08:15.251Z</time>
</trkpt>
<trkpt lat="22.2445941" lon="114.2164817">
<ele>54.259</ele>
<time>2017-11-26T08:08:22.307Z</time>
</trkpt>
<trkpt lat="22.2445537" lon="114.2165745">
<ele>54.026</ele>
<time>2017-11-26T08:08:29.345Z</time>
</trkpt>
<trkpt lat="22.2445061" lon="114.2166623">
<ele>53.577</ele>
<time>2017-11-26T08:08:37.361Z</time>
</trkpt>
<trkpt lat="22.2444338" lon="114.2167235">
<ele>52.785</ele>
<time>2017-11-26T08:08:45.531Z</time>
</trkpt>
<trkpt lat="22.2443449" lon="114.2167677">
<ele>51.710</ele>
<time>2017-11-26T08:08:53.337Z</time>
</trkpt>
<trkpt lat="22.2442520" lon="114.2167864">
<ele>50.813</ele>
<time>2017-11-26T08:09:00.801Z</time>
</trkpt>
<trkpt lat="22.2441598" lon="114.2167804">
<ele>50.531</ele>
<time>2017-11-26T08:09:08.327Z</time>
</trkpt>
<trkpt lat="22.2440622" lon="114.2167959">
<ele>50.911</ele>
<time>2017-11-26T08:09:15.708Z</time>
</trkpt>
<trkpt lat="22.2439727" lon="114.2168133">
<ele>51.645</ele>
<time>2017-11-26T08:09:22.010Z</time>
</trkpt>
<trkpt lat="22.2438722" lon="114.2168173">
<ele>52.291</ele>
<time>2017-11-26T08:09:29.016Z</time>
</trkpt>
<trkpt lat="22.2437767" lon="114.2168086">
<ele>52.679</ele>
<time>2017-11-26T08:09:35.967Z</time>
</trkpt>
<trkpt lat="22.2437034" lon="114.2168696">
<ele>52.893</ele>
<time>2017-11-26T08:09:42.939Z</time>
</trkpt>
<trkpt lat="22.2436824" lon="114.2169718">
<ele>52.977</ele>
<time>2017-11-26T08:09:49.814Z</time>
</trkpt>
<trkpt lat="22.2436580" lon="114.2170713">
<ele>52.904</ele>
<time>2017-11-26T08:09:55.994Z</time>
</trkpt>
<trkpt lat="22.2436254" lon="114.2171621">
<ele>52.742</ele>
<time>2017-11-26T08:10:02.368Z</time>
</trkpt>
<trkpt lat="22.2436169" lon="114.2172607">
<ele>52.548</ele>
<time>2017-11-26T08:10:09.932Z</time>
</trkpt>
<trkpt lat="22.2435775" lon="114.2173517">
<ele>52.242</ele>
<time>2017-11-26T08:10:19.258Z</time>
</trkpt>
<trkpt lat="22.2435675" lon="114.2174613">
<ele>51.777</ele>
<time>2017-11-26T08:10:29.066Z</time>
</trkpt>
<trkpt lat="22.2435370" lon="114.2175629">
<ele>51.198</ele>
<time>2017-11-26T08:10:38.007Z</time>
</trkpt>
<trkpt lat="22.2435191" lon="114.2176582">
<ele>50.557</ele>
<time>2017-11-26T08:10:45.245Z</time>
</trkpt>
<trkpt lat="22.2434438" lon="114.2177232">
<ele>50.010</ele>
<time>2017-11-26T08:10:51.911Z</time>
</trkpt>
<trkpt lat="22.2433588" lon="114.2177701">
<ele>49.737</ele>
<time>2017-11-26T08:10:58.645Z</time>
</trkpt>
<trkpt lat="22.2432794" lon="114.2178317">
<ele>49.933</ele>
<time>2017-11-26T08:11:06.320Z</time>
</trkpt>
<trkpt lat="22.2431911" lon="114.2178738">
<ele>50.586</ele>
<time>2017-11-26T08:11:14.942Z</time>
</trkpt>
<trkpt lat="22.2431106" lon="114.2179224">
<ele>51.197</ele>
<time>2017-11-26T08:11:22.702Z</time>
</trkpt>
<trkpt lat="22.2430393" lon="114.2179832">
<ele>51.378</ele>
<time>2017-11-26T08:11:29.997Z</time>
</trkpt>
<trkpt lat="22.2429479" lon="114.2180256">
<ele>51.290</ele>
<time>2017-11-26T08:11:38.093Z</time>
</trkpt>
<trkpt lat="22.2428531" lon="114.2180527">
<ele>51.063</ele>
<time>2017-11-26T08:11:45.976Z</time>
</trkpt>
<trkpt lat="22.2427625" lon="114.2180853">
<ele>50.716</ele>
<time>2017-11-26T08:11:53.335Z</time>
</trkpt>
<trkpt lat="22.2426703" lon="114.2181363">
<ele>50.432</ele>
<time>2017-11-26T08:12:01.279Z</time>
</trkpt>
<trkpt lat="22.2425722" lon="114.2181577">
<ele>50.357</ele>
<time>2017-11-26T08:12:09.405Z</time>
</trkpt>
<trkpt lat="22.2424832" lon="114.2181733">
<ele>50.253</ele>
<time>2017-11-26T08:12:17.158Z</time>
</trkpt>
<trkpt lat="22.2423814" lon="114.2181752">
<ele>49.706</ele>
<time>2017-11-26T08:12:25.766Z</time>
</trkpt>
<trkpt lat="22.2423022" lon="114.2181289">
<ele>48.781</ele>
<time>2017-11-26T08:12:33.311Z</time>
</trkpt>
<trkpt lat="22.2422236" lon="114.2180663">
<ele>47.896</ele>
<time>2017-11-26T08:12:41.481Z</time>
</trkpt>
<trkpt lat="22.2421577" lon="114.2179980">
<ele>47.112</ele>
<time>2017-11-26T08:12:49.714Z</time>
</trkpt>
<trkpt lat="22.2421150" lon="114.2179038">
<ele>46.388</ele>
<time>2017-11-26T08:12:59.988Z</time>
</trkpt>
<trkpt lat="22.2421150" lon="114.2179038">
<ele>45.978</ele>
<time>2017-11-26T08:13:04.988Z</time>
</trkpt>
<trkpt lat="22.2421150" lon="114.2179038">
<ele>45.963</ele>
<time>2017-11-26T08:13:05.088Z</time>
</trkpt>
<trkpt lat="22.2421150" lon="114.2179038">
<ele>46.070</ele>
<time>2017-11-26T08:13:17.988Z</time>
</trkpt>
<trkpt lat="22.2421150" lon="114.2179038">
<ele>46.005</ele>
<time>2017-11-26T08:13:18.088Z</time>
</trkpt>
<trkpt lat="22.2421150" lon="114.2179038">
<ele>45.993</ele>
<time>2017-11-26T08:13:21.988Z</time>
</trkpt>
<trkpt lat="22.2421150" lon="114.2179038">
<ele>45.998</ele>
<time>2017-11-26T08:13:26.988Z</time>
</trkpt>
<trkpt lat="22.2421150" lon="114.2179038">
<ele>45.979</ele>
<time>2017-11-26T08:13:40.987Z</time>
</trkpt>
<trkpt lat="22.2421150" lon="114.2179038">
<ele>45.953</ele>
<time>2017-11-26T08:28:26.319Z</time>
</trkpt>
<trkpt lat="22.2419314" lon="114.2177977">
<ele>45.939</ele>
<time>2017-11-26T08:28:57.211Z</time>
</trkpt>
<trkpt lat="22.2418564" lon="114.2177361">
<ele>46.195</ele>
<time>2017-11-26T08:29:05.047Z</time>
</trkpt>
<trkpt lat="22.2417699" lon="114.2176797">
<ele>46.952</ele>
<time>2017-11-26T08:29:12.341Z</time>
</trkpt>
<trkpt lat="22.2416692" lon="114.2176799">
<ele>47.862</ele>
<time>2017-11-26T08:29:19.039Z</time>
</trkpt>
<trkpt lat="22.2415772" lon="114.2177126">
<ele>48.361</ele>
<time>2017-11-26T08:29:25.732Z</time>
</trkpt>
<trkpt lat="22.2415025" lon="114.2177770">
<ele>48.377</ele>
<time>2017-11-26T08:29:33.194Z</time>
</trkpt>
<trkpt lat="22.2414560" lon="114.2178747">
<ele>47.922</ele>
<time>2017-11-26T08:29:41.892Z</time>
</trkpt>
<trkpt lat="22.2414081" lon="114.2179628">
<ele>46.840</ele>
<time>2017-11-26T08:29:49.139Z</time>
</trkpt>
<trkpt lat="22.2413341" lon="114.2180342">
<ele>45.366</ele>
<time>2017-11-26T08:29:55.690Z</time>
</trkpt>
<trkpt lat="22.2412596" lon="114.2181026">
<ele>44.164</ele>
<time>2017-11-26T08:30:01.977Z</time>
</trkpt>
<trkpt lat="22.2412596" lon="114.2181026">
<ele>43.641</ele>
<time>2017-11-26T08:30:06.977Z</time>
</trkpt>
<trkpt lat="22.2412596" lon="114.2181026">
<ele>43.690</ele>
<time>2017-11-26T08:30:07.077Z</time>
</trkpt>
<trkpt lat="22.2412241" lon="114.2182264">
<ele>43.929</ele>
<time>2017-11-26T08:30:21.031Z</time>
</trkpt>
<trkpt lat="22.2412298" lon="114.2183280">
<ele>44.508</ele>
<time>2017-11-26T08:30:28.485Z</time>
</trkpt>
<trkpt lat="22.2412831" lon="114.2184212">
<ele>45.642</ele>
<time>2017-11-26T08:30:36.139Z</time>
</trkpt>
<trkpt lat="22.2413252" lon="114.2185140">
<ele>46.728</ele>
<time>2017-11-26T08:30:43.214Z</time>
</trkpt>
<trkpt lat="22.2413086" lon="114.2186115">
<ele>47.197</ele>
<time>2017-11-26T08:30:50.022Z</time>
</trkpt>
<trkpt lat="22.2413206" lon="114.2187245">
<ele>47.246</ele>
<time>2017-11-26T08:30:57.523Z</time>
</trkpt>
<trkpt lat="22.2412935" lon="114.2188291">
<ele>47.344</ele>
<time>2017-11-26T08:31:04.643Z</time>
</trkpt>
<trkpt lat="22.2412717" lon="114.2189259">
<ele>47.891</ele>
<time>2017-11-26T08:31:11.369Z</time>
</trkpt>
<trkpt lat="22.2412651" lon="114.2190329">
<ele>48.918</ele>
<time>2017-11-26T08:31:18.448Z</time>
</trkpt>
<trkpt lat="22.2412015" lon="114.2191060">
<ele>50.027</ele>
<time>2017-11-26T08:31:24.676Z</time>
</trkpt>
<trkpt lat="22.2411235" lon="114.2191601">
<ele>50.756</ele>
<time>2017-11-26T08:31:31.008Z</time>
</trkpt>
<trkpt lat="22.2410564" lon="114.2192291">
<ele>50.988</ele>
<time>2017-11-26T08:31:37.731Z</time>
</trkpt>
<trkpt lat="22.2409701" lon="114.2192903">
<ele>50.883</ele>
<time>2017-11-26T08:31:45.791Z</time>
</trkpt>
<trkpt lat="22.2408955" lon="114.2193573">
<ele>50.545</ele>
<time>2017-11-26T08:31:52.948Z</time>
</trkpt>
<trkpt lat="22.2407953" lon="114.2193879">
<ele>50.085</ele>
<time>2017-11-26T08:31:59.914Z</time>
</trkpt>
<trkpt lat="22.2407556" lon="114.2194851">
<ele>49.690</ele>
<time>2017-11-26T08:32:05.711Z</time>
</trkpt>
<trkpt lat="22.2406766" lon="114.2195522">
<ele>49.485</ele>
<time>2017-11-26T08:32:11.583Z</time>
</trkpt>
<trkpt lat="22.2406170" lon="114.2196299">
<ele>49.622</ele>
<time>2017-11-26T08:32:17.696Z</time>
</trkpt>
<trkpt lat="22.2405608" lon="114.2197111">
<ele>50.178</ele>
<time>2017-11-26T08:32:24.283Z</time>
</trkpt>
<trkpt lat="22.2405609" lon="114.2198095">
<ele>50.856</ele>
<time>2017-11-26T08:32:30.898Z</time>
</trkpt>
<trkpt lat="22.2405478" lon="114.2199126">
<ele>51.242</ele>
<time>2017-11-26T08:32:37.635Z</time>
</trkpt>
<trkpt lat="22.2405283" lon="114.2200208">
<ele>51.276</ele>
<time>2017-11-26T08:32:44.356Z</time>
</trkpt>
<trkpt lat="22.2404364" lon="114.2200754">
<ele>51.158</ele>
<time>2017-11-26T08:32:50.973Z</time>
</trkpt>
<trkpt lat="22.2404364" lon="114.2200754">
<ele>51.068</ele>
<time>2017-11-26T08:32:52.973Z</time>
</trkpt>
<trkpt lat="22.2404364" lon="114.2200754">
<ele>51.038</ele>
<time>2017-11-26T08:32:53.073Z</time>
</trkpt>
<trkpt lat="22.2403697" lon="114.2201942">
<ele>51.027</ele>
<time>2017-11-26T08:33:06.317Z</time>
</trkpt>
<trkpt lat="22.2403240" lon="114.2206794">
<ele>50.909</ele>
<time>2017-11-26T08:33:36.670Z</time>
</trkpt>
<trkpt lat="22.2402616" lon="114.2207699">
<ele>50.441</ele>
<time>2017-11-26T08:33:43.998Z</time>
</trkpt>
<trkpt lat="22.2402014" lon="114.2208433">
<ele>49.583</ele>
<time>2017-11-26T08:33:50.550Z</time>
</trkpt>
<trkpt lat="22.2401771" lon="114.2209534">
<ele>48.931</ele>
<time>2017-11-26T08:33:57.191Z</time>
</trkpt>
<trkpt lat="22.2401238" lon="114.2210425">
<ele>48.885</ele>
<time>2017-11-26T08:34:02.798Z</time>
</trkpt>
<trkpt lat="22.2400746" lon="114.2211376">
<ele>49.040</ele>
<time>2017-11-26T08:34:08.624Z</time>
</trkpt>
<trkpt lat="22.2400478" lon="114.2212373">
<ele>48.843</ele>
<time>2017-11-26T08:34:14.751Z</time>
</trkpt>
<trkpt lat="22.2400437" lon="114.2213355">
<ele>48.296</ele>
<time>2017-11-26T08:34:20.977Z</time>
</trkpt>
<trkpt lat="22.2400437" lon="114.2213355">
<ele>47.841</ele>
<time>2017-11-26T08:34:21.977Z</time>
</trkpt>
<trkpt lat="22.2400437" lon="114.2213355">
<ele>47.721</ele>
<time>2017-11-26T08:34:22.077Z</time>
</trkpt>
<trkpt lat="22.2400691" lon="114.2214538">
<ele>47.840</ele>
<time>2017-11-26T08:34:39.490Z</time>
</trkpt>
<trkpt lat="22.2400398" lon="114.2215546">
<ele>48.020</ele>
<time>2017-11-26T08:34:47.160Z</time>
</trkpt>
<trkpt lat="22.2399771" lon="114.2216353">
<ele>48.139</ele>
<time>2017-11-26T08:34:54.484Z</time>
</trkpt>
<trkpt lat="22.2398839" lon="114.2216749">
<ele>48.168</ele>
<time>2017-11-26T08:35:02.277Z</time>
</trkpt>
<trkpt lat="22.2397947" lon="114.2216131">
<ele>48.049</ele>
<time>2017-11-26T08:35:09.928Z</time>
</trkpt>
<trkpt lat="22.2397082" lon="114.2216787">
<ele>47.732</ele>
<time>2017-11-26T08:35:17.508Z</time>
</trkpt>
<trkpt lat="22.2396141" lon="114.2217175">
<ele>47.281</ele>
<time>2017-11-26T08:35:24.860Z</time>
</trkpt>
<trkpt lat="22.2395325" lon="114.2217704">
<ele>46.720</ele>
<time>2017-11-26T08:35:31.509Z</time>
</trkpt>
<trkpt lat="22.2394470" lon="114.2217056">
<ele>45.964</ele>
<time>2017-11-26T08:35:38.498Z</time>
</trkpt>
<trkpt lat="22.2393521" lon="114.2217185">
<ele>45.121</ele>
<time>2017-11-26T08:35:45.145Z</time>
</trkpt>
<trkpt lat="22.2392735" lon="114.2217736">
<ele>44.488</ele>
<time>2017-11-26T08:35:51.627Z</time>
</trkpt>
<trkpt lat="22.2392075" lon="114.2218487">
<ele>44.140</ele>
<time>2017-11-26T08:35:58.051Z</time>
</trkpt>
<trkpt lat="22.2391463" lon="114.2219284">
<ele>43.648</ele>
<time>2017-11-26T08:36:04.250Z</time>
</trkpt>
<trkpt lat="22.2390679" lon="114.2219784">
<ele>42.617</ele>
<time>2017-11-26T08:36:09.668Z</time>
</trkpt>
<trkpt lat="22.2389955" lon="114.2220527">
<ele>41.367</ele>
<time>2017-11-26T08:36:15.470Z</time>
</trkpt>
<trkpt lat="22.2389446" lon="114.2221398">
<ele>40.338</ele>
<time>2017-11-26T08:36:21.292Z</time>
</trkpt>
<trkpt lat="22.2389422" lon="114.2222462">
<ele>39.506</ele>
<time>2017-11-26T08:36:27.924Z</time>
</trkpt>
<trkpt lat="22.2389280" lon="114.2223488">
<ele>38.800</ele>
<time>2017-11-26T08:36:34.735Z</time>
</trkpt>
<trkpt lat="22.2389176" lon="114.2224477">
<ele>38.094</ele>
<time>2017-11-26T08:36:40.783Z</time>
</trkpt>
<trkpt lat="22.2389049" lon="114.2225492">
<ele>37.325</ele>
<time>2017-11-26T08:36:46.667Z</time>
</trkpt>
<trkpt lat="22.2388949" lon="114.2226650">
<ele>36.480</ele>
<time>2017-11-26T08:36:53.362Z</time>
</trkpt>
<trkpt lat="22.2388782" lon="114.2227800">
<ele>35.514</ele>
<time>2017-11-26T08:36:59.408Z</time>
</trkpt>
<trkpt lat="22.2388232" lon="114.2228664">
<ele>34.648</ele>
<time>2017-11-26T08:37:04.500Z</time>
</trkpt>
<trkpt lat="22.2388912" lon="114.2229590">
<ele>33.947</ele>
<time>2017-11-26T08:37:10.648Z</time>
</trkpt>
<trkpt lat="22.2389779" lon="114.2229906">
<ele>33.161</ele>
<time>2017-11-26T08:37:15.994Z</time>
</trkpt>
<trkpt lat="22.2390627" lon="114.2230558">
<ele>32.291</ele>
<time>2017-11-26T08:37:21.366Z</time>
</trkpt>
<trkpt lat="22.2391517" lon="114.2230899">
<ele>31.499</ele>
<time>2017-11-26T08:37:25.973Z</time>
</trkpt>
<trkpt lat="22.2391517" lon="114.2230899">
<ele>30.939</ele>
<time>2017-11-26T08:37:30.973Z</time>
</trkpt>
<trkpt lat="22.2391517" lon="114.2230899">
<ele>30.705</ele>
<time>2017-11-26T08:37:38.220Z</time>
</trkpt>
<trkpt lat="22.2391817" lon="114.2231833">
<ele>30.725</ele>
<time>2017-11-26T08:37:49.532Z</time>
</trkpt>
<trkpt lat="22.2392129" lon="114.2232791">
<ele>30.029</ele>
<time>2017-11-26T08:37:54.972Z</time>
</trkpt>
<trkpt lat="22.2392129" lon="114.2232791">
<ele>28.024</ele>
<time>2017-11-26T08:38:01.972Z</time>
</trkpt>
<trkpt lat="22.2392129" lon="114.2232791">
<ele>26.313</ele>
<time>2017-11-26T08:38:02.072Z</time>
</trkpt>
<trkpt lat="22.2392497" lon="114.2234169">
<ele>26.326</ele>
<time>2017-11-26T08:38:10.972Z</time>
</trkpt>
<trkpt lat="22.2392497" lon="114.2234169">
<ele>26.983</ele>
<time>2017-11-26T08:38:20.971Z</time>
</trkpt>
<trkpt lat="22.2392497" lon="114.2234169">
<ele>27.039</ele>
<time>2017-11-26T08:38:28.883Z</time>
</trkpt>
<trkpt lat="22.2392525" lon="114.2233181">
<ele>26.684</ele>
<time>2017-11-26T08:38:43.971Z</time>
</trkpt>
<trkpt lat="22.2392525" lon="114.2233181">
<ele>26.767</ele>
<time>2017-11-26T08:38:44.971Z</time>
</trkpt>
<trkpt lat="22.2392525" lon="114.2233181">
<ele>26.772</ele>
<time>2017-11-26T08:38:47.196Z</time>
</trkpt>
<trkpt lat="22.2392374" lon="114.2234231">
<ele>26.704</ele>
<time>2017-11-26T08:39:02.490Z</time>
</trkpt>
<trkpt lat="22.2392250" lon="114.2235278">
<ele>26.100</ele>
<time>2017-11-26T08:39:07.970Z</time>
</trkpt>
<trkpt lat="22.2392250" lon="114.2235278">
<ele>24.508</ele>
<time>2017-11-26T08:39:10.970Z</time>
</trkpt>
<trkpt lat="22.2392250" lon="114.2235278">
<ele>23.172</ele>
<time>2017-11-26T08:39:45.855Z</time>
</trkpt>
<trkpt lat="22.2393143" lon="114.2235139">
<ele>23.184</ele>
<time>2017-11-26T08:39:54.969Z</time>
</trkpt>
<trkpt lat="22.2393143" lon="114.2235139">
<ele>23.695</ele>
<time>2017-11-26T08:40:00.969Z</time>
</trkpt>
<trkpt lat="22.2393143" lon="114.2235139">
<ele>23.737</ele>
<time>2017-11-26T08:41:04.630Z</time>
</trkpt>
<trkpt lat="22.2392597" lon="114.2234160">
<ele>23.440</ele>
<time>2017-11-26T08:41:17.634Z</time>
</trkpt>
<trkpt lat="22.2392107" lon="114.2233273">
<ele>22.563</ele>
<time>2017-11-26T08:41:24.973Z</time>
</trkpt>
<trkpt lat="22.2392107" lon="114.2233273">
<ele>20.800</ele>
<time>2017-11-26T08:41:31.973Z</time>
</trkpt>
<trkpt lat="22.2392107" lon="114.2233273">
<ele>19.395</ele>
<time>2017-11-26T08:41:37.790Z</time>
</trkpt>
<trkpt lat="22.2393118" lon="114.2233530">
<ele>20.149</ele>
<time>2017-11-26T08:41:54.857Z</time>
</trkpt>
<trkpt lat="22.2393118" lon="114.2233530">
<ele>20.149</ele>
<time>2017-11-26T08:41:54.857Z</time>
</trkpt>
<trkpt lat="22.2394654" lon="114.2231889">
<ele>17.921</ele>
<time>2017-11-26T08:42:18.972Z</time>
</trkpt>
<trkpt lat="22.2394654" lon="114.2231889">
<ele>17.912</ele>
<time>2017-11-26T08:42:23.972Z</time>
</trkpt>
<trkpt lat="22.2394654" lon="114.2231889">
<ele>17.908</ele>
<time>2017-11-26T08:42:24.072Z</time>
</trkpt>
<trkpt lat="22.2393629" lon="114.2232066">
<ele>17.897</ele>
<time>2017-11-26T08:42:26.972Z</time>
</trkpt>
<trkpt lat="22.2393629" lon="114.2232066">
<ele>17.956</ele>
<time>2017-11-26T08:42:26.973Z</time>
</trkpt>
<trkpt lat="22.2393629" lon="114.2232066">
<ele>18.119</ele>
<time>2017-11-26T08:42:36.393Z</time>
</trkpt>
<trkpt lat="22.2393629" lon="114.2232066">
<ele>18.162</ele>
<time>2017-11-26T08:42:51.971Z</time>
</trkpt>
<trkpt lat="22.2393629" lon="114.2232066">
<ele>18.050</ele>
<time>2017-11-26T08:43:02.976Z</time>
</trkpt>
<trkpt lat="22.2393747" lon="114.2233071">
<ele>18.090</ele>
<time>2017-11-26T08:43:16.971Z</time>
</trkpt>
<trkpt lat="22.2393747" lon="114.2233071">
<ele>18.132</ele>
<time>2017-11-26T08:43:28.970Z</time>
</trkpt>
<trkpt lat="22.2393747" lon="114.2233071">
<ele>18.145</ele>
<time>2017-11-26T08:43:29.070Z</time>
</trkpt>
<trkpt lat="22.2393747" lon="114.2233071">
<ele>18.119</ele>
<time>2017-11-26T08:43:36.970Z</time>
</trkpt>
<trkpt lat="22.2393747" lon="114.2233071">
<ele>18.110</ele>
<time>2017-11-26T08:43:37.070Z</time>
</trkpt>
<trkpt lat="22.2394660" lon="114.2233092">
<ele>18.103</ele>
<time>2017-11-26T08:44:00.970Z</time>
</trkpt>
<trkpt lat="22.2394660" lon="114.2233092">
<ele>18.097</ele>
<time>2017-11-26T08:44:02.970Z</time>
</trkpt>
<trkpt lat="22.2394660" lon="114.2233092">
<ele>18.089</ele>
<time>2017-11-26T08:44:03.070Z</time>
</trkpt>
<trkpt lat="22.2395337" lon="114.2233814">
<ele>18.076</ele>
<time>2017-11-26T08:46:19.966Z</time>
</trkpt>
<trkpt lat="22.2395337" lon="114.2233814">
<ele>18.072</ele>
<time>2017-11-26T08:46:21.966Z</time>
</trkpt>
<trkpt lat="22.2395337" lon="114.2233814">
<ele>18.064</ele>
<time>2017-11-26T08:46:27.225Z</time>
</trkpt>
<trkpt lat="22.2395337" lon="114.2233814">
<ele>18.051</ele>
<time>2017-11-26T08:46:36.966Z</time>
</trkpt>
<trkpt lat="22.2395337" lon="114.2233814">
<ele>18.047</ele>
<time>2017-11-26T08:47:02.293Z</time>
</trkpt>
<trkpt lat="22.2394376" lon="114.2233826">
<ele>18.041</ele>
<time>2017-11-26T08:47:42.971Z</time>
</trkpt>
<trkpt lat="22.2394376" lon="114.2233826">
<ele>18.033</ele>
<time>2017-11-26T08:47:47.971Z</time>
</trkpt>
<trkpt lat="22.2394376" lon="114.2233826">
<ele>18.024</ele>
<time>2017-11-26T08:47:48.804Z</time>
</trkpt>
<trkpt lat="22.2395575" lon="114.2233841">
<ele>18.016</ele>
<time>2017-11-26T08:48:03.970Z</time>
</trkpt>
<trkpt lat="22.2395575" lon="114.2233841">
<ele>18.010</ele>
<time>2017-11-26T08:48:13.970Z</time>
</trkpt>
<trkpt lat="22.2395575" lon="114.2233841">
<ele>18.002</ele>
<time>2017-11-26T08:49:23.588Z</time>
</trkpt>
<trkpt lat="22.2396473" lon="114.2234068">
<ele>17.989</ele>
<time>2017-11-26T08:49:31.968Z</time>
</trkpt>
<trkpt lat="22.2396473" lon="114.2234068">
<ele>17.985</ele>
<time>2017-11-26T08:49:31.968Z</time>
</trkpt>
<trkpt lat="22.2396473" lon="114.2234068">
<ele>17.977</ele>
<time>2017-11-26T08:51:35.837Z</time>
</trkpt>
<trkpt lat="22.2395272" lon="114.2233607">
<ele>17.968</ele>
<time>2017-11-26T08:51:53.965Z</time>
</trkpt>
<trkpt lat="22.2395272" lon="114.2233607">
<ele>17.961</ele>
<time>2017-11-26T08:51:58.964Z</time>
</trkpt>
<trkpt lat="22.2395272" lon="114.2233607">
<ele>17.953</ele>
<time>2017-11-26T09:00:03.510Z</time>
</trkpt>
<trkpt lat="22.2394406" lon="114.2233978">
<ele>17.940</ele>
<time>2017-11-26T09:00:30.057Z</time>
</trkpt>
<trkpt lat="22.2393578" lon="114.2234979">
<ele>17.769</ele>
<time>2017-11-26T09:00:47.324Z</time>
</trkpt>
<trkpt lat="22.2392589" lon="114.2235920">
<ele>17.013</ele>
<time>2017-11-26T09:00:50.899Z</time>
</trkpt>
<trkpt lat="22.2391754" lon="114.2236532">
<ele>17.196</ele>
<time>2017-11-26T09:00:52.958Z</time>
</trkpt>
<trkpt lat="22.2391754" lon="114.2236532">
<ele>17.611</ele>
<time>2017-11-26T09:00:57.958Z</time>
</trkpt>
<trkpt lat="22.2391754" lon="114.2236532">
<ele>17.849</ele>
<time>2017-11-26T09:03:32.960Z</time>
</trkpt>
<trkpt lat="22.2391754" lon="114.2236532">
<ele>17.825</ele>
<time>2017-11-26T09:03:33.060Z</time>
</trkpt>
<trkpt lat="22.2391235" lon="114.2235366">
<ele>17.694</ele>
<time>2017-11-26T09:04:33.959Z</time>
</trkpt>
<trkpt lat="22.2391235" lon="114.2235366">
<ele>17.613</ele>
<time>2017-11-26T09:04:37.959Z</time>
</trkpt>
<trkpt lat="22.2391235" lon="114.2235366">
<ele>17.599</ele>
<time>2017-11-26T09:04:38.059Z</time>
</trkpt>
<trkpt lat="22.2392153" lon="114.2235707">
<ele>17.599</ele>
<time>2017-11-26T09:04:56.955Z</time>
</trkpt>
<trkpt lat="22.2393084" lon="114.2235554">
<ele>15.525</ele>
<time>2017-11-26T09:05:06.440Z</time>
</trkpt>
<trkpt lat="22.2393670" lon="114.2234783">
<ele>10.134</ele>
<time>2017-11-26T09:05:18.009Z</time>
</trkpt>
<trkpt lat="22.2393706" lon="114.2233761">
<ele>5.688</ele>
<time>2017-11-26T09:05:30.958Z</time>
</trkpt>
<trkpt lat="22.2393706" lon="114.2233761">
<ele>5.894</ele>
<time>2017-11-26T09:05:44.957Z</time>
</trkpt>
<trkpt lat="22.2393706" lon="114.2233761">
<ele>7.765</ele>
<time>2017-11-26T09:05:54.957Z</time>
</trkpt>
<trkpt lat="22.2393706" lon="114.2233761">
<ele>7.934</ele>
<time>2017-11-26T09:06:09.837Z</time>
</trkpt>
<trkpt lat="22.2394779" lon="114.2233615">
<ele>7.150</ele>
<time>2017-11-26T09:06:52.956Z</time>
</trkpt>
<trkpt lat="22.2394779" lon="114.2233615">
<ele>6.991</ele>
<time>2017-11-26T09:06:57.955Z</time>
</trkpt>
<trkpt lat="22.2394779" lon="114.2233615">
<ele>7.269</ele>
<time>2017-11-26T09:07:37.933Z</time>
</trkpt>
<trkpt lat="22.2394117" lon="114.2232915">
<ele>7.195</ele>
<time>2017-11-26T09:07:49.334Z</time>
</trkpt>
<trkpt lat="22.2393046" lon="114.2232777">
<ele>8.105</ele>
<time>2017-11-26T09:07:54.954Z</time>
</trkpt>
<trkpt lat="22.2393046" lon="114.2232777">
<ele>10.805</ele>
<time>2017-11-26T09:07:57.954Z</time>
</trkpt>
<trkpt lat="22.2393046" lon="114.2232777">
<ele>13.102</ele>
<time>2017-11-26T09:08:43.953Z</time>
</trkpt>
<trkpt lat="22.2393046" lon="114.2232777">
<ele>13.064</ele>
<time>2017-11-26T09:09:48.375Z</time>
</trkpt>
<trkpt lat="22.2392224" lon="114.2233335">
<ele>12.160</ele>
<time>2017-11-26T09:10:06.591Z</time>
</trkpt>
<trkpt lat="22.2392444" lon="114.2234282">
<ele>12.482</ele>
<time>2017-11-26T09:10:14.573Z</time>
</trkpt>
<trkpt lat="22.2392323" lon="114.2235256">
<ele>14.084</ele>
<time>2017-11-26T09:10:20.957Z</time>
</trkpt>
<trkpt lat="22.2392323" lon="114.2235256">
<ele>15.632</ele>
<time>2017-11-26T09:10:25.957Z</time>
</trkpt>
<trkpt lat="22.2392323" lon="114.2235256">
<ele>16.254</ele>
<time>2017-11-26T09:10:26.057Z</time>
</trkpt>
<trkpt lat="22.2392997" lon="114.2236609">
<ele>15.930</ele>
<time>2017-11-26T09:10:54.956Z</time>
</trkpt>
<trkpt lat="22.2392997" lon="114.2236609">
<ele>15.273</ele>
<time>2017-11-26T09:11:01.956Z</time>
</trkpt>
<trkpt lat="22.2392997" lon="114.2236609">
<ele>15.004</ele>
<time>2017-11-26T09:13:51.202Z</time>
</trkpt>
<trkpt lat="22.2394022" lon="114.2236375">
<ele>15.202</ele>
<time>2017-11-26T09:13:59.831Z</time>
</trkpt>
<trkpt lat="22.2393309" lon="114.2237269">
<ele>16.760</ele>
<time>2017-11-26T09:14:04.951Z</time>
</trkpt>
<trkpt lat="22.2393309" lon="114.2237269">
<ele>20.214</ele>
<time>2017-11-26T09:14:04.951Z</time>
</trkpt>
<trkpt lat="22.2393309" lon="114.2237269">
<ele>22.959</ele>
<time>2017-11-26T09:14:21.140Z</time>
</trkpt>
<trkpt lat="22.2394189" lon="114.2236822">
<ele>21.430</ele>
<time>2017-11-26T09:14:42.232Z</time>
</trkpt>
<trkpt lat="22.2393171" lon="114.2236775">
<ele>20.498</ele>
<time>2017-11-26T09:15:03.878Z</time>
</trkpt>
<trkpt lat="22.2393171" lon="114.2236775">
<ele>20.498</ele>
<time>2017-11-26T09:15:03.878Z</time>
</trkpt>
<trkpt lat="22.2390655" lon="114.2237843">
<ele>5.632</ele>
<time>2017-11-26T09:15:57.251Z</time>
</trkpt>
<trkpt lat="22.2391344" lon="114.2237171">
<ele>5.629</ele>
<time>2017-11-26T09:16:07.207Z</time>
</trkpt>
<trkpt lat="22.2392283" lon="114.2236728">
<ele>5.628</ele>
<time>2017-11-26T09:16:18.260Z</time>
</trkpt>
<trkpt lat="22.2393192" lon="114.2236615">
<ele>6.557</ele>
<time>2017-11-26T09:16:30.279Z</time>
</trkpt>
<trkpt lat="22.2394112" lon="114.2236801">
<ele>9.262</ele>
<time>2017-11-26T09:16:45.954Z</time>
</trkpt>
<trkpt lat="22.2394112" lon="114.2236801">
<ele>12.490</ele>
<time>2017-11-26T09:16:50.954Z</time>
</trkpt>
<trkpt lat="22.2394112" lon="114.2236801">
<ele>14.164</ele>
<time>2017-11-26T09:18:27.887Z</time>
</trkpt>
<trkpt lat="22.2393177" lon="114.2236871">
<ele>13.147</ele>
<time>2017-11-26T09:18:42.717Z</time>
</trkpt>
<trkpt lat="22.2392216" lon="114.2236850">
<ele>12.605</ele>
<time>2017-11-26T09:18:51.369Z</time>
</trkpt>
<trkpt lat="22.2391519" lon="114.2237474">
<ele>12.678</ele>
<time>2017-11-26T09:18:58.951Z</time>
</trkpt>
<trkpt lat="22.2391519" lon="114.2237474">
<ele>13.052</ele>
<time>2017-11-26T09:19:09.950Z</time>
</trkpt>
</trkseg>
</trk>
<extensions>
<fpdata xmlns="http://www.motionx.com/GPX-Extensions/1/1" sfv="10" origin="MotionXGPSFull 24.4 Build 5112 R64">
<bin enc="base64">
RgIAAAACAAAACOIxj4mG1kEBAAAA7DO8xqGG1kEAAAx3hxXGQBQHAAB/WxYA15nVPVcq
VEDExghvyRoqQAAAAAAJAAAAVlJTIDIwMTcAFgAAAE5vdiAyNiwgMjAxNyAxMDoyNiBh
bQAAAAAARDS8xqGG1kE8u0HKoYbWQbRu4wBX6On2sDJgQCwAAAABAAAAPh0un+GOXEDL
FvAeekI2QNeZ1T1XKlRAAAAAAAAAJEAAAAAAAAAQQAAAAAAAwHxAAAAAAAAAAAAAAAAA
ZmZmZmbicUCKS/UyRDIxQAEAAAAAPlJtrEGuvwEAAAABAAAAAOWzBVihzz8jJ7FBdt6/
vwEAAAABAAAACAAAACD+utTx64NAAAAAAAAAAAAAAAAAAAAAAAAAAAAAAAAAAAAAAAAA
AAAAAAAAAAAAAIVdAABb23zDoYbWQQAAAAAAAAAAAAAAAAAAAAD/JUS8AgAAAAAAAAAA
AAAAAQAAACcAAAAyNC4yIEJ1aWxkIDUwNjNSNjQsIE1YQUUgOC4xIGIuIDYyNlI2NAAA
AAAA6lwAAAEAAAAB2gAAADwmGloUhxpaBMXjMY+JhtZBxeMxj4mG1kEAAAAAAOQdPwAA
AAACJuIxj4mG1kEQsTeViYbWQQAAAKg7FzhAAAAAAAIeHMSaiYbWQc4dt66JhtZBAAAA
mtD4WUAAAAAAA8oV/cSJhtZByhX9xImG1kEAAIDQXlhkQAAAAAAE66iSyImG1kHrqJLI
iYbWQQAA4F4oI2ZAAAAAAAMa2jjNiYbWQRraOM2JhtZBAACg+EB2aEAAAAAABLiUxdWJ
htZBuJTF1YmG1kEAAGBLnrxsQAAAAAADhlW43YmG1kGGVbjdiYbWQQAAUFn/WnBAAAAA
AATFAwUtiobWQcUDBS2KhtZBAACIdRUXgkAAAAAAAtwoRbaJhtZBrI0HLYqG1kEAAECt
ZheCQAAAAAACejhGRIqG1kFdUHZLiobWQQAAoKlp/YJAAAAAAAIY7QdPiobWQfrrP0+K
htZBAADghWkEg0AAAAAAAtBiCFmKhtZBNj93XYqG1kEAAKASRZKDQAAAAAACEYyjYoqG
1kHBOntviobWQQAAoOg6LYVAAAAAAAL4VEZziobWQcobuJWKhtZBAADgwnN7iUAAAAAA
AsN+h5iKhtZBnHD2n4qG1kEAAAD+UWmKQAAAAAACjUQFqYqG1kGufnmpiobWQQAAIELZ
d4pAAAAAAAJmMYepiobWQZKTBaqKhtZBAACgh6WHikAAAAAAAuupiK6KhtZB3s31D4uG
1kEAAAADpVqTQAAAAAAC5xzHEIuG1kHXMPYZi4bWQQAAAEKW7ZNAAAAAAAIfSgkwi4bW
QZRJRTOLhtZBAABQOVYhlEAAAAAAAvzBxEOLhtZBKnM1S4uG1kEAADBMYZiUQAAAAAAC
OExKb4uG1kEjMTVzi4bWQQAA4JoP15RAAAAAAALSUEV5i4bWQRmsNYWLhtZBAABQTxWW
lUAAAAAAAh/a0YiLhtZB14VEnIuG1kEAANAKQM2WQAAAAAACrFYGoouG1kHePwmpi4bW
QQAA8J1uPZdAAAAAAAKE1giti4bWQdnqt7SLhtZBAABA41+4l0AAAAAAAuD4xryLhtZB
+RA1yYuG1kEAANBkQX+YQAAAAAAC2SbGyouG1kEuxzTTi4bWQQAAIGorBplAAAAAAAL8
/UXVi4bWQVu1xNmLhtZBAAAQ4BZOmUAAAAAAAqQcjuuLhtZBYHRIF4yG1kEAANBbvAmc
QAAAAAACA1wGHIyG1kH4bLkijIbWQQAAIGvtdJxAAAAAAAKAgsUljIbWQWqKAymMhtZB
AADA6c2onEAAAAAAAhbZRjOMhtZB7N1FNYyG1kEAACA3vsicQAAAAAACmbcKR4yG1kHn
UjRJjIbWQQAAAOxX65xAAAAAAALS4QZVjIbWQaDdBVaMhtZBAADgqEf7nEAAAAAAAkLo
RVuMhtZBIEfGXYyG1kEAAMCWTSOdQAAAAAACgjoGYYyG1kGvmEVijIbWQQAAkHlDN51A
AAAAAALIzAdujIbWQTiDSXGMhtZBAACQ4F5rnUAAAAAAAlndBHOMhtZBNlo4dIyG1kEA
AGCuln6dQAAAAAAC7MBFeYyG1kGkT7N+jIbWQQAA4Jlv1Z1AAAAAAALpRUOBjIbWQZbN
spSMhtZBAACwFGgMn0AAAAAAArCQRpmMhtZBxAi1r4yG1kEAAPjKpzmgQAAAAAAC3uVG
soyG1kGm0HO1jIbWQQAAOCEPU6BAAAAAAAL2JwnRjIbWQfokBdOMhtZBAABYCe9ioEAA
AAAAAjvhhdaMhtZBUtfy6IyG1kEAABC6VvagQAAAAAACQGmF64yG1kEFM7X3jIbWQQAA
OAjVV6FAAAAAAAL35kYPjYbWQX/3gxKNhtZBAAB4jL1xoUAAAAAAAhb6SBSNhtZBMZfE
Mo2G1kEAAFB1mmWiQAAAAAAC0LRGNo2G1kEb2DFVjYbWQQAAqI/zXKNAAAAAAAJyFsVm
jYbWQQostnKNhtZBAABoPHy8o0AAAAAAAthkhXWNhtZB+OADjY2G1kEAAGgdcHikQAAA
AAACN8PDjo2G1kH2KbaQjYbWQQAAYFMDiKRAAAAAAALgg8WSjYbWQViv8LmNhtZBAAAg
r1zBpUAAAAAAAuFhx8KNhtZBxHzdyI2G1kEAADiGDfKlQAAAAAACmgZFz42G1kFyxPLW
jYbWQQAA+HR7L6ZAAAAAAAI+6wXZjYbWQZ4Hw/SNhtZBAAD4V2QNp0AAAAAAApCIBPeN
htZBLZjDDI6G1kEAAODUXLunQAAAAAACAfpEF46G1kFma3YYjobWQQAACGDoxKdAAAAA
AAKgwcYajobWQS5YaRyOhtZBAAB4FP3Rp0AAAAAAAmYuxR2OhtZBVKcCKo6G1kEAAOjb
6DOoQAAAAAACrifEQI6G1kGQaHFOjobWQQAA+OJSoahAAAAAAAKZ1YNUjobWQb4TAmKO
htZBAAAg1EQNqUAAAAAAAjgQyRiPhtZBnrMxG4+G1kEAAFDviSCpQAAAAAACoHGFHY+G
1kHo9YMpj4bWQQAAkBF+gKlAAAAAAAJB1YMtj4bWQcu+Sy+PhtZBAADgXb2OqUAAAAAA
Aoi9yEaPhtZBstSvTY+G1kEAADAX9sWpQAAAAAACVaPFU4+G1kGtpYWEj4bWQQAA8Cn2
S6tAAAAAAAL0+o6aj4bWQbyVBbGPhtZBAAAwAKv/q0AAAAAAAqhyx7OPhtZBVri104+G
1kEAAKAtHf+sQAAAAAACDHIG14+G1kFlHEXij4bWQQAAaIASWa1AAAAAAALEPcbjj4bW
QSgtcRiQhtZBAACI+2n+rkAAAAAAAvIFRSKQhtZBEymxKZCG1kEAAJAUyzmvQAAAAAAC
elKJN5CG1kG8V3JYkIbWQQAAUJ+JILBAAAAAAAIoDwhwkIbWQeDUBHeQhtZBAAAwtnw8
sEAAAAAAAtbGiX+QhtZB0nMIg5CG1kEAACBqd0qwQAAAAAACSMUM4JCG1kE2HXDnkIbW
QQAA2MkEaLBAAAAAAAJtOsbokIbWQSYayuqQhtZBAAC8SBRwsEAAAAAAAhWthe6QhtZB
HjX08ZCG1kEAAOBozn2wQAAAAAACqwXG/pCG1kGqgbQRkYbWQQAA3FiIybBAAAAAAAJM
iYYakYbWQQzoRSeRhtZBAADc04X8sEAAAAAAAoiBRymRhtZB2/yCK5GG1kEAACjBcwWx
QAAAAAACCMoJPJGG1kHEQDNzkYbWQQAAGJwZ4rFAAAAAAAJAhoaCkYbWQQuzM4SRhtZB
AABET87osUAAAAAAAuIcBYiRhtZBC5eujJGG1kEAAOg3dPuxQAAAAAACBDbGkZGG1kFw
XPKTkYbWQQAAmNEkBLJAAAAAAAIGSImikYbWQQxdsqiRhtZBAACwJckcskAAAAAAAhq+
xayRhtZBVI5ysZGG1kEAAJhmfC+yQAAAAAACLuRIupGG1kFwBkfCkYbWQQAAoO90T7JA
AAAAAALH887bkYbWQQ2mb9yRhtZBAAC4uPdRskAAAAAAAueqCeyRhtZBVRXY7ZGG1kEA
AHBiMVmyQAAAAAACUvFF8JGG1kGC/4T5kYbWQQAAMJstfrJAAAAAAANx4+0SkobWQXHj
7RKShtZBAABqKMKlskAAAAAABECFBCWShtZBQIUEJZKG1kEAAPqvHO6yQAAAAAACNMAI
CZKG1kG7QwYlkobWQQAATKkj7rJAAAAAAALIl8RakobWQec2A2GShtZBAADIJR4Hs0AA
AAAAAg5PhWOShtZB4H8DZJKG1kEAABDpFgmzQAAAAAACj/tGZ5KG1kGK40NrkobWQQAA
/IgKGbNAAAAAAAIqcUZtkobWQUW5RXSShtZBAABoqQc1s0AAAAAAAkvpB3eShtZBdM/t
o5KG1kEAAAxCn+izQAAAAAACZ2AFpZKG1kF6cIWnkobWQQAAWIKf8rNAAAAAAAJVFQqp
kobWQWo1hM6ShtZBAACsAoiItEAAAAAAAllsRdGShtZBw9fD0ZKG1kEAAFSwgYq0QAAA
AAACVhLH0ZKG1kGkAUTSkobWQQAAjG11jLRAAAAAAAKow8TTkobWQQzqq/GShtZBAAAc
BxIEtUAAAAAAAs08hk2ThtZBrd5DZZOG1kEAAJyOCGO1QAAAAAACiQiFZ5OG1kHBVat1
k4bWQQAAfMOhm7VAAAAAAAK4c2CBk4bWQfLRa4mThtZBAABkPM+7tUAAAAAAAh4ZSJOT
htZBATQrnpOG1kEAAPCnW+e1QAAAAAACbxCHp5OG1kE8iQOqk4bWQQAAJItN8bVAAAAA
AAKs5oe2k4bWQTBmhLiThtZBAAA0iT/5tUAAAAAAAiGulsGThtZBOSesGJSG1kEAAJRt
lVW3QAAAAAACaD3sG5SG1kGMEoQclIbWQQAAJML0V7dAAAAAAAJO8gQflIbWQTRmqiSU
htZBAAC8kYput0AAAAAAAnSZtjSUhtZBHxEGPJSG1kEAAGhwyIu3QAAAAAACwcVFm5SG
1kE7cS6ulIbWQQAAUB5r17dAAAAAAAIkfQSvlIbWQYv+AbyUhtZBAADsI2ELuEAAAAAA
Arqlxb+UhtZBrvQqy5SG1kEAALxf9ji4QAAAAAACDmWJ75SG1kGnXGn/lIbWQQAAID52
eLhAAAAAAAKqgwUElYbWQWXFwgWVhtZBAAAMRWt/uEAAAAAAAts0hAmVhtZBzvtHFpWG
1kEAANhgerK4QAAAAAACWJHFH5WG1kEEHekilYbWQQAAiI8Iv7hAAAAAAAKd8gUolYbW
QX9LhDWVhtZBAAAQ8wH1uEAAAAAAAn+kyFaVhtZBTvJFcpWG1kEAAEwq92K5QAAAAAAC
QwAJd5WG1kEAOEd9lYbWQQAAQAnwe7lAAAAAAAJ0tYh/lYbWQV+YRoSVhtZBAADslOeO
uUAAAAAAAoTXiIaVhtZB6zgwi5WG1kEAAIgahaG5QAAAAAACfAkHj5WG1kGMLUaSlYbW
QQAAyKqBrrlAAAAAAALtKbGYlYbWQQzMK7GVhtZBAABEM2wQukAAAAAAAokMCcqVhtZB
wLKGBJaG1kEAACDMYvq6QAAAAAACNE4ICJaG1kHjbooSlobWQQAA3E5rJLtAAAAAAAKN
JogUlobWQS6ORhyWhtZBAABg7WRDu0AAAAAAAorGxiSWhtZByvyGL5aG1kEAAGDGZW67
QAAAAAACrI3KU5aG1kHsS8VwlobWQQAAYL9Q4rtAAAAAAALBb8l2lobWQQvSKoaWhtZB
AACISNYfvEAAAAAAAg2LUYmWhtZBet/ukpaG1kEAADyaS0a8QAAAAAACXRUUl5aG1kHT
acaZlobWQQAAFOwUUbxAAAAAAAJpxMiqlobWQYTzRayWhtZBAACAqAlXvEAAAAAAAgxZ
zO6WhtZBJekq85aG1kEAAOTog2i8QAAAAAACwhPOBZeG1kFIMisHl4bWQQAA/GL4bbxA
AAAAAAKgpd8Kl4bWQdi4LhGXhtZBAADcrzSHvEAAAAAAAvzCsRaXhtZBtVOFJpeG1kEA
AMDygsa8QAAAAAACdNKGMpeG1kEa20ZEl4bWQQAAWBWDDb1AAAAAAAJCJU+Wl4bWQWe2
sJeXhtZBAADsWQkTvUAAAAAAAtOGpJ6XhtZBP8fDpJeG1kEAAJxbhiu9QAAAAAACaqBH
p5eG1kFx5MOql4bWQQAAuGt3Ob1AAAAAAAIoDUaul4bWQV3D67SXhtZBAACMRA5UvUAA
AAAAAnYXR7iXhtZB1QfpupeG1kEAAAgGll69QAAAAAACAkQHvZeG1kE336vTl4bWQQAA
3HIoub1AAAAAAAKYEgfXl4bWQSpxBtyXhtZBAAAk7SXNvUAAAAAAAmpOR9+XhtZBWKvp
5JeG1kEAANxgr+O9QAAAAAACsFqH55eG1kH8curwl4bWQQAADMI7Cb5AAAAAAALdQcz1
l4bWQSALKgKYhtZBAAAY57I6vkAAAAAAAqPKRgSYhtZBvK+fDZiG1kEAAHx7FmC+QAAA
AAAC+tGLNZqG1kHGGEQ5mobWQQAArJb3br5AAAAAAAIe28U6mobWQacgxEGahtZBAADQ
rPCKvkAAAAAAAjgtxlKahtZB2nMEVpqG1kEAAFjH6Ze+QAAAAAACjGNFWJqG1kFoPQNk
mobWQQAAyC7hxr5AAAAAAAIN/ARnmobWQRYZgW+ahtZBAADsotHovkAAAAAAAtRfxXKa
htZB6KEEepqG1kEAADyrzgW/QAAAAAACT8sEfZqG1kHYDIOCmobWQQAAYLHHG79AAAAA
AAL0TYeHmobWQbLVw5CahtZBAABY0LlAv0AAAAAAAqbVRJKahtZBmkHDnJqG1kEAACiA
s2q/QAAAAAACDM4GoZqG1kHl8ULumobWQQAAxgfST8BAAAAAAAIY0cX1mobWQQgehQ2b
htZBAACmoVB/wEAAAAAAAlBXOEabhtZBJ4fDaZuG1kEAAFQBZ8bAQAAAAAACaY/FbZuG
1kGwBAR2m4bWQQAA4uvj1sBAAAAAAAJVwQd/m4bWQaTjQxachtZBAACAMFwFwkAAAAAA
AqIKxhechtZBBcNDHpyG1kEAAEahVxLCQAAAAAACKEmSmZyG1kHHhAi2nIbWQQAAhBhE
S8JAAAAAAAI4hE26nIbWQeAQpb+chtZBAADUMfNVwkAAAAAAAi7KScachtZBNgdGypyG
1kEAAOSr613CQAAAAAACGF9JzZyG1kHml4fVnIbWQQAAgB1obsJAAAAAAAKrJMranIbW
QTViRt+chtZBAACUmGB3wkAAAAAAAmN+h+CchtZBCDnE5JyG1kEAAN4N2n/CQAAAAAAC
6syI7pyG1kHt04X2nIbWQQAA5BvUj8JAAAAAAAJlOMf5nIbWQUd2BwudhtZBAACol1Sy
wkAAAAAAAmr5zw2dhtZBUfekFJ2G1kEAAHaT/r/CQAAAAAACb/KHNp2G1kFUqaM6nYbW
QQAAQAE2yMJAAAAAAALUEUc8nYbWQb6gY+SdhtZBAAAUH28YxEAAAAAAAlKchuedhtZB
dVmk552G1kEAAFqZqhjEQAAAAAACVd7G552G1kHVXYXonYbWQQAAWpgnGsRAAAAAAAIe
xVPQnobWQaZBBeSehtZBAABqkYpBxEAAAAAAAuJxhuWehtZBHvuFDZ+G1kEAAOKjiZHE
QAAAAAACYKtHD5+G1kEQPaQjn4bWQQAAQsdCusRAAAAAAAJ0I4cmn4bWQRNG4VKfhtZB
AACADPcSxUAAAAAAAs75RlefhtZBN1GgWp+G1kEAAFK7qRnFQAAAAAACKXrGXJ+G1kGI
12Nfn4bWQQAAEHbkHsVAAAAAAAKM2chin4bWQbU0hmWfhtZBAABiLF8kxUAAAAAAAmFR
RmifhtZBAG4EbJ+G1kEAAKBl2yvFQAAAAAAC5ZvGdp+G1kGWmGR4n4bWQQAAAl8XL8VA
AAAAAALoLsuKn4bWQbADRo+fhtZBAACSCA04xUAAAAAAAw+245afhtZBD7bjlp+G1kEA
gJJ2RUDFQAAAAAAEGsDFmp+G1kEawMWan4bWQQCAuYoJSMVAAAAAAAI0f8eSn4bWQdpx
RZyfhtZBAADe7QhLxUAAAAAAAkxTSJyfhtZBCTbGnJ+G1kEAAFizBEzFQAAAAAACnfUH
op+G1kFLrEejn4bWQQAAtCCETsVAAAAAAAICg0eon4bWQR9lhayfhtZBAADu5P9WxUAA
AAAAAvOtiK2fhtZBZ3yGrp+G1kEAANaB+1jFQAAAAAACEoWGs5+G1kHqdQS1n4bWQQAA
hmP3W8VAAAAAAAKQhMjUn4bWQRL3pNefhtZBAACKSLBhxUAAAAAAAlqDRdqfhtZBVOaE
25+G1kEAAH4OL2TFQAAAAAACp7DG65+G1kH61kXtn4bWQQAAJFstZ8VAAAAAAAI4LQbx
n4bWQUwbxPOfhtZBAABMN6lsxUAAAAAAAgBvSAaghtZBFotEB6CG1kEAAHhvoW7FQAAA
AAACYReJKqCG1kEdHwUsoIbWQQAA8H6ZccVAAAAAAAKkbcqtoIbWQajfw7KghtZBAAD4
Yox7xUAAAAAAAi5xhuightZBnwGD6aCG1kEAANqDhX3FQAAAAAAClSwF66CG1kFv2F76
oIbWQQAAjts4nMVAAAAAAAKMZUcLoYbWQej5wwyhhtZBAABGBDKfxUAAAAAAAs3oRhih
htZBbVbDG6GG1kEAAIbfKqbFQAAAAAACft8GO6GG1kGP4MJAoYbWQQAAqOGiscVAAAAA
AALggsZHoYbWQSMwxEmhhtZBAAAuPJ61xUAAAAAAArQhB3ahhtZBtvWCd6GG1kEAADLk
lbjFQAAAAAADjzdehaGG1kGPN16FoYbWQQAAcNBHycVAAAAAAASphsOQoYbWQamGw5Ch
htZBAACLbhLgxUAAAAAAApZBBX2hhtZBll3joKGG1kEAADIcUgDGQAAAAAAC+u+FuqGG
1kFnnSDFoYbWQQAADHeHFcZAAAAAAAAAAAA=
</bin>
</fpdata>
</extensions>
</gpx>
